<?xml version="1.0" encoding="UTF-8" standalone="no" ?>
<gpx xmlns="http://www.topografix.com/GPX/1/1" xmlns:xsi="http://www.w3.org/2001/XMLSchema-instance" xsi:schemaLocation="http://www.topografix.com/GPX/1/1 http://www.topografix.com/GPX/1/1/gpx.xsd" version="1.1" creator="VisuGPX - https://www.visugpx.com">
  <metadata>
    <name>puy de coquille / gouttes au départ de la nugère</name>
    <desc><![CDATA[de petits coups de culs bien raides, mais les sommets et descentes des puys qui suivent valent l\'effort !]]></desc>
  </metadata>
  <trk>
    <name><![CDATA[COQUILLE GOUTTES on GPSies.com]]></name>
    <trkseg>
      <trkpt lat="45.85864" lon="2.97237">
        <ele>889.8374</ele>
        <time>2013-09-28T08:03:32Z</time>
      </trkpt>
      <trkpt lat="45.85875" lon="2.97194">
        <ele>891.27929</ele>
        <time>2013-09-28T08:03:44Z</time>
      </trkpt>
      <trkpt lat="45.85883" lon="2.97164">
        <ele>891.76</ele>
        <time>2013-09-28T08:03:52Z</time>
      </trkpt>
      <trkpt lat="45.8589" lon="2.97133">
        <ele>891.76</ele>
        <time>2013-09-28T08:03:59Z</time>
      </trkpt>
      <trkpt lat="45.859" lon="2.97091">
        <ele>891.76</ele>
        <time>2013-09-28T08:04:07Z</time>
      </trkpt>
      <trkpt lat="45.85915" lon="2.97031">
        <ele>891.76</ele>
        <time>2013-09-28T08:04:17Z</time>
      </trkpt>
      <trkpt lat="45.85921" lon="2.97004">
        <ele>891.27929</ele>
        <time>2013-09-28T08:04:23Z</time>
      </trkpt>
      <trkpt lat="45.85922" lon="2.97003">
        <ele>890.79858</ele>
        <time>2013-09-28T08:04:28Z</time>
      </trkpt>
      <trkpt lat="45.85921" lon="2.97003">
        <ele>890.79858</ele>
        <time>2013-09-28T08:04:38Z</time>
      </trkpt>
      <trkpt lat="45.85917" lon="2.97005">
        <ele>890.79858</ele>
        <time>2013-09-28T08:04:43Z</time>
      </trkpt>
      <trkpt lat="45.85916" lon="2.97001">
        <ele>890.79858</ele>
        <time>2013-09-28T08:04:49Z</time>
      </trkpt>
      <trkpt lat="45.85917" lon="2.97002">
        <ele>890.79858</ele>
        <time>2013-09-28T08:04:50Z</time>
      </trkpt>
      <trkpt lat="45.85918" lon="2.97005">
        <ele>890.79858</ele>
        <time>2013-09-28T08:04:53Z</time>
      </trkpt>
      <trkpt lat="45.85926" lon="2.9701">
        <ele>890.79858</ele>
        <time>2013-09-28T08:04:59Z</time>
      </trkpt>
      <trkpt lat="45.85928" lon="2.97008">
        <ele>890.79858</ele>
        <time>2013-09-28T08:05:03Z</time>
      </trkpt>
      <trkpt lat="45.85929" lon="2.97006">
        <ele>888.87622</ele>
        <time>2013-09-28T08:06:24Z</time>
      </trkpt>
      <trkpt lat="45.85929" lon="2.97006">
        <ele>889.35668</ele>
        <time>2013-09-28T08:06:28Z</time>
      </trkpt>
      <trkpt lat="45.8593" lon="2.96989">
        <ele>889.8374</ele>
        <time>2013-09-28T08:06:34Z</time>
      </trkpt>
      <trkpt lat="45.85935" lon="2.96964">
        <ele>890.31811</ele>
        <time>2013-09-28T08:06:39Z</time>
      </trkpt>
      <trkpt lat="45.85942" lon="2.96936">
        <ele>890.79858</ele>
        <time>2013-09-28T08:06:44Z</time>
      </trkpt>
      <trkpt lat="45.8595" lon="2.96908">
        <ele>890.79858</ele>
        <time>2013-09-28T08:06:49Z</time>
      </trkpt>
      <trkpt lat="45.85951" lon="2.96902">
        <ele>890.79858</ele>
        <time>2013-09-28T08:06:50Z</time>
      </trkpt>
      <trkpt lat="45.85962" lon="2.96874">
        <ele>891.27929</ele>
        <time>2013-09-28T08:06:55Z</time>
      </trkpt>
      <trkpt lat="45.8596" lon="2.96867">
        <ele>891.76</ele>
        <time>2013-09-28T08:06:58Z</time>
      </trkpt>
      <trkpt lat="45.85958" lon="2.96871">
        <ele>892.24096</ele>
        <time>2013-09-28T08:06:59Z</time>
      </trkpt>
      <trkpt lat="45.85957" lon="2.9688">
        <ele>892.24096</ele>
        <time>2013-09-28T08:07:01Z</time>
      </trkpt>
      <trkpt lat="45.85967" lon="2.96893">
        <ele>889.8374</ele>
        <time>2013-09-28T08:07:05Z</time>
      </trkpt>
      <trkpt lat="45.8598" lon="2.96893">
        <ele>886.95336</ele>
        <time>2013-09-28T08:07:08Z</time>
      </trkpt>
      <trkpt lat="45.85994" lon="2.96906">
        <ele>884.06958</ele>
        <time>2013-09-28T08:07:11Z</time>
      </trkpt>
      <trkpt lat="45.86031" lon="2.96917">
        <ele>879.74365</ele>
        <time>2013-09-28T08:07:17Z</time>
      </trkpt>
      <trkpt lat="45.86038" lon="2.96918">
        <ele>879.74365</ele>
        <time>2013-09-28T08:07:18Z</time>
      </trkpt>
      <trkpt lat="45.86066" lon="2.96939">
        <ele>875.41748</ele>
        <time>2013-09-28T08:07:24Z</time>
      </trkpt>
      <trkpt lat="45.86083" lon="2.96952">
        <ele>873.0144</ele>
        <time>2013-09-28T08:07:27Z</time>
      </trkpt>
      <trkpt lat="45.86109" lon="2.96969">
        <ele>871.09179</ele>
        <time>2013-09-28T08:07:31Z</time>
      </trkpt>
      <trkpt lat="45.86142" lon="2.96971">
        <ele>869.6499</ele>
        <time>2013-09-28T08:07:35Z</time>
      </trkpt>
      <trkpt lat="45.86158" lon="2.9697">
        <ele>869.16918</ele>
        <time>2013-09-28T08:07:38Z</time>
      </trkpt>
      <trkpt lat="45.86183" lon="2.96981">
        <ele>867.72705</ele>
        <time>2013-09-28T08:07:43Z</time>
      </trkpt>
      <trkpt lat="45.862" lon="2.96985">
        <ele>866.76586</ele>
        <time>2013-09-28T08:07:48Z</time>
      </trkpt>
      <trkpt lat="45.86213" lon="2.96971">
        <ele>866.76586</ele>
        <time>2013-09-28T08:07:53Z</time>
      </trkpt>
      <trkpt lat="45.86226" lon="2.96956">
        <ele>867.72705</ele>
        <time>2013-09-28T08:07:58Z</time>
      </trkpt>
      <trkpt lat="45.86239" lon="2.96941">
        <ele>867.24658</ele>
        <time>2013-09-28T08:08:03Z</time>
      </trkpt>
      <trkpt lat="45.86251" lon="2.96923">
        <ele>867.24658</ele>
        <time>2013-09-28T08:08:08Z</time>
      </trkpt>
      <trkpt lat="45.86264" lon="2.96904">
        <ele>867.72705</ele>
        <time>2013-09-28T08:08:13Z</time>
      </trkpt>
      <trkpt lat="45.86281" lon="2.96882">
        <ele>866.28515</ele>
        <time>2013-09-28T08:08:18Z</time>
      </trkpt>
      <trkpt lat="45.86286" lon="2.96877">
        <ele>866.28515</ele>
        <time>2013-09-28T08:08:19Z</time>
      </trkpt>
      <trkpt lat="45.86295" lon="2.96864">
        <ele>865.80468</ele>
        <time>2013-09-28T08:08:21Z</time>
      </trkpt>
      <trkpt lat="45.86308" lon="2.96849">
        <ele>864.84326</ele>
        <time>2013-09-28T08:08:24Z</time>
      </trkpt>
      <trkpt lat="45.86342" lon="2.9682">
        <ele>863.40136</ele>
        <time>2013-09-28T08:08:31Z</time>
      </trkpt>
      <trkpt lat="45.86346" lon="2.96816">
        <ele>863.40136</ele>
        <time>2013-09-28T08:08:32Z</time>
      </trkpt>
      <trkpt lat="45.86365" lon="2.96804">
        <ele>863.40136</ele>
        <time>2013-09-28T08:08:36Z</time>
      </trkpt>
      <trkpt lat="45.86383" lon="2.96802">
        <ele>862.92065</ele>
        <time>2013-09-28T08:08:40Z</time>
      </trkpt>
      <trkpt lat="45.86416" lon="2.9682">
        <ele>861.95947</ele>
        <time>2013-09-28T08:08:47Z</time>
      </trkpt>
      <trkpt lat="45.86422" lon="2.96822">
        <ele>861.95947</ele>
        <time>2013-09-28T08:08:48Z</time>
      </trkpt>
      <trkpt lat="45.86437" lon="2.9683">
        <ele>861.95947</ele>
        <time>2013-09-28T08:08:51Z</time>
      </trkpt>
      <trkpt lat="45.86463" lon="2.96843">
        <ele>860.99804</ele>
        <time>2013-09-28T08:08:56Z</time>
      </trkpt>
      <trkpt lat="45.8649" lon="2.9686">
        <ele>859.5559</ele>
        <time>2013-09-28T08:09:02Z</time>
      </trkpt>
      <trkpt lat="45.86495" lon="2.96863">
        <ele>859.5559</ele>
        <time>2013-09-28T08:09:03Z</time>
      </trkpt>
      <trkpt lat="45.86512" lon="2.96869">
        <ele>859.5559</ele>
        <time>2013-09-28T08:09:07Z</time>
      </trkpt>
      <trkpt lat="45.86517" lon="2.96862">
        <ele>859.07519</ele>
        <time>2013-09-28T08:09:10Z</time>
      </trkpt>
      <trkpt lat="45.8652" lon="2.9686">
        <ele>858.59448</ele>
        <time>2013-09-28T08:09:15Z</time>
      </trkpt>
      <trkpt lat="45.8652" lon="2.96861">
        <ele>859.07519</ele>
        <time>2013-09-28T08:09:18Z</time>
      </trkpt>
      <trkpt lat="45.86525" lon="2.96849">
        <ele>859.07519</ele>
        <time>2013-09-28T08:09:24Z</time>
      </trkpt>
      <trkpt lat="45.86534" lon="2.96827">
        <ele>859.5559</ele>
        <time>2013-09-28T08:09:30Z</time>
      </trkpt>
      <trkpt lat="45.86546" lon="2.96803">
        <ele>859.07519</ele>
        <time>2013-09-28T08:09:36Z</time>
      </trkpt>
      <trkpt lat="45.86555" lon="2.96785">
        <ele>859.07519</ele>
        <time>2013-09-28T08:09:41Z</time>
      </trkpt>
      <trkpt lat="45.86567" lon="2.96765">
        <ele>859.07519</ele>
        <time>2013-09-28T08:09:46Z</time>
      </trkpt>
      <trkpt lat="45.86579" lon="2.96746">
        <ele>859.5559</ele>
        <time>2013-09-28T08:09:51Z</time>
      </trkpt>
      <trkpt lat="45.86591" lon="2.96729">
        <ele>858.59448</ele>
        <time>2013-09-28T08:09:56Z</time>
      </trkpt>
      <trkpt lat="45.86608" lon="2.96706">
        <ele>858.59448</ele>
        <time>2013-09-28T08:10:03Z</time>
      </trkpt>
      <trkpt lat="45.86611" lon="2.96702">
        <ele>858.11401</ele>
        <time>2013-09-28T08:10:06Z</time>
      </trkpt>
      <trkpt lat="45.86611" lon="2.96702">
        <ele>858.11401</ele>
        <time>2013-09-28T08:10:08Z</time>
      </trkpt>
      <trkpt lat="45.86617" lon="2.96689">
        <ele>858.11401</ele>
        <time>2013-09-28T08:10:15Z</time>
      </trkpt>
      <trkpt lat="45.86628" lon="2.96675">
        <ele>857.6333</ele>
        <time>2013-09-28T08:10:20Z</time>
      </trkpt>
      <trkpt lat="45.86648" lon="2.96651">
        <ele>858.59448</ele>
        <time>2013-09-28T08:10:27Z</time>
      </trkpt>
      <trkpt lat="45.86663" lon="2.96632">
        <ele>858.11401</ele>
        <time>2013-09-28T08:10:33Z</time>
      </trkpt>
      <trkpt lat="45.86674" lon="2.96618">
        <ele>859.07519</ele>
        <time>2013-09-28T08:10:37Z</time>
      </trkpt>
      <trkpt lat="45.86685" lon="2.96595">
        <ele>859.5559</ele>
        <time>2013-09-28T08:10:42Z</time>
      </trkpt>
      <trkpt lat="45.86697" lon="2.96567">
        <ele>860.51733</ele>
        <time>2013-09-28T08:10:48Z</time>
      </trkpt>
      <trkpt lat="45.86709" lon="2.96539">
        <ele>860.99804</ele>
        <time>2013-09-28T08:10:54Z</time>
      </trkpt>
      <trkpt lat="45.86725" lon="2.96512">
        <ele>860.51733</ele>
        <time>2013-09-28T08:11:02Z</time>
      </trkpt>
      <trkpt lat="45.86741" lon="2.96484">
        <ele>860.51733</ele>
        <time>2013-09-28T08:11:08Z</time>
      </trkpt>
      <trkpt lat="45.86755" lon="2.96458">
        <ele>860.03662</ele>
        <time>2013-09-28T08:11:13Z</time>
      </trkpt>
      <trkpt lat="45.86771" lon="2.96434">
        <ele>859.07519</ele>
        <time>2013-09-28T08:11:18Z</time>
      </trkpt>
      <trkpt lat="45.86772" lon="2.96421">
        <ele>859.07519</ele>
        <time>2013-09-28T08:11:23Z</time>
      </trkpt>
      <trkpt lat="45.86768" lon="2.964">
        <ele>859.5559</ele>
        <time>2013-09-28T08:11:29Z</time>
      </trkpt>
      <trkpt lat="45.86766" lon="2.96397">
        <ele>859.5559</ele>
        <time>2013-09-28T08:11:30Z</time>
      </trkpt>
      <trkpt lat="45.86745" lon="2.96376">
        <ele>860.51733</ele>
        <time>2013-09-28T08:11:38Z</time>
      </trkpt>
      <trkpt lat="45.86735" lon="2.96367">
        <ele>860.99804</ele>
        <time>2013-09-28T08:11:42Z</time>
      </trkpt>
      <trkpt lat="45.86717" lon="2.9636">
        <ele>861.47875</ele>
        <time>2013-09-28T08:11:48Z</time>
      </trkpt>
      <trkpt lat="45.86705" lon="2.96351">
        <ele>862.43994</ele>
        <time>2013-09-28T08:11:53Z</time>
      </trkpt>
      <trkpt lat="45.86696" lon="2.96334">
        <ele>862.92065</ele>
        <time>2013-09-28T08:11:58Z</time>
      </trkpt>
      <trkpt lat="45.86688" lon="2.96314">
        <ele>863.88183</ele>
        <time>2013-09-28T08:12:04Z</time>
      </trkpt>
      <trkpt lat="45.86688" lon="2.9631">
        <ele>864.36254</ele>
        <time>2013-09-28T08:12:05Z</time>
      </trkpt>
      <trkpt lat="45.86682" lon="2.96297">
        <ele>864.36254</ele>
        <time>2013-09-28T08:12:09Z</time>
      </trkpt>
      <trkpt lat="45.86673" lon="2.96272">
        <ele>866.28515</ele>
        <time>2013-09-28T08:12:17Z</time>
      </trkpt>
      <trkpt lat="45.8667" lon="2.96266">
        <ele>866.76586</ele>
        <time>2013-09-28T08:12:20Z</time>
      </trkpt>
      <trkpt lat="45.86659" lon="2.96261">
        <ele>868.68847</ele>
        <time>2013-09-28T08:12:26Z</time>
      </trkpt>
      <trkpt lat="45.86657" lon="2.9626">
        <ele>869.16918</ele>
        <time>2013-09-28T08:12:27Z</time>
      </trkpt>
      <trkpt lat="45.86652" lon="2.96257">
        <ele>869.6499</ele>
        <time>2013-09-28T08:12:30Z</time>
      </trkpt>
      <trkpt lat="45.86639" lon="2.96253">
        <ele>872.05297</ele>
        <time>2013-09-28T08:12:37Z</time>
      </trkpt>
      <trkpt lat="45.86626" lon="2.96243">
        <ele>873.97558</ele>
        <time>2013-09-28T08:12:44Z</time>
      </trkpt>
      <trkpt lat="45.86622" lon="2.9624">
        <ele>875.41748</ele>
        <time>2013-09-28T08:12:47Z</time>
      </trkpt>
      <trkpt lat="45.86613" lon="2.96238">
        <ele>876.85986</ele>
        <time>2013-09-28T08:12:52Z</time>
      </trkpt>
      <trkpt lat="45.86601" lon="2.9623">
        <ele>878.78247</ele>
        <time>2013-09-28T08:13:01Z</time>
      </trkpt>
      <trkpt lat="45.86594" lon="2.96221">
        <ele>880.70507</ele>
        <time>2013-09-28T08:13:07Z</time>
      </trkpt>
      <trkpt lat="45.86591" lon="2.96211">
        <ele>882.62768</ele>
        <time>2013-09-28T08:13:13Z</time>
      </trkpt>
      <trkpt lat="45.86588" lon="2.96207">
        <ele>883.10815</ele>
        <time>2013-09-28T08:13:16Z</time>
      </trkpt>
      <trkpt lat="45.86583" lon="2.96201">
        <ele>885.031</ele>
        <time>2013-09-28T08:13:21Z</time>
      </trkpt>
      <trkpt lat="45.86577" lon="2.96195">
        <ele>886.4729</ele>
        <time>2013-09-28T08:13:27Z</time>
      </trkpt>
      <trkpt lat="45.86567" lon="2.96185">
        <ele>888.87622</ele>
        <time>2013-09-28T08:13:34Z</time>
      </trkpt>
      <trkpt lat="45.86559" lon="2.96175">
        <ele>890.31811</ele>
        <time>2013-09-28T08:13:41Z</time>
      </trkpt>
      <trkpt lat="45.86553" lon="2.96165">
        <ele>890.79858</ele>
        <time>2013-09-28T08:13:47Z</time>
      </trkpt>
      <trkpt lat="45.86543" lon="2.96158">
        <ele>892.24096</ele>
        <time>2013-09-28T08:13:54Z</time>
      </trkpt>
      <trkpt lat="45.86534" lon="2.96155">
        <ele>893.20214</ele>
        <time>2013-09-28T08:14:00Z</time>
      </trkpt>
      <trkpt lat="45.86529" lon="2.96145">
        <ele>894.16357</ele>
        <time>2013-09-28T08:14:07Z</time>
      </trkpt>
      <trkpt lat="45.86524" lon="2.96131">
        <ele>895.12475</ele>
        <time>2013-09-28T08:14:14Z</time>
      </trkpt>
      <trkpt lat="45.86519" lon="2.96118">
        <ele>896.08618</ele>
        <time>2013-09-28T08:14:21Z</time>
      </trkpt>
      <trkpt lat="45.86504" lon="2.96106">
        <ele>897.52807</ele>
        <time>2013-09-28T08:14:31Z</time>
      </trkpt>
      <trkpt lat="45.86489" lon="2.96094">
        <ele>898.48925</ele>
        <time>2013-09-28T08:14:40Z</time>
      </trkpt>
      <trkpt lat="45.86482" lon="2.96081">
        <ele>898.96997</ele>
        <time>2013-09-28T08:14:46Z</time>
      </trkpt>
      <trkpt lat="45.86475" lon="2.9607">
        <ele>900.4121</ele>
        <time>2013-09-28T08:14:52Z</time>
      </trkpt>
      <trkpt lat="45.8647" lon="2.96055">
        <ele>900.89257</ele>
        <time>2013-09-28T08:14:58Z</time>
      </trkpt>
      <trkpt lat="45.86463" lon="2.96035">
        <ele>902.33447</ele>
        <time>2013-09-28T08:15:06Z</time>
      </trkpt>
      <trkpt lat="45.86457" lon="2.96023">
        <ele>902.81518</ele>
        <time>2013-09-28T08:15:11Z</time>
      </trkpt>
      <trkpt lat="45.86457" lon="2.9602">
        <ele>902.81518</ele>
        <time>2013-09-28T08:15:12Z</time>
      </trkpt>
      <trkpt lat="45.8645" lon="2.96004">
        <ele>903.77661</ele>
        <time>2013-09-28T08:15:18Z</time>
      </trkpt>
      <trkpt lat="45.86442" lon="2.95989">
        <ele>904.25732</ele>
        <time>2013-09-28T08:15:24Z</time>
      </trkpt>
      <trkpt lat="45.8643" lon="2.95979">
        <ele>905.2185</ele>
        <time>2013-09-28T08:15:30Z</time>
      </trkpt>
      <trkpt lat="45.86417" lon="2.95973">
        <ele>905.69921</ele>
        <time>2013-09-28T08:15:36Z</time>
      </trkpt>
      <trkpt lat="45.86406" lon="2.9597">
        <ele>906.6604</ele>
        <time>2013-09-28T08:15:41Z</time>
      </trkpt>
      <trkpt lat="45.86386" lon="2.95962">
        <ele>907.14111</ele>
        <time>2013-09-28T08:15:49Z</time>
      </trkpt>
      <trkpt lat="45.86373" lon="2.95952">
        <ele>908.10278</ele>
        <time>2013-09-28T08:15:56Z</time>
      </trkpt>
      <trkpt lat="45.86362" lon="2.95941">
        <ele>909.06396</ele>
        <time>2013-09-28T08:16:01Z</time>
      </trkpt>
      <trkpt lat="45.86358" lon="2.9593">
        <ele>909.06396</ele>
        <time>2013-09-28T08:16:06Z</time>
      </trkpt>
      <trkpt lat="45.86356" lon="2.95924">
        <ele>909.06396</ele>
        <time>2013-09-28T08:16:08Z</time>
      </trkpt>
      <trkpt lat="45.86359" lon="2.95899">
        <ele>908.10278</ele>
        <time>2013-09-28T08:16:14Z</time>
      </trkpt>
      <trkpt lat="45.86351" lon="2.95884">
        <ele>908.10278</ele>
        <time>2013-09-28T08:16:18Z</time>
      </trkpt>
      <trkpt lat="45.86342" lon="2.95871">
        <ele>909.06396</ele>
        <time>2013-09-28T08:16:23Z</time>
      </trkpt>
      <trkpt lat="45.86337" lon="2.95855">
        <ele>909.06396</ele>
        <time>2013-09-28T08:16:29Z</time>
      </trkpt>
      <trkpt lat="45.86328" lon="2.95829">
        <ele>909.06396</ele>
        <time>2013-09-28T08:16:36Z</time>
      </trkpt>
      <trkpt lat="45.86317" lon="2.95798">
        <ele>909.06396</ele>
        <time>2013-09-28T08:16:44Z</time>
      </trkpt>
      <trkpt lat="45.8631" lon="2.95775">
        <ele>909.54467</ele>
        <time>2013-09-28T08:16:50Z</time>
      </trkpt>
      <trkpt lat="45.86296" lon="2.95737">
        <ele>909.54467</ele>
        <time>2013-09-28T08:17:00Z</time>
      </trkpt>
      <trkpt lat="45.86284" lon="2.95708">
        <ele>910.02514</ele>
        <time>2013-09-28T08:17:08Z</time>
      </trkpt>
      <trkpt lat="45.86272" lon="2.9569">
        <ele>910.02514</ele>
        <time>2013-09-28T08:17:14Z</time>
      </trkpt>
      <trkpt lat="45.86257" lon="2.95666">
        <ele>910.50585</ele>
        <time>2013-09-28T08:17:22Z</time>
      </trkpt>
      <trkpt lat="45.86242" lon="2.95647">
        <ele>911.46728</ele>
        <time>2013-09-28T08:17:29Z</time>
      </trkpt>
      <trkpt lat="45.86232" lon="2.95624">
        <ele>911.46728</ele>
        <time>2013-09-28T08:17:36Z</time>
      </trkpt>
      <trkpt lat="45.86226" lon="2.95608">
        <ele>911.94799</ele>
        <time>2013-09-28T08:17:41Z</time>
      </trkpt>
      <trkpt lat="45.86222" lon="2.9559">
        <ele>912.90917</ele>
        <time>2013-09-28T08:17:47Z</time>
      </trkpt>
      <trkpt lat="45.86215" lon="2.95572">
        <ele>913.38989</ele>
        <time>2013-09-28T08:17:53Z</time>
      </trkpt>
      <trkpt lat="45.86212" lon="2.95558">
        <ele>913.87036</ele>
        <time>2013-09-28T08:17:58Z</time>
      </trkpt>
      <trkpt lat="45.86208" lon="2.95541">
        <ele>914.83178</ele>
        <time>2013-09-28T08:18:04Z</time>
      </trkpt>
      <trkpt lat="45.86202" lon="2.95522">
        <ele>915.3125</ele>
        <time>2013-09-28T08:18:10Z</time>
      </trkpt>
      <trkpt lat="45.86195" lon="2.95505">
        <ele>915.79321</ele>
        <time>2013-09-28T08:18:16Z</time>
      </trkpt>
      <trkpt lat="45.86188" lon="2.95483">
        <ele>917.2351</ele>
        <time>2013-09-28T08:18:23Z</time>
      </trkpt>
      <trkpt lat="45.86179" lon="2.95466">
        <ele>917.71557</ele>
        <time>2013-09-28T08:18:30Z</time>
      </trkpt>
      <trkpt lat="45.86171" lon="2.95447">
        <ele>918.677</ele>
        <time>2013-09-28T08:18:38Z</time>
      </trkpt>
      <trkpt lat="45.86164" lon="2.95433">
        <ele>920.11889</ele>
        <time>2013-09-28T08:18:44Z</time>
      </trkpt>
      <trkpt lat="45.8616" lon="2.95421">
        <ele>920.5996</ele>
        <time>2013-09-28T08:18:49Z</time>
      </trkpt>
      <trkpt lat="45.86154" lon="2.95409">
        <ele>921.08032</ele>
        <time>2013-09-28T08:18:54Z</time>
      </trkpt>
      <trkpt lat="45.86149" lon="2.95397">
        <ele>921.56079</ele>
        <time>2013-09-28T08:19:00Z</time>
      </trkpt>
      <trkpt lat="45.8614" lon="2.95387">
        <ele>923.00292</ele>
        <time>2013-09-28T08:19:06Z</time>
      </trkpt>
      <trkpt lat="45.86132" lon="2.95378">
        <ele>923.96411</ele>
        <time>2013-09-28T08:19:11Z</time>
      </trkpt>
      <trkpt lat="45.86121" lon="2.95364">
        <ele>925.40625</ele>
        <time>2013-09-28T08:19:18Z</time>
      </trkpt>
      <trkpt lat="45.86111" lon="2.95349">
        <ele>925.88696</ele>
        <time>2013-09-28T08:19:25Z</time>
      </trkpt>
      <trkpt lat="45.86103" lon="2.95337">
        <ele>926.84838</ele>
        <time>2013-09-28T08:19:30Z</time>
      </trkpt>
      <trkpt lat="45.86094" lon="2.95324">
        <ele>927.80957</ele>
        <time>2013-09-28T08:19:36Z</time>
      </trkpt>
      <trkpt lat="45.86086" lon="2.95305">
        <ele>928.77099</ele>
        <time>2013-09-28T08:19:44Z</time>
      </trkpt>
      <trkpt lat="45.86082" lon="2.95288">
        <ele>930.21289</ele>
        <time>2013-09-28T08:19:52Z</time>
      </trkpt>
      <trkpt lat="45.86083" lon="2.95273">
        <ele>932.61621</ele>
        <time>2013-09-28T08:19:59Z</time>
      </trkpt>
      <trkpt lat="45.86079" lon="2.95264">
        <ele>933.09667</ele>
        <time>2013-09-28T08:20:04Z</time>
      </trkpt>
      <trkpt lat="45.86068" lon="2.95249">
        <ele>935.01953</ele>
        <time>2013-09-28T08:20:13Z</time>
      </trkpt>
      <trkpt lat="45.8606" lon="2.95234">
        <ele>935.98071</ele>
        <time>2013-09-28T08:20:21Z</time>
      </trkpt>
      <trkpt lat="45.86048" lon="2.95218">
        <ele>936.94189</ele>
        <time>2013-09-28T08:20:29Z</time>
      </trkpt>
      <trkpt lat="45.86035" lon="2.95207">
        <ele>937.4226</ele>
        <time>2013-09-28T08:20:35Z</time>
      </trkpt>
      <trkpt lat="45.86023" lon="2.95196">
        <ele>937.4226</ele>
        <time>2013-09-28T08:20:41Z</time>
      </trkpt>
      <trkpt lat="45.8601" lon="2.95186">
        <ele>938.38403</ele>
        <time>2013-09-28T08:20:48Z</time>
      </trkpt>
      <trkpt lat="45.86" lon="2.9518">
        <ele>938.86474</ele>
        <time>2013-09-28T08:20:52Z</time>
      </trkpt>
      <trkpt lat="45.85985" lon="2.95171">
        <ele>939.34521</ele>
        <time>2013-09-28T08:20:59Z</time>
      </trkpt>
      <trkpt lat="45.85974" lon="2.95171">
        <ele>939.82592</ele>
        <time>2013-09-28T08:21:04Z</time>
      </trkpt>
      <trkpt lat="45.85963" lon="2.95174">
        <ele>940.78735</ele>
        <time>2013-09-28T08:21:10Z</time>
      </trkpt>
      <trkpt lat="45.85953" lon="2.95181">
        <ele>941.26806</ele>
        <time>2013-09-28T08:21:15Z</time>
      </trkpt>
      <trkpt lat="45.85954" lon="2.95186">
        <ele>941.26806</ele>
        <time>2013-09-28T08:21:19Z</time>
      </trkpt>
      <trkpt lat="45.85954" lon="2.9518">
        <ele>940.78735</ele>
        <time>2013-09-28T08:21:23Z</time>
      </trkpt>
      <trkpt lat="45.85954" lon="2.95174">
        <ele>940.78735</ele>
        <time>2013-09-28T08:21:45Z</time>
      </trkpt>
      <trkpt lat="45.85948" lon="2.95146">
        <ele>941.26806</ele>
        <time>2013-09-28T08:21:52Z</time>
      </trkpt>
      <trkpt lat="45.85935" lon="2.95099">
        <ele>941.74877</ele>
        <time>2013-09-28T08:22:03Z</time>
      </trkpt>
      <trkpt lat="45.85925" lon="2.95062">
        <ele>941.74877</ele>
        <time>2013-09-28T08:22:12Z</time>
      </trkpt>
      <trkpt lat="45.85916" lon="2.9502">
        <ele>941.26806</ele>
        <time>2013-09-28T08:22:21Z</time>
      </trkpt>
      <trkpt lat="45.85907" lon="2.9498">
        <ele>940.30688</ele>
        <time>2013-09-28T08:22:29Z</time>
      </trkpt>
      <trkpt lat="45.85898" lon="2.94929">
        <ele>939.82592</ele>
        <time>2013-09-28T08:22:38Z</time>
      </trkpt>
      <trkpt lat="45.85896" lon="2.94916">
        <ele>939.82592</ele>
        <time>2013-09-28T08:22:40Z</time>
      </trkpt>
      <trkpt lat="45.85892" lon="2.94894">
        <ele>938.86474</ele>
        <time>2013-09-28T08:22:43Z</time>
      </trkpt>
      <trkpt lat="45.85882" lon="2.94867">
        <ele>938.86474</ele>
        <time>2013-09-28T08:22:47Z</time>
      </trkpt>
      <trkpt lat="45.85879" lon="2.94845">
        <ele>939.34521</ele>
        <time>2013-09-28T08:22:51Z</time>
      </trkpt>
      <trkpt lat="45.85876" lon="2.94816">
        <ele>939.34521</ele>
        <time>2013-09-28T08:22:56Z</time>
      </trkpt>
      <trkpt lat="45.85868" lon="2.94797">
        <ele>939.34521</ele>
        <time>2013-09-28T08:23:00Z</time>
      </trkpt>
      <trkpt lat="45.85859" lon="2.94781">
        <ele>939.34521</ele>
        <time>2013-09-28T08:23:04Z</time>
      </trkpt>
      <trkpt lat="45.85847" lon="2.94764">
        <ele>940.78735</ele>
        <time>2013-09-28T08:23:09Z</time>
      </trkpt>
      <trkpt lat="45.85835" lon="2.94749">
        <ele>941.26806</ele>
        <time>2013-09-28T08:23:14Z</time>
      </trkpt>
      <trkpt lat="45.85822" lon="2.94731">
        <ele>942.22949</ele>
        <time>2013-09-28T08:23:20Z</time>
      </trkpt>
      <trkpt lat="45.85813" lon="2.94712">
        <ele>943.19067</ele>
        <time>2013-09-28T08:23:26Z</time>
      </trkpt>
      <trkpt lat="45.85805" lon="2.94696">
        <ele>944.15209</ele>
        <time>2013-09-28T08:23:33Z</time>
      </trkpt>
      <trkpt lat="45.85804" lon="2.94676">
        <ele>944.15209</ele>
        <time>2013-09-28T08:23:40Z</time>
      </trkpt>
      <trkpt lat="45.85801" lon="2.94647">
        <ele>944.15209</ele>
        <time>2013-09-28T08:23:47Z</time>
      </trkpt>
      <trkpt lat="45.85793" lon="2.94618">
        <ele>943.67138</ele>
        <time>2013-09-28T08:23:53Z</time>
      </trkpt>
      <trkpt lat="45.85779" lon="2.94593">
        <ele>943.67138</ele>
        <time>2013-09-28T08:23:59Z</time>
      </trkpt>
      <trkpt lat="45.85765" lon="2.9457">
        <ele>944.15209</ele>
        <time>2013-09-28T08:24:05Z</time>
      </trkpt>
      <trkpt lat="45.85742" lon="2.94537">
        <ele>944.63256</ele>
        <time>2013-09-28T08:24:14Z</time>
      </trkpt>
      <trkpt lat="45.85724" lon="2.94504">
        <ele>945.11328</ele>
        <time>2013-09-28T08:24:22Z</time>
      </trkpt>
      <trkpt lat="45.85708" lon="2.94467">
        <ele>945.59399</ele>
        <time>2013-09-28T08:24:31Z</time>
      </trkpt>
      <trkpt lat="45.85696" lon="2.94427">
        <ele>947.5166</ele>
        <time>2013-09-28T08:24:41Z</time>
      </trkpt>
      <trkpt lat="45.85694" lon="2.94406">
        <ele>948.95849</ele>
        <time>2013-09-28T08:24:46Z</time>
      </trkpt>
      <trkpt lat="45.85693" lon="2.94386">
        <ele>949.91992</ele>
        <time>2013-09-28T08:24:52Z</time>
      </trkpt>
      <trkpt lat="45.85693" lon="2.94375">
        <ele>950.8811</ele>
        <time>2013-09-28T08:24:58Z</time>
      </trkpt>
      <trkpt lat="45.85695" lon="2.94373">
        <ele>949.91992</ele>
        <time>2013-09-28T08:25:03Z</time>
      </trkpt>
      <trkpt lat="45.85694" lon="2.94372">
        <ele>950.40063</ele>
        <time>2013-09-28T08:25:23Z</time>
      </trkpt>
      <trkpt lat="45.85686" lon="2.94365">
        <ele>951.84252</ele>
        <time>2013-09-28T08:25:30Z</time>
      </trkpt>
      <trkpt lat="45.85676" lon="2.9435">
        <ele>953.76513</ele>
        <time>2013-09-28T08:25:38Z</time>
      </trkpt>
      <trkpt lat="45.85659" lon="2.94332">
        <ele>955.20703</ele>
        <time>2013-09-28T08:25:49Z</time>
      </trkpt>
      <trkpt lat="45.85638" lon="2.94319">
        <ele>957.61059</ele>
        <time>2013-09-28T08:26:01Z</time>
      </trkpt>
      <trkpt lat="45.85618" lon="2.94309">
        <ele>960.01367</ele>
        <time>2013-09-28T08:26:12Z</time>
      </trkpt>
      <trkpt lat="45.85596" lon="2.943">
        <ele>961.93652</ele>
        <time>2013-09-28T08:26:24Z</time>
      </trkpt>
      <trkpt lat="45.85577" lon="2.94291">
        <ele>963.37841</ele>
        <time>2013-09-28T08:26:34Z</time>
      </trkpt>
      <trkpt lat="45.8556" lon="2.94281">
        <ele>965.78173</ele>
        <time>2013-09-28T08:26:44Z</time>
      </trkpt>
      <trkpt lat="45.85548" lon="2.94269">
        <ele>964.82031</ele>
        <time>2013-09-28T08:26:52Z</time>
      </trkpt>
      <trkpt lat="45.85537" lon="2.94253">
        <ele>963.85888</ele>
        <time>2013-09-28T08:26:57Z</time>
      </trkpt>
      <trkpt lat="45.85518" lon="2.94223">
        <ele>961.93652</ele>
        <time>2013-09-28T08:27:03Z</time>
      </trkpt>
      <trkpt lat="45.85498" lon="2.9419">
        <ele>959.05249</ele>
        <time>2013-09-28T08:27:09Z</time>
      </trkpt>
      <trkpt lat="45.85483" lon="2.94165">
        <ele>957.61059</ele>
        <time>2013-09-28T08:27:13Z</time>
      </trkpt>
      <trkpt lat="45.85461" lon="2.94127">
        <ele>953.76513</ele>
        <time>2013-09-28T08:27:18Z</time>
      </trkpt>
      <trkpt lat="45.85439" lon="2.94091">
        <ele>950.40063</ele>
        <time>2013-09-28T08:27:23Z</time>
      </trkpt>
      <trkpt lat="45.85412" lon="2.94071">
        <ele>949.4392</ele>
        <time>2013-09-28T08:27:28Z</time>
      </trkpt>
      <trkpt lat="45.85382" lon="2.94056">
        <ele>948.47778</ele>
        <time>2013-09-28T08:27:35Z</time>
      </trkpt>
      <trkpt lat="45.85367" lon="2.9405">
        <ele>949.4392</ele>
        <time>2013-09-28T08:27:39Z</time>
      </trkpt>
      <trkpt lat="45.85356" lon="2.94042">
        <ele>949.91992</ele>
        <time>2013-09-28T08:27:43Z</time>
      </trkpt>
      <trkpt lat="45.85344" lon="2.94029">
        <ele>949.91992</ele>
        <time>2013-09-28T08:27:48Z</time>
      </trkpt>
      <trkpt lat="45.85336" lon="2.94011">
        <ele>949.91992</ele>
        <time>2013-09-28T08:27:52Z</time>
      </trkpt>
      <trkpt lat="45.85325" lon="2.94002">
        <ele>950.8811</ele>
        <time>2013-09-28T08:27:56Z</time>
      </trkpt>
      <trkpt lat="45.85317" lon="2.93986">
        <ele>949.91992</ele>
        <time>2013-09-28T08:28:00Z</time>
      </trkpt>
      <trkpt lat="45.85301" lon="2.93967">
        <ele>949.91992</ele>
        <time>2013-09-28T08:28:05Z</time>
      </trkpt>
      <trkpt lat="45.85292" lon="2.93963">
        <ele>949.4392</ele>
        <time>2013-09-28T08:28:08Z</time>
      </trkpt>
      <trkpt lat="45.85275" lon="2.93957">
        <ele>949.4392</ele>
        <time>2013-09-28T08:28:13Z</time>
      </trkpt>
      <trkpt lat="45.85256" lon="2.9395">
        <ele>950.40063</ele>
        <time>2013-09-28T08:28:18Z</time>
      </trkpt>
      <trkpt lat="45.85243" lon="2.93944">
        <ele>950.40063</ele>
        <time>2013-09-28T08:28:22Z</time>
      </trkpt>
      <trkpt lat="45.85221" lon="2.93934">
        <ele>951.84252</ele>
        <time>2013-09-28T08:28:27Z</time>
      </trkpt>
      <trkpt lat="45.85204" lon="2.93922">
        <ele>953.28442</ele>
        <time>2013-09-28T08:28:32Z</time>
      </trkpt>
      <trkpt lat="45.8519" lon="2.93913">
        <ele>954.24584</ele>
        <time>2013-09-28T08:28:37Z</time>
      </trkpt>
      <trkpt lat="45.85175" lon="2.93906">
        <ele>955.68774</ele>
        <time>2013-09-28T08:28:41Z</time>
      </trkpt>
      <trkpt lat="45.85162" lon="2.93901">
        <ele>956.16845</ele>
        <time>2013-09-28T08:28:46Z</time>
      </trkpt>
      <trkpt lat="45.85149" lon="2.9389">
        <ele>955.20703</ele>
        <time>2013-09-28T08:28:50Z</time>
      </trkpt>
      <trkpt lat="45.85141" lon="2.93881">
        <ele>954.72631</ele>
        <time>2013-09-28T08:28:52Z</time>
      </trkpt>
      <trkpt lat="45.85125" lon="2.93857">
        <ele>953.28442</ele>
        <time>2013-09-28T08:28:56Z</time>
      </trkpt>
      <trkpt lat="45.85109" lon="2.93839">
        <ele>951.36181</ele>
        <time>2013-09-28T08:28:59Z</time>
      </trkpt>
      <trkpt lat="45.85081" lon="2.93821">
        <ele>948.47778</ele>
        <time>2013-09-28T08:29:03Z</time>
      </trkpt>
      <trkpt lat="45.85054" lon="2.93815">
        <ele>945.59399</ele>
        <time>2013-09-28T08:29:06Z</time>
      </trkpt>
      <trkpt lat="45.85015" lon="2.93817">
        <ele>943.67138</ele>
        <time>2013-09-28T08:29:11Z</time>
      </trkpt>
      <trkpt lat="45.8499" lon="2.93803">
        <ele>942.22949</ele>
        <time>2013-09-28T08:29:15Z</time>
      </trkpt>
      <trkpt lat="45.84985" lon="2.93789">
        <ele>942.22949</ele>
        <time>2013-09-28T08:29:17Z</time>
      </trkpt>
      <trkpt lat="45.84963" lon="2.93769">
        <ele>941.74877</ele>
        <time>2013-09-28T08:29:23Z</time>
      </trkpt>
      <trkpt lat="45.84952" lon="2.93768">
        <ele>941.74877</ele>
        <time>2013-09-28T08:29:25Z</time>
      </trkpt>
      <trkpt lat="45.84926" lon="2.93764">
        <ele>943.19067</ele>
        <time>2013-09-28T08:29:31Z</time>
      </trkpt>
      <trkpt lat="45.84918" lon="2.93764">
        <ele>943.67138</ele>
        <time>2013-09-28T08:29:33Z</time>
      </trkpt>
      <trkpt lat="45.84907" lon="2.93768">
        <ele>943.67138</ele>
        <time>2013-09-28T08:29:36Z</time>
      </trkpt>
      <trkpt lat="45.84891" lon="2.93763">
        <ele>944.15209</ele>
        <time>2013-09-28T08:29:41Z</time>
      </trkpt>
      <trkpt lat="45.84876" lon="2.93746">
        <ele>944.15209</ele>
        <time>2013-09-28T08:29:47Z</time>
      </trkpt>
      <trkpt lat="45.84859" lon="2.93728">
        <ele>945.11328</ele>
        <time>2013-09-28T08:29:54Z</time>
      </trkpt>
      <trkpt lat="45.84839" lon="2.93703">
        <ele>946.0747</ele>
        <time>2013-09-28T08:30:01Z</time>
      </trkpt>
      <trkpt lat="45.84825" lon="2.93677">
        <ele>946.0747</ele>
        <time>2013-09-28T08:30:07Z</time>
      </trkpt>
      <trkpt lat="45.84806" lon="2.93644">
        <ele>946.0747</ele>
        <time>2013-09-28T08:30:15Z</time>
      </trkpt>
      <trkpt lat="45.84785" lon="2.93616">
        <ele>946.0747</ele>
        <time>2013-09-28T08:30:23Z</time>
      </trkpt>
      <trkpt lat="45.84782" lon="2.93613">
        <ele>946.0747</ele>
        <time>2013-09-28T08:30:24Z</time>
      </trkpt>
      <trkpt lat="45.84773" lon="2.93614">
        <ele>946.55541</ele>
        <time>2013-09-28T08:30:28Z</time>
      </trkpt>
      <trkpt lat="45.8477" lon="2.93619">
        <ele>946.55541</ele>
        <time>2013-09-28T08:30:30Z</time>
      </trkpt>
      <trkpt lat="45.84757" lon="2.93638">
        <ele>948.47778</ele>
        <time>2013-09-28T08:30:38Z</time>
      </trkpt>
      <trkpt lat="45.84743" lon="2.93656">
        <ele>949.91992</ele>
        <time>2013-09-28T08:30:47Z</time>
      </trkpt>
      <trkpt lat="45.84728" lon="2.93679">
        <ele>950.40063</ele>
        <time>2013-09-28T08:30:57Z</time>
      </trkpt>
      <trkpt lat="45.84715" lon="2.93703">
        <ele>951.84252</ele>
        <time>2013-09-28T08:31:06Z</time>
      </trkpt>
      <trkpt lat="45.84702" lon="2.93731">
        <ele>953.28442</ele>
        <time>2013-09-28T08:31:16Z</time>
      </trkpt>
      <trkpt lat="45.84687" lon="2.93751">
        <ele>953.76513</ele>
        <time>2013-09-28T08:31:23Z</time>
      </trkpt>
      <trkpt lat="45.84659" lon="2.93767">
        <ele>955.20703</ele>
        <time>2013-09-28T08:31:32Z</time>
      </trkpt>
      <trkpt lat="45.84635" lon="2.93788">
        <ele>956.16845</ele>
        <time>2013-09-28T08:31:41Z</time>
      </trkpt>
      <trkpt lat="45.84617" lon="2.93798">
        <ele>956.64916</ele>
        <time>2013-09-28T08:31:48Z</time>
      </trkpt>
      <trkpt lat="45.84613" lon="2.93799">
        <ele>956.64916</ele>
        <time>2013-09-28T08:31:52Z</time>
      </trkpt>
      <trkpt lat="45.84614" lon="2.938">
        <ele>956.16845</ele>
        <time>2013-09-28T08:32:00Z</time>
      </trkpt>
      <trkpt lat="45.84604" lon="2.93805">
        <ele>957.12988</ele>
        <time>2013-09-28T08:32:06Z</time>
      </trkpt>
      <trkpt lat="45.84577" lon="2.9382">
        <ele>958.0913</ele>
        <time>2013-09-28T08:32:16Z</time>
      </trkpt>
      <trkpt lat="45.84553" lon="2.93836">
        <ele>958.57177</ele>
        <time>2013-09-28T08:32:25Z</time>
      </trkpt>
      <trkpt lat="45.84525" lon="2.93854">
        <ele>958.57177</ele>
        <time>2013-09-28T08:32:34Z</time>
      </trkpt>
      <trkpt lat="45.84501" lon="2.93869">
        <ele>959.05249</ele>
        <time>2013-09-28T08:32:42Z</time>
      </trkpt>
      <trkpt lat="45.84477" lon="2.93883">
        <ele>959.5332</ele>
        <time>2013-09-28T08:32:48Z</time>
      </trkpt>
      <trkpt lat="45.8445" lon="2.93899">
        <ele>959.05249</ele>
        <time>2013-09-28T08:32:54Z</time>
      </trkpt>
      <trkpt lat="45.84417" lon="2.93917">
        <ele>959.5332</ele>
        <time>2013-09-28T08:33:01Z</time>
      </trkpt>
      <trkpt lat="45.84397" lon="2.93928">
        <ele>959.05249</ele>
        <time>2013-09-28T08:33:05Z</time>
      </trkpt>
      <trkpt lat="45.84388" lon="2.93952">
        <ele>959.05249</ele>
        <time>2013-09-28T08:33:09Z</time>
      </trkpt>
      <trkpt lat="45.84404" lon="2.94012">
        <ele>959.05249</ele>
        <time>2013-09-28T08:33:18Z</time>
      </trkpt>
      <trkpt lat="45.84419" lon="2.94067">
        <ele>959.5332</ele>
        <time>2013-09-28T08:33:26Z</time>
      </trkpt>
      <trkpt lat="45.8443" lon="2.94131">
        <ele>960.49438</ele>
        <time>2013-09-28T08:33:35Z</time>
      </trkpt>
      <trkpt lat="45.84441" lon="2.94186">
        <ele>960.49438</ele>
        <time>2013-09-28T08:33:43Z</time>
      </trkpt>
      <trkpt lat="45.84455" lon="2.94245">
        <ele>961.45581</ele>
        <time>2013-09-28T08:33:52Z</time>
      </trkpt>
      <trkpt lat="45.84465" lon="2.94294">
        <ele>961.93652</ele>
        <time>2013-09-28T08:34:00Z</time>
      </trkpt>
      <trkpt lat="45.84468" lon="2.94339">
        <ele>962.8977</ele>
        <time>2013-09-28T08:34:07Z</time>
      </trkpt>
      <trkpt lat="45.84472" lon="2.9439">
        <ele>963.37841</ele>
        <time>2013-09-28T08:34:15Z</time>
      </trkpt>
      <trkpt lat="45.84472" lon="2.94402">
        <ele>962.8977</ele>
        <time>2013-09-28T08:34:17Z</time>
      </trkpt>
      <trkpt lat="45.84473" lon="2.94426">
        <ele>963.85888</ele>
        <time>2013-09-28T08:34:21Z</time>
      </trkpt>
      <trkpt lat="45.84479" lon="2.94468">
        <ele>965.30102</ele>
        <time>2013-09-28T08:34:29Z</time>
      </trkpt>
      <trkpt lat="45.84481" lon="2.94501">
        <ele>965.78173</ele>
        <time>2013-09-28T08:34:35Z</time>
      </trkpt>
      <trkpt lat="45.84487" lon="2.94543">
        <ele>967.22363</ele>
        <time>2013-09-28T08:34:43Z</time>
      </trkpt>
      <trkpt lat="45.84488" lon="2.94582">
        <ele>967.7041</ele>
        <time>2013-09-28T08:34:50Z</time>
      </trkpt>
      <trkpt lat="45.84488" lon="2.94625">
        <ele>968.66552</ele>
        <time>2013-09-28T08:34:58Z</time>
      </trkpt>
      <trkpt lat="45.84493" lon="2.9467">
        <ele>969.14624</ele>
        <time>2013-09-28T08:35:06Z</time>
      </trkpt>
      <trkpt lat="45.84494" lon="2.94704">
        <ele>969.62695</ele>
        <time>2013-09-28T08:35:12Z</time>
      </trkpt>
      <trkpt lat="45.84496" lon="2.94767">
        <ele>970.10742</ele>
        <time>2013-09-28T08:35:23Z</time>
      </trkpt>
      <trkpt lat="45.84502" lon="2.94803">
        <ele>970.58813</ele>
        <time>2013-09-28T08:35:30Z</time>
      </trkpt>
      <trkpt lat="45.84519" lon="2.94848">
        <ele>971.54931</ele>
        <time>2013-09-28T08:35:39Z</time>
      </trkpt>
      <trkpt lat="45.84533" lon="2.94884">
        <ele>972.51098</ele>
        <time>2013-09-28T08:35:47Z</time>
      </trkpt>
      <trkpt lat="45.84539" lon="2.949">
        <ele>972.51098</ele>
        <time>2013-09-28T08:35:51Z</time>
      </trkpt>
      <trkpt lat="45.84545" lon="2.94922">
        <ele>973.95288</ele>
        <time>2013-09-28T08:35:56Z</time>
      </trkpt>
      <trkpt lat="45.84552" lon="2.94949">
        <ele>974.43359</ele>
        <time>2013-09-28T08:36:02Z</time>
      </trkpt>
      <trkpt lat="45.84557" lon="2.94978">
        <ele>975.39477</ele>
        <time>2013-09-28T08:36:08Z</time>
      </trkpt>
      <trkpt lat="45.84571" lon="2.95002">
        <ele>976.83691</ele>
        <time>2013-09-28T08:36:14Z</time>
      </trkpt>
      <trkpt lat="45.84584" lon="2.9503">
        <ele>978.2788</ele>
        <time>2013-09-28T08:36:22Z</time>
      </trkpt>
      <trkpt lat="45.84592" lon="2.95045">
        <ele>979.23999</ele>
        <time>2013-09-28T08:36:27Z</time>
      </trkpt>
      <trkpt lat="45.84599" lon="2.9506">
        <ele>979.7207</ele>
        <time>2013-09-28T08:36:31Z</time>
      </trkpt>
      <trkpt lat="45.84601" lon="2.95077">
        <ele>980.68212</ele>
        <time>2013-09-28T08:36:36Z</time>
      </trkpt>
      <trkpt lat="45.84603" lon="2.95096">
        <ele>981.64331</ele>
        <time>2013-09-28T08:36:41Z</time>
      </trkpt>
      <trkpt lat="45.84606" lon="2.95115">
        <ele>982.60473</ele>
        <time>2013-09-28T08:36:46Z</time>
      </trkpt>
      <trkpt lat="45.84607" lon="2.95144">
        <ele>984.04663</ele>
        <time>2013-09-28T08:36:53Z</time>
      </trkpt>
      <trkpt lat="45.84611" lon="2.95165">
        <ele>984.52734</ele>
        <time>2013-09-28T08:36:58Z</time>
      </trkpt>
      <trkpt lat="45.84614" lon="2.95183">
        <ele>985.48852</ele>
        <time>2013-09-28T08:37:03Z</time>
      </trkpt>
      <trkpt lat="45.84617" lon="2.95208">
        <ele>986.44995</ele>
        <time>2013-09-28T08:37:09Z</time>
      </trkpt>
      <trkpt lat="45.84624" lon="2.95229">
        <ele>987.41113</ele>
        <time>2013-09-28T08:37:15Z</time>
      </trkpt>
      <trkpt lat="45.8463" lon="2.95248">
        <ele>987.89184</ele>
        <time>2013-09-28T08:37:20Z</time>
      </trkpt>
      <trkpt lat="45.84637" lon="2.95267">
        <ele>989.81469</ele>
        <time>2013-09-28T08:37:26Z</time>
      </trkpt>
      <trkpt lat="45.84649" lon="2.9529">
        <ele>990.77587</ele>
        <time>2013-09-28T08:37:33Z</time>
      </trkpt>
      <trkpt lat="45.84659" lon="2.95318">
        <ele>991.7373</ele>
        <time>2013-09-28T08:37:40Z</time>
      </trkpt>
      <trkpt lat="45.84669" lon="2.95334">
        <ele>991.7373</ele>
        <time>2013-09-28T08:37:44Z</time>
      </trkpt>
      <trkpt lat="45.84677" lon="2.95353">
        <ele>992.21801</ele>
        <time>2013-09-28T08:37:49Z</time>
      </trkpt>
      <trkpt lat="45.84694" lon="2.95385">
        <ele>992.69873</ele>
        <time>2013-09-28T08:37:57Z</time>
      </trkpt>
      <trkpt lat="45.84707" lon="2.95408">
        <ele>993.17919</ele>
        <time>2013-09-28T08:38:03Z</time>
      </trkpt>
      <trkpt lat="45.84722" lon="2.95432">
        <ele>993.65991</ele>
        <time>2013-09-28T08:38:09Z</time>
      </trkpt>
      <trkpt lat="45.84733" lon="2.95452">
        <ele>993.65991</ele>
        <time>2013-09-28T08:38:14Z</time>
      </trkpt>
      <trkpt lat="45.84744" lon="2.95475">
        <ele>993.65991</ele>
        <time>2013-09-28T08:38:19Z</time>
      </trkpt>
      <trkpt lat="45.84749" lon="2.95485">
        <ele>993.65991</ele>
        <time>2013-09-28T08:38:21Z</time>
      </trkpt>
      <trkpt lat="45.84761" lon="2.95515">
        <ele>993.65991</ele>
        <time>2013-09-28T08:38:27Z</time>
      </trkpt>
      <trkpt lat="45.8477" lon="2.95533">
        <ele>993.65991</ele>
        <time>2013-09-28T08:38:31Z</time>
      </trkpt>
      <trkpt lat="45.84776" lon="2.95545">
        <ele>993.65991</ele>
        <time>2013-09-28T08:38:35Z</time>
      </trkpt>
      <trkpt lat="45.84783" lon="2.95564">
        <ele>993.65991</ele>
        <time>2013-09-28T08:38:39Z</time>
      </trkpt>
      <trkpt lat="45.84795" lon="2.95591">
        <ele>993.65991</ele>
        <time>2013-09-28T08:38:44Z</time>
      </trkpt>
      <trkpt lat="45.84799" lon="2.95612">
        <ele>993.65991</ele>
        <time>2013-09-28T08:38:48Z</time>
      </trkpt>
      <trkpt lat="45.84803" lon="2.95638">
        <ele>994.14062</ele>
        <time>2013-09-28T08:38:52Z</time>
      </trkpt>
      <trkpt lat="45.84807" lon="2.95661">
        <ele>994.14062</ele>
        <time>2013-09-28T08:38:56Z</time>
      </trkpt>
      <trkpt lat="45.84821" lon="2.95701">
        <ele>994.62109</ele>
        <time>2013-09-28T08:39:03Z</time>
      </trkpt>
      <trkpt lat="45.84827" lon="2.95744">
        <ele>995.1018</ele>
        <time>2013-09-28T08:39:11Z</time>
      </trkpt>
      <trkpt lat="45.84831" lon="2.9577">
        <ele>995.58251</ele>
        <time>2013-09-28T08:39:16Z</time>
      </trkpt>
      <trkpt lat="45.84841" lon="2.95811">
        <ele>996.54394</ele>
        <time>2013-09-28T08:39:24Z</time>
      </trkpt>
      <trkpt lat="45.84851" lon="2.95852">
        <ele>997.50512</ele>
        <time>2013-09-28T08:39:32Z</time>
      </trkpt>
      <trkpt lat="45.84851" lon="2.95886">
        <ele>999.42773</ele>
        <time>2013-09-28T08:39:39Z</time>
      </trkpt>
      <trkpt lat="45.84858" lon="2.95916">
        <ele>1000.8696</ele>
        <time>2013-09-28T08:39:46Z</time>
      </trkpt>
      <trkpt lat="45.84864" lon="2.95948">
        <ele>1002.3115</ele>
        <time>2013-09-28T08:39:53Z</time>
      </trkpt>
      <trkpt lat="45.84867" lon="2.9597">
        <ele>1003.2729</ele>
        <time>2013-09-28T08:39:58Z</time>
      </trkpt>
      <trkpt lat="45.84873" lon="2.96">
        <ele>1005.1958</ele>
        <time>2013-09-28T08:40:05Z</time>
      </trkpt>
      <trkpt lat="45.84878" lon="2.96017">
        <ele>1006.1569</ele>
        <time>2013-09-28T08:40:10Z</time>
      </trkpt>
      <trkpt lat="45.84886" lon="2.96034">
        <ele>1006.1569</ele>
        <time>2013-09-28T08:40:15Z</time>
      </trkpt>
      <trkpt lat="45.84887" lon="2.96037">
        <ele>1006.6376</ele>
        <time>2013-09-28T08:40:16Z</time>
      </trkpt>
      <trkpt lat="45.84896" lon="2.96049">
        <ele>1007.1184</ele>
        <time>2013-09-28T08:40:21Z</time>
      </trkpt>
      <trkpt lat="45.84899" lon="2.96052">
        <ele>1007.5991</ele>
        <time>2013-09-28T08:40:22Z</time>
      </trkpt>
      <trkpt lat="45.84909" lon="2.96069">
        <ele>1008.5603</ele>
        <time>2013-09-28T08:40:28Z</time>
      </trkpt>
      <trkpt lat="45.84919" lon="2.96077">
        <ele>1009.041</ele>
        <time>2013-09-28T08:40:32Z</time>
      </trkpt>
      <trkpt lat="45.84936" lon="2.96095">
        <ele>1010.0021</ele>
        <time>2013-09-28T08:40:39Z</time>
      </trkpt>
      <trkpt lat="45.84949" lon="2.9611">
        <ele>1010.9636</ele>
        <time>2013-09-28T08:40:45Z</time>
      </trkpt>
      <trkpt lat="45.84959" lon="2.96123">
        <ele>1011.925</ele>
        <time>2013-09-28T08:40:50Z</time>
      </trkpt>
      <trkpt lat="45.84964" lon="2.96133">
        <ele>1012.4055</ele>
        <time>2013-09-28T08:40:53Z</time>
      </trkpt>
      <trkpt lat="45.84983" lon="2.96153">
        <ele>1014.3281</ele>
        <time>2013-09-28T08:41:02Z</time>
      </trkpt>
      <trkpt lat="45.84992" lon="2.9616">
        <ele>1015.2895</ele>
        <time>2013-09-28T08:41:07Z</time>
      </trkpt>
      <trkpt lat="45.85004" lon="2.96169">
        <ele>1016.2507</ele>
        <time>2013-09-28T08:41:13Z</time>
      </trkpt>
      <trkpt lat="45.85011" lon="2.96176">
        <ele>1017.6926</ele>
        <time>2013-09-28T08:41:17Z</time>
      </trkpt>
      <trkpt lat="45.85017" lon="2.96184">
        <ele>1018.654</ele>
        <time>2013-09-28T08:41:21Z</time>
      </trkpt>
      <trkpt lat="45.85024" lon="2.96198">
        <ele>1020.5769</ele>
        <time>2013-09-28T08:41:28Z</time>
      </trkpt>
      <trkpt lat="45.85034" lon="2.9621">
        <ele>1021.538</ele>
        <time>2013-09-28T08:41:34Z</time>
      </trkpt>
      <trkpt lat="45.85047" lon="2.96227">
        <ele>1023.4609</ele>
        <time>2013-09-28T08:41:41Z</time>
      </trkpt>
      <trkpt lat="45.85054" lon="2.9624">
        <ele>1025.3833</ele>
        <time>2013-09-28T08:41:47Z</time>
      </trkpt>
      <trkpt lat="45.85064" lon="2.96259">
        <ele>1027.3061</ele>
        <time>2013-09-28T08:41:55Z</time>
      </trkpt>
      <trkpt lat="45.85075" lon="2.96274">
        <ele>1028.748</ele>
        <time>2013-09-28T08:42:02Z</time>
      </trkpt>
      <trkpt lat="45.85081" lon="2.96288">
        <ele>1030.1899</ele>
        <time>2013-09-28T08:42:08Z</time>
      </trkpt>
      <trkpt lat="45.85091" lon="2.96298">
        <ele>1031.1513</ele>
        <time>2013-09-28T08:42:15Z</time>
      </trkpt>
      <trkpt lat="45.851" lon="2.96308">
        <ele>1032.5932</ele>
        <time>2013-09-28T08:42:21Z</time>
      </trkpt>
      <trkpt lat="45.8511" lon="2.96318">
        <ele>1034.5158</ele>
        <time>2013-09-28T08:42:28Z</time>
      </trkpt>
      <trkpt lat="45.8512" lon="2.9633">
        <ele>1035.477</ele>
        <time>2013-09-28T08:42:35Z</time>
      </trkpt>
      <trkpt lat="45.85131" lon="2.96343">
        <ele>1035.9577</ele>
        <time>2013-09-28T08:42:42Z</time>
      </trkpt>
      <trkpt lat="45.85133" lon="2.96347">
        <ele>1035.9577</ele>
        <time>2013-09-28T08:42:44Z</time>
      </trkpt>
      <trkpt lat="45.85138" lon="2.96354">
        <ele>1036.9191</ele>
        <time>2013-09-28T08:42:48Z</time>
      </trkpt>
      <trkpt lat="45.85142" lon="2.96357">
        <ele>1036.9191</ele>
        <time>2013-09-28T08:42:51Z</time>
      </trkpt>
      <trkpt lat="45.85144" lon="2.96364">
        <ele>1037.3999</ele>
        <time>2013-09-28T08:42:54Z</time>
      </trkpt>
      <trkpt lat="45.85152" lon="2.96376">
        <ele>1037.3999</ele>
        <time>2013-09-28T08:43:00Z</time>
      </trkpt>
      <trkpt lat="45.85157" lon="2.96377">
        <ele>1037.8806</ele>
        <time>2013-09-28T08:43:04Z</time>
      </trkpt>
      <trkpt lat="45.85159" lon="2.96381">
        <ele>1036.9191</ele>
        <time>2013-09-28T08:43:29Z</time>
      </trkpt>
      <trkpt lat="45.85153" lon="2.96387">
        <ele>1037.3999</ele>
        <time>2013-09-28T08:43:46Z</time>
      </trkpt>
      <trkpt lat="45.85153" lon="2.96387">
        <ele>1037.3999</ele>
        <time>2013-09-28T08:43:58Z</time>
      </trkpt>
      <trkpt lat="45.85157" lon="2.96378">
        <ele>1037.3999</ele>
        <time>2013-09-28T08:44:30Z</time>
      </trkpt>
      <trkpt lat="45.85136" lon="2.96402">
        <ele>1037.3999</ele>
        <time>2013-09-28T08:45:05Z</time>
      </trkpt>
      <trkpt lat="45.85126" lon="2.96414">
        <ele>1037.3999</ele>
        <time>2013-09-28T08:45:31Z</time>
      </trkpt>
      <trkpt lat="45.85122" lon="2.96417">
        <ele>1037.3999</ele>
        <time>2013-09-28T08:45:41Z</time>
      </trkpt>
      <trkpt lat="45.85136" lon="2.96404">
        <ele>1037.3999</ele>
        <time>2013-09-28T08:45:55Z</time>
      </trkpt>
      <trkpt lat="45.85137" lon="2.96404">
        <ele>1037.8806</ele>
        <time>2013-09-28T08:45:56Z</time>
      </trkpt>
      <trkpt lat="45.8514" lon="2.96405">
        <ele>1038.3613</ele>
        <time>2013-09-28T08:45:59Z</time>
      </trkpt>
      <trkpt lat="45.85142" lon="2.96407">
        <ele>1038.3613</ele>
        <time>2013-09-28T08:46:01Z</time>
      </trkpt>
      <trkpt lat="45.85144" lon="2.96411">
        <ele>1039.3225</ele>
        <time>2013-09-28T08:46:08Z</time>
      </trkpt>
      <trkpt lat="45.85146" lon="2.96418">
        <ele>1040.7644</ele>
        <time>2013-09-28T08:46:15Z</time>
      </trkpt>
      <trkpt lat="45.85148" lon="2.96425">
        <ele>1042.2065</ele>
        <time>2013-09-28T08:46:21Z</time>
      </trkpt>
      <trkpt lat="45.85149" lon="2.96432">
        <ele>1043.1677</ele>
        <time>2013-09-28T08:46:26Z</time>
      </trkpt>
      <trkpt lat="45.85145" lon="2.96444">
        <ele>1044.6096</ele>
        <time>2013-09-28T08:46:31Z</time>
      </trkpt>
      <trkpt lat="45.85144" lon="2.96452">
        <ele>1046.0517</ele>
        <time>2013-09-28T08:46:35Z</time>
      </trkpt>
      <trkpt lat="45.85144" lon="2.96453">
        <ele>1046.0517</ele>
        <time>2013-09-28T08:46:36Z</time>
      </trkpt>
      <trkpt lat="45.85143" lon="2.96463">
        <ele>1047.0129</ele>
        <time>2013-09-28T08:46:42Z</time>
      </trkpt>
      <trkpt lat="45.85145" lon="2.96468">
        <ele>1048.4548</ele>
        <time>2013-09-28T08:46:47Z</time>
      </trkpt>
      <trkpt lat="45.85144" lon="2.96472">
        <ele>1048.9355</ele>
        <time>2013-09-28T08:46:52Z</time>
      </trkpt>
      <trkpt lat="45.85143" lon="2.96477">
        <ele>1050.3776</ele>
        <time>2013-09-28T08:46:58Z</time>
      </trkpt>
      <trkpt lat="45.85139" lon="2.96482">
        <ele>1052.3002</ele>
        <time>2013-09-28T08:47:04Z</time>
      </trkpt>
      <trkpt lat="45.85136" lon="2.96486">
        <ele>1053.2617</ele>
        <time>2013-09-28T08:47:08Z</time>
      </trkpt>
      <trkpt lat="45.85134" lon="2.9649">
        <ele>1054.2231</ele>
        <time>2013-09-28T08:47:13Z</time>
      </trkpt>
      <trkpt lat="45.85132" lon="2.96492">
        <ele>1054.2231</ele>
        <time>2013-09-28T08:47:16Z</time>
      </trkpt>
      <trkpt lat="45.85128" lon="2.96496">
        <ele>1055.665</ele>
        <time>2013-09-28T08:47:22Z</time>
      </trkpt>
      <trkpt lat="45.85129" lon="2.96501">
        <ele>1056.1455</ele>
        <time>2013-09-28T08:47:27Z</time>
      </trkpt>
      <trkpt lat="45.85133" lon="2.96509">
        <ele>1058.5488</ele>
        <time>2013-09-28T08:47:37Z</time>
      </trkpt>
      <trkpt lat="45.85131" lon="2.96515">
        <ele>1059.5102</ele>
        <time>2013-09-28T08:47:43Z</time>
      </trkpt>
      <trkpt lat="45.8513" lon="2.9652">
        <ele>1060.4714</ele>
        <time>2013-09-28T08:47:48Z</time>
      </trkpt>
      <trkpt lat="45.85124" lon="2.96524">
        <ele>1061.4328</ele>
        <time>2013-09-28T08:47:53Z</time>
      </trkpt>
      <trkpt lat="45.85121" lon="2.96528">
        <ele>1062.394</ele>
        <time>2013-09-28T08:48:00Z</time>
      </trkpt>
      <trkpt lat="45.85119" lon="2.96536">
        <ele>1063.3554</ele>
        <time>2013-09-28T08:48:06Z</time>
      </trkpt>
      <trkpt lat="45.85118" lon="2.96542">
        <ele>1064.3166</ele>
        <time>2013-09-28T08:48:13Z</time>
      </trkpt>
      <trkpt lat="45.85112" lon="2.96559">
        <ele>1067.2006</ele>
        <time>2013-09-28T08:48:31Z</time>
      </trkpt>
      <trkpt lat="45.85108" lon="2.96566">
        <ele>1068.1621</ele>
        <time>2013-09-28T08:48:36Z</time>
      </trkpt>
      <trkpt lat="45.85103" lon="2.96576">
        <ele>1070.0847</ele>
        <time>2013-09-28T08:48:43Z</time>
      </trkpt>
      <trkpt lat="45.85102" lon="2.96584">
        <ele>1071.0461</ele>
        <time>2013-09-28T08:48:48Z</time>
      </trkpt>
      <trkpt lat="45.85101" lon="2.9659">
        <ele>1072.0073</ele>
        <time>2013-09-28T08:48:52Z</time>
      </trkpt>
      <trkpt lat="45.85099" lon="2.96599">
        <ele>1072.9687</ele>
        <time>2013-09-28T08:48:57Z</time>
      </trkpt>
      <trkpt lat="45.85097" lon="2.96604">
        <ele>1074.4106</ele>
        <time>2013-09-28T08:49:01Z</time>
      </trkpt>
      <trkpt lat="45.85092" lon="2.96608">
        <ele>1074.8913</ele>
        <time>2013-09-28T08:49:05Z</time>
      </trkpt>
      <trkpt lat="45.85087" lon="2.96617">
        <ele>1077.7751</ele>
        <time>2013-09-28T08:49:18Z</time>
      </trkpt>
      <trkpt lat="45.85083" lon="2.96621">
        <ele>1078.7365</ele>
        <time>2013-09-28T08:49:22Z</time>
      </trkpt>
      <trkpt lat="45.85083" lon="2.96624">
        <ele>1080.1784</ele>
        <time>2013-09-28T08:49:26Z</time>
      </trkpt>
      <trkpt lat="45.85084" lon="2.96627">
        <ele>1081.6203</ele>
        <time>2013-09-28T08:49:32Z</time>
      </trkpt>
      <trkpt lat="45.85081" lon="2.96634">
        <ele>1082.5817</ele>
        <time>2013-09-28T08:49:39Z</time>
      </trkpt>
      <trkpt lat="45.85076" lon="2.96639">
        <ele>1083.5429</ele>
        <time>2013-09-28T08:49:45Z</time>
      </trkpt>
      <trkpt lat="45.8507" lon="2.96648">
        <ele>1085.9465</ele>
        <time>2013-09-28T08:49:53Z</time>
      </trkpt>
      <trkpt lat="45.85065" lon="2.96654">
        <ele>1086.4272</ele>
        <time>2013-09-28T08:49:59Z</time>
      </trkpt>
      <trkpt lat="45.85062" lon="2.96661">
        <ele>1087.8691</ele>
        <time>2013-09-28T08:50:05Z</time>
      </trkpt>
      <trkpt lat="45.8506" lon="2.96666">
        <ele>1089.311</ele>
        <time>2013-09-28T08:50:10Z</time>
      </trkpt>
      <trkpt lat="45.85057" lon="2.96671">
        <ele>1090.7529</ele>
        <time>2013-09-28T08:50:16Z</time>
      </trkpt>
      <trkpt lat="45.85049" lon="2.96677">
        <ele>1092.195</ele>
        <time>2013-09-28T08:50:23Z</time>
      </trkpt>
      <trkpt lat="45.85045" lon="2.96679">
        <ele>1093.1562</ele>
        <time>2013-09-28T08:50:28Z</time>
      </trkpt>
      <trkpt lat="45.85039" lon="2.96683">
        <ele>1095.0788</ele>
        <time>2013-09-28T08:50:36Z</time>
      </trkpt>
      <trkpt lat="45.85032" lon="2.96687">
        <ele>1097.4821</ele>
        <time>2013-09-28T08:50:47Z</time>
      </trkpt>
      <trkpt lat="45.85026" lon="2.96692">
        <ele>1098.924</ele>
        <time>2013-09-28T08:50:56Z</time>
      </trkpt>
      <trkpt lat="45.85018" lon="2.96699">
        <ele>1100.8469</ele>
        <time>2013-09-28T08:51:08Z</time>
      </trkpt>
      <trkpt lat="45.85015" lon="2.96703">
        <ele>1103.2502</ele>
        <time>2013-09-28T08:51:15Z</time>
      </trkpt>
      <trkpt lat="45.85007" lon="2.96706">
        <ele>1104.6921</ele>
        <time>2013-09-28T08:51:23Z</time>
      </trkpt>
      <trkpt lat="45.85002" lon="2.96707">
        <ele>1105.6535</ele>
        <time>2013-09-28T08:51:30Z</time>
      </trkpt>
      <trkpt lat="45.84997" lon="2.96709">
        <ele>1107.0954</ele>
        <time>2013-09-28T08:51:39Z</time>
      </trkpt>
      <trkpt lat="45.84995" lon="2.96713">
        <ele>1108.5373</ele>
        <time>2013-09-28T08:51:46Z</time>
      </trkpt>
      <trkpt lat="45.84992" lon="2.96715">
        <ele>1110.4599</ele>
        <time>2013-09-28T08:51:54Z</time>
      </trkpt>
      <trkpt lat="45.84984" lon="2.96717">
        <ele>1111.4213</ele>
        <time>2013-09-28T08:52:01Z</time>
      </trkpt>
      <trkpt lat="45.84976" lon="2.96719">
        <ele>1112.8632</ele>
        <time>2013-09-28T08:52:08Z</time>
      </trkpt>
      <trkpt lat="45.84974" lon="2.96722">
        <ele>1114.3051</ele>
        <time>2013-09-28T08:52:17Z</time>
      </trkpt>
      <trkpt lat="45.84971" lon="2.96725">
        <ele>1116.228</ele>
        <time>2013-09-28T08:52:24Z</time>
      </trkpt>
      <trkpt lat="45.84968" lon="2.96727">
        <ele>1117.1894</ele>
        <time>2013-09-28T08:52:29Z</time>
      </trkpt>
      <trkpt lat="45.84963" lon="2.96728">
        <ele>1118.6313</ele>
        <time>2013-09-28T08:52:37Z</time>
      </trkpt>
      <trkpt lat="45.84958" lon="2.96726">
        <ele>1119.112</ele>
        <time>2013-09-28T08:52:44Z</time>
      </trkpt>
      <trkpt lat="45.84954" lon="2.96726">
        <ele>1119.5927</ele>
        <time>2013-09-28T08:52:58Z</time>
      </trkpt>
      <trkpt lat="45.84952" lon="2.96726">
        <ele>1119.5927</ele>
        <time>2013-09-28T08:53:08Z</time>
      </trkpt>
      <trkpt lat="45.84952" lon="2.96732">
        <ele>1120.5539</ele>
        <time>2013-09-28T08:53:15Z</time>
      </trkpt>
      <trkpt lat="45.84949" lon="2.96739">
        <ele>1122.4765</ele>
        <time>2013-09-28T08:53:26Z</time>
      </trkpt>
      <trkpt lat="45.84939" lon="2.96743">
        <ele>1124.8798</ele>
        <time>2013-09-28T08:53:38Z</time>
      </trkpt>
      <trkpt lat="45.84937" lon="2.96746">
        <ele>1126.3217</ele>
        <time>2013-09-28T08:53:44Z</time>
      </trkpt>
      <trkpt lat="45.84933" lon="2.96748">
        <ele>1126.8024</ele>
        <time>2013-09-28T08:53:51Z</time>
      </trkpt>
      <trkpt lat="45.84926" lon="2.96748">
        <ele>1128.2443</ele>
        <time>2013-09-28T08:53:59Z</time>
      </trkpt>
      <trkpt lat="45.84918" lon="2.9675">
        <ele>1129.6862</ele>
        <time>2013-09-28T08:54:07Z</time>
      </trkpt>
      <trkpt lat="45.84917" lon="2.96751">
        <ele>1129.6862</ele>
        <time>2013-09-28T08:54:12Z</time>
      </trkpt>
      <trkpt lat="45.84915" lon="2.9676">
        <ele>1129.6862</ele>
        <time>2013-09-28T08:56:09Z</time>
      </trkpt>
      <trkpt lat="45.84915" lon="2.96762">
        <ele>1130.1669</ele>
        <time>2013-09-28T08:56:11Z</time>
      </trkpt>
      <trkpt lat="45.84913" lon="2.9677">
        <ele>1130.6477</ele>
        <time>2013-09-28T08:56:19Z</time>
      </trkpt>
      <trkpt lat="45.84906" lon="2.96786">
        <ele>1132.5705</ele>
        <time>2013-09-28T08:56:28Z</time>
      </trkpt>
      <trkpt lat="45.84901" lon="2.96801">
        <ele>1134.4931</ele>
        <time>2013-09-28T08:56:35Z</time>
      </trkpt>
      <trkpt lat="45.84896" lon="2.96811">
        <ele>1136.4157</ele>
        <time>2013-09-28T08:56:42Z</time>
      </trkpt>
      <trkpt lat="45.8489" lon="2.9682">
        <ele>1137.8576</ele>
        <time>2013-09-28T08:56:48Z</time>
      </trkpt>
      <trkpt lat="45.84884" lon="2.9683">
        <ele>1139.2995</ele>
        <time>2013-09-28T08:56:56Z</time>
      </trkpt>
      <trkpt lat="45.84878" lon="2.9684">
        <ele>1140.7414</ele>
        <time>2013-09-28T08:57:03Z</time>
      </trkpt>
      <trkpt lat="45.84875" lon="2.96844">
        <ele>1141.7028</ele>
        <time>2013-09-28T08:57:06Z</time>
      </trkpt>
      <trkpt lat="45.84868" lon="2.96849">
        <ele>1143.1447</ele>
        <time>2013-09-28T08:57:13Z</time>
      </trkpt>
      <trkpt lat="45.84862" lon="2.96857">
        <ele>1145.0673</ele>
        <time>2013-09-28T08:57:20Z</time>
      </trkpt>
      <trkpt lat="45.84856" lon="2.96858">
        <ele>1146.0288</ele>
        <time>2013-09-28T08:57:27Z</time>
      </trkpt>
      <trkpt lat="45.84851" lon="2.96859">
        <ele>1146.9899</ele>
        <time>2013-09-28T08:57:34Z</time>
      </trkpt>
      <trkpt lat="45.84849" lon="2.96861">
        <ele>1147.9514</ele>
        <time>2013-09-28T08:57:40Z</time>
      </trkpt>
      <trkpt lat="45.84845" lon="2.96864">
        <ele>1148.9128</ele>
        <time>2013-09-28T08:57:47Z</time>
      </trkpt>
      <trkpt lat="45.84844" lon="2.96868">
        <ele>1150.8354</ele>
        <time>2013-09-28T08:57:54Z</time>
      </trkpt>
      <trkpt lat="45.84845" lon="2.96869">
        <ele>1150.8354</ele>
        <time>2013-09-28T08:58:05Z</time>
      </trkpt>
      <trkpt lat="45.84844" lon="2.96871">
        <ele>1150.8354</ele>
        <time>2013-09-28T08:58:07Z</time>
      </trkpt>
      <trkpt lat="45.84842" lon="2.96873">
        <ele>1151.3161</ele>
        <time>2013-09-28T08:58:09Z</time>
      </trkpt>
      <trkpt lat="45.84837" lon="2.9688">
        <ele>1152.758</ele>
        <time>2013-09-28T08:58:15Z</time>
      </trkpt>
      <trkpt lat="45.84836" lon="2.96881">
        <ele>1152.2773</ele>
        <time>2013-09-28T08:58:16Z</time>
      </trkpt>
      <trkpt lat="45.84827" lon="2.96882">
        <ele>1155.1613</ele>
        <time>2013-09-28T08:58:23Z</time>
      </trkpt>
      <trkpt lat="45.84818" lon="2.96879">
        <ele>1155.642</ele>
        <time>2013-09-28T08:58:29Z</time>
      </trkpt>
      <trkpt lat="45.84804" lon="2.9688">
        <ele>1156.1225</ele>
        <time>2013-09-28T08:58:38Z</time>
      </trkpt>
      <trkpt lat="45.84796" lon="2.96882">
        <ele>1157.0839</ele>
        <time>2013-09-28T08:58:43Z</time>
      </trkpt>
      <trkpt lat="45.84784" lon="2.96877">
        <ele>1157.0839</ele>
        <time>2013-09-28T08:58:50Z</time>
      </trkpt>
      <trkpt lat="45.84776" lon="2.96872">
        <ele>1157.0839</ele>
        <time>2013-09-28T08:58:55Z</time>
      </trkpt>
      <trkpt lat="45.84766" lon="2.96868">
        <ele>1157.5646</ele>
        <time>2013-09-28T08:59:00Z</time>
      </trkpt>
      <trkpt lat="45.84752" lon="2.96856">
        <ele>1158.0454</ele>
        <time>2013-09-28T08:59:09Z</time>
      </trkpt>
      <trkpt lat="45.84742" lon="2.96847">
        <ele>1158.5258</ele>
        <time>2013-09-28T08:59:16Z</time>
      </trkpt>
      <trkpt lat="45.84731" lon="2.96836">
        <ele>1159.4873</ele>
        <time>2013-09-28T08:59:24Z</time>
      </trkpt>
      <trkpt lat="45.84724" lon="2.96823">
        <ele>1159.9677</ele>
        <time>2013-09-28T08:59:31Z</time>
      </trkpt>
      <trkpt lat="45.84715" lon="2.9681">
        <ele>1160.4484</ele>
        <time>2013-09-28T08:59:38Z</time>
      </trkpt>
      <trkpt lat="45.84714" lon="2.96809">
        <ele>1160.9291</ele>
        <time>2013-09-28T08:59:39Z</time>
      </trkpt>
      <trkpt lat="45.8471" lon="2.96807">
        <ele>1161.4099</ele>
        <time>2013-09-28T08:59:42Z</time>
      </trkpt>
      <trkpt lat="45.84704" lon="2.96795">
        <ele>1161.4099</ele>
        <time>2013-09-28T08:59:48Z</time>
      </trkpt>
      <trkpt lat="45.84694" lon="2.96775">
        <ele>1161.4099</ele>
        <time>2013-09-28T08:59:56Z</time>
      </trkpt>
      <trkpt lat="45.8469" lon="2.9676">
        <ele>1161.8906</ele>
        <time>2013-09-28T09:00:01Z</time>
      </trkpt>
      <trkpt lat="45.84687" lon="2.96743">
        <ele>1161.4099</ele>
        <time>2013-09-28T09:00:07Z</time>
      </trkpt>
      <trkpt lat="45.84684" lon="2.96736">
        <ele>1162.371</ele>
        <time>2013-09-28T09:00:10Z</time>
      </trkpt>
      <trkpt lat="45.84684" lon="2.9672">
        <ele>1162.8518</ele>
        <time>2013-09-28T09:00:16Z</time>
      </trkpt>
      <trkpt lat="45.84681" lon="2.96709">
        <ele>1163.3325</ele>
        <time>2013-09-28T09:00:20Z</time>
      </trkpt>
      <trkpt lat="45.84674" lon="2.96688">
        <ele>1164.2939</ele>
        <time>2013-09-28T09:00:27Z</time>
      </trkpt>
      <trkpt lat="45.84673" lon="2.96683">
        <ele>1164.7746</ele>
        <time>2013-09-28T09:00:30Z</time>
      </trkpt>
      <trkpt lat="45.84662" lon="2.96674">
        <ele>1164.2939</ele>
        <time>2013-09-28T09:00:35Z</time>
      </trkpt>
      <trkpt lat="45.84658" lon="2.96669">
        <ele>1164.2939</ele>
        <time>2013-09-28T09:00:36Z</time>
      </trkpt>
      <trkpt lat="45.84636" lon="2.96663">
        <ele>1160.4484</ele>
        <time>2013-09-28T09:00:40Z</time>
      </trkpt>
      <trkpt lat="45.84631" lon="2.96659">
        <ele>1159.0065</ele>
        <time>2013-09-28T09:00:41Z</time>
      </trkpt>
      <trkpt lat="45.84606" lon="2.96648">
        <ele>1153.2387</ele>
        <time>2013-09-28T09:00:46Z</time>
      </trkpt>
      <trkpt lat="45.84601" lon="2.96645">
        <ele>1152.2773</ele>
        <time>2013-09-28T09:00:47Z</time>
      </trkpt>
      <trkpt lat="45.84593" lon="2.96626">
        <ele>1149.3935</ele>
        <time>2013-09-28T09:00:51Z</time>
      </trkpt>
      <trkpt lat="45.84587" lon="2.96601">
        <ele>1144.5866</ele>
        <time>2013-09-28T09:00:56Z</time>
      </trkpt>
      <trkpt lat="45.84577" lon="2.96591">
        <ele>1141.2221</ele>
        <time>2013-09-28T09:00:59Z</time>
      </trkpt>
      <trkpt lat="45.84561" lon="2.96586">
        <ele>1138.3383</ele>
        <time>2013-09-28T09:01:02Z</time>
      </trkpt>
      <trkpt lat="45.84543" lon="2.9657">
        <ele>1134.0124</ele>
        <time>2013-09-28T09:01:05Z</time>
      </trkpt>
      <trkpt lat="45.84538" lon="2.96564">
        <ele>1133.051</ele>
        <time>2013-09-28T09:01:06Z</time>
      </trkpt>
      <trkpt lat="45.84529" lon="2.96545">
        <ele>1129.2055</ele>
        <time>2013-09-28T09:01:09Z</time>
      </trkpt>
      <trkpt lat="45.84523" lon="2.96531">
        <ele>1128.2443</ele>
        <time>2013-09-28T09:01:11Z</time>
      </trkpt>
      <trkpt lat="45.84509" lon="2.96527">
        <ele>1128.2443</ele>
        <time>2013-09-28T09:01:14Z</time>
      </trkpt>
      <trkpt lat="45.84501" lon="2.96523">
        <ele>1130.1669</ele>
        <time>2013-09-28T09:01:17Z</time>
      </trkpt>
      <trkpt lat="45.84493" lon="2.96523">
        <ele>1133.051</ele>
        <time>2013-09-28T09:01:22Z</time>
      </trkpt>
      <trkpt lat="45.84489" lon="2.96519">
        <ele>1133.051</ele>
        <time>2013-09-28T09:01:25Z</time>
      </trkpt>
      <trkpt lat="45.84484" lon="2.96512">
        <ele>1135.935</ele>
        <time>2013-09-28T09:01:32Z</time>
      </trkpt>
      <trkpt lat="45.84482" lon="2.96511">
        <ele>1136.4157</ele>
        <time>2013-09-28T09:01:33Z</time>
      </trkpt>
      <trkpt lat="45.84478" lon="2.96498">
        <ele>1137.8576</ele>
        <time>2013-09-28T09:01:40Z</time>
      </trkpt>
      <trkpt lat="45.84478" lon="2.96496">
        <ele>1137.8576</ele>
        <time>2013-09-28T09:01:41Z</time>
      </trkpt>
      <trkpt lat="45.84475" lon="2.9649">
        <ele>1138.3383</ele>
        <time>2013-09-28T09:01:44Z</time>
      </trkpt>
      <trkpt lat="45.8447" lon="2.96476">
        <ele>1138.819</ele>
        <time>2013-09-28T09:01:50Z</time>
      </trkpt>
      <trkpt lat="45.84469" lon="2.96474">
        <ele>1138.819</ele>
        <time>2013-09-28T09:01:51Z</time>
      </trkpt>
      <trkpt lat="45.84463" lon="2.96462">
        <ele>1142.1835</ele>
        <time>2013-09-28T09:01:58Z</time>
      </trkpt>
      <trkpt lat="45.84454" lon="2.96454">
        <ele>1143.6254</ele>
        <time>2013-09-28T09:02:04Z</time>
      </trkpt>
      <trkpt lat="45.84448" lon="2.96446">
        <ele>1144.1062</ele>
        <time>2013-09-28T09:02:10Z</time>
      </trkpt>
      <trkpt lat="45.84438" lon="2.96443">
        <ele>1145.0673</ele>
        <time>2013-09-28T09:02:16Z</time>
      </trkpt>
      <trkpt lat="45.84426" lon="2.96448">
        <ele>1146.9899</ele>
        <time>2013-09-28T09:02:23Z</time>
      </trkpt>
      <trkpt lat="45.84416" lon="2.96451">
        <ele>1148.4321</ele>
        <time>2013-09-28T09:02:29Z</time>
      </trkpt>
      <trkpt lat="45.84406" lon="2.96456">
        <ele>1149.8742</ele>
        <time>2013-09-28T09:02:36Z</time>
      </trkpt>
      <trkpt lat="45.84395" lon="2.96464">
        <ele>1151.3161</ele>
        <time>2013-09-28T09:02:44Z</time>
      </trkpt>
      <trkpt lat="45.84394" lon="2.96465">
        <ele>1151.3161</ele>
        <time>2013-09-28T09:02:45Z</time>
      </trkpt>
      <trkpt lat="45.84392" lon="2.96477">
        <ele>1153.7194</ele>
        <time>2013-09-28T09:02:51Z</time>
      </trkpt>
      <trkpt lat="45.84391" lon="2.96483">
        <ele>1154.2001</ele>
        <time>2013-09-28T09:02:57Z</time>
      </trkpt>
      <trkpt lat="45.84389" lon="2.96489">
        <ele>1156.1225</ele>
        <time>2013-09-28T09:03:05Z</time>
      </trkpt>
      <trkpt lat="45.8439" lon="2.96493">
        <ele>1157.0839</ele>
        <time>2013-09-28T09:03:10Z</time>
      </trkpt>
      <trkpt lat="45.84391" lon="2.96501">
        <ele>1158.5258</ele>
        <time>2013-09-28T09:03:18Z</time>
      </trkpt>
      <trkpt lat="45.84386" lon="2.96505">
        <ele>1159.0065</ele>
        <time>2013-09-28T09:03:25Z</time>
      </trkpt>
      <trkpt lat="45.8438" lon="2.9651">
        <ele>1160.4484</ele>
        <time>2013-09-28T09:03:32Z</time>
      </trkpt>
      <trkpt lat="45.84377" lon="2.96515">
        <ele>1160.4484</ele>
        <time>2013-09-28T09:03:38Z</time>
      </trkpt>
      <trkpt lat="45.84376" lon="2.96515">
        <ele>1159.9677</ele>
        <time>2013-09-28T09:03:43Z</time>
      </trkpt>
      <trkpt lat="45.84371" lon="2.96518">
        <ele>1159.9677</ele>
        <time>2013-09-28T09:03:56Z</time>
      </trkpt>
      <trkpt lat="45.84372" lon="2.96517">
        <ele>1159.4873</ele>
        <time>2013-09-28T09:04:05Z</time>
      </trkpt>
      <trkpt lat="45.84374" lon="2.96518">
        <ele>1159.9677</ele>
        <time>2013-09-28T09:04:18Z</time>
      </trkpt>
      <trkpt lat="45.84377" lon="2.96515">
        <ele>1159.9677</ele>
        <time>2013-09-28T09:04:30Z</time>
      </trkpt>
      <trkpt lat="45.84377" lon="2.96508">
        <ele>1160.4484</ele>
        <time>2013-09-28T09:04:42Z</time>
      </trkpt>
      <trkpt lat="45.84376" lon="2.96504">
        <ele>1159.9677</ele>
        <time>2013-09-28T09:04:52Z</time>
      </trkpt>
      <trkpt lat="45.84375" lon="2.96503">
        <ele>1159.4873</ele>
        <time>2013-09-28T09:05:04Z</time>
      </trkpt>
      <trkpt lat="45.84373" lon="2.96506">
        <ele>1159.4873</ele>
        <time>2013-09-28T09:05:14Z</time>
      </trkpt>
      <trkpt lat="45.84369" lon="2.96515">
        <ele>1159.9677</ele>
        <time>2013-09-28T09:05:23Z</time>
      </trkpt>
      <trkpt lat="45.84365" lon="2.96519">
        <ele>1159.9677</ele>
        <time>2013-09-28T09:05:32Z</time>
      </trkpt>
      <trkpt lat="45.84365" lon="2.9652">
        <ele>1159.4873</ele>
        <time>2013-09-28T09:05:45Z</time>
      </trkpt>
      <trkpt lat="45.84364" lon="2.96521">
        <ele>1159.9677</ele>
        <time>2013-09-28T09:06:02Z</time>
      </trkpt>
      <trkpt lat="45.84367" lon="2.96521">
        <ele>1160.4484</ele>
        <time>2013-09-28T09:06:10Z</time>
      </trkpt>
      <trkpt lat="45.8437" lon="2.96519">
        <ele>1160.9291</ele>
        <time>2013-09-28T09:06:14Z</time>
      </trkpt>
      <trkpt lat="45.84374" lon="2.96517">
        <ele>1160.9291</ele>
        <time>2013-09-28T09:06:26Z</time>
      </trkpt>
      <trkpt lat="45.84376" lon="2.96513">
        <ele>1160.4484</ele>
        <time>2013-09-28T09:07:28Z</time>
      </trkpt>
      <trkpt lat="45.84373" lon="2.96512">
        <ele>1160.9291</ele>
        <time>2013-09-28T09:07:45Z</time>
      </trkpt>
      <trkpt lat="45.84361" lon="2.96516">
        <ele>1159.9677</ele>
        <time>2013-09-28T09:07:51Z</time>
      </trkpt>
      <trkpt lat="45.8435" lon="2.96516">
        <ele>1159.0065</ele>
        <time>2013-09-28T09:07:54Z</time>
      </trkpt>
      <trkpt lat="45.84332" lon="2.96509">
        <ele>1157.0839</ele>
        <time>2013-09-28T09:07:58Z</time>
      </trkpt>
      <trkpt lat="45.84314" lon="2.96499">
        <ele>1154.6806</ele>
        <time>2013-09-28T09:08:02Z</time>
      </trkpt>
      <trkpt lat="45.84297" lon="2.96489">
        <ele>1153.2387</ele>
        <time>2013-09-28T09:08:05Z</time>
      </trkpt>
      <trkpt lat="45.84284" lon="2.96482">
        <ele>1151.7968</ele>
        <time>2013-09-28T09:08:08Z</time>
      </trkpt>
      <trkpt lat="45.8428" lon="2.96476">
        <ele>1151.3161</ele>
        <time>2013-09-28T09:08:12Z</time>
      </trkpt>
      <trkpt lat="45.84277" lon="2.96473">
        <ele>1150.8354</ele>
        <time>2013-09-28T09:08:13Z</time>
      </trkpt>
      <trkpt lat="45.8427" lon="2.96467">
        <ele>1150.8354</ele>
        <time>2013-09-28T09:08:15Z</time>
      </trkpt>
      <trkpt lat="45.84254" lon="2.96448">
        <ele>1150.8354</ele>
        <time>2013-09-28T09:08:20Z</time>
      </trkpt>
      <trkpt lat="45.84249" lon="2.9644">
        <ele>1150.3549</ele>
        <time>2013-09-28T09:08:22Z</time>
      </trkpt>
      <trkpt lat="45.84233" lon="2.96419">
        <ele>1150.3549</ele>
        <time>2013-09-28T09:08:28Z</time>
      </trkpt>
      <trkpt lat="45.84222" lon="2.96408">
        <ele>1151.3161</ele>
        <time>2013-09-28T09:08:32Z</time>
      </trkpt>
      <trkpt lat="45.84206" lon="2.96388">
        <ele>1151.3161</ele>
        <time>2013-09-28T09:08:38Z</time>
      </trkpt>
      <trkpt lat="45.84194" lon="2.96374">
        <ele>1152.2773</ele>
        <time>2013-09-28T09:08:43Z</time>
      </trkpt>
      <trkpt lat="45.84183" lon="2.9636">
        <ele>1152.758</ele>
        <time>2013-09-28T09:08:49Z</time>
      </trkpt>
      <trkpt lat="45.84172" lon="2.96354">
        <ele>1151.7968</ele>
        <time>2013-09-28T09:08:53Z</time>
      </trkpt>
      <trkpt lat="45.84162" lon="2.96342">
        <ele>1148.4321</ele>
        <time>2013-09-28T09:08:56Z</time>
      </trkpt>
      <trkpt lat="45.84157" lon="2.96338">
        <ele>1146.9899</ele>
        <time>2013-09-28T09:08:57Z</time>
      </trkpt>
      <trkpt lat="45.84138" lon="2.9632">
        <ele>1141.2221</ele>
        <time>2013-09-28T09:09:00Z</time>
      </trkpt>
      <trkpt lat="45.84113" lon="2.96296">
        <ele>1135.4543</ele>
        <time>2013-09-28T09:09:04Z</time>
      </trkpt>
      <trkpt lat="45.84097" lon="2.96281">
        <ele>1129.2055</ele>
        <time>2013-09-28T09:09:09Z</time>
      </trkpt>
      <trkpt lat="45.84091" lon="2.96274">
        <ele>1127.2832</ele>
        <time>2013-09-28T09:09:15Z</time>
      </trkpt>
      <trkpt lat="45.84083" lon="2.96265">
        <ele>1124.8798</ele>
        <time>2013-09-28T09:09:18Z</time>
      </trkpt>
      <trkpt lat="45.84075" lon="2.96258">
        <ele>1123.4379</ele>
        <time>2013-09-28T09:09:20Z</time>
      </trkpt>
      <trkpt lat="45.84053" lon="2.96249">
        <ele>1119.112</ele>
        <time>2013-09-28T09:09:24Z</time>
      </trkpt>
      <trkpt lat="45.8404" lon="2.96242">
        <ele>1116.7087</ele>
        <time>2013-09-28T09:09:28Z</time>
      </trkpt>
      <trkpt lat="45.84023" lon="2.96236">
        <ele>1113.8244</ele>
        <time>2013-09-28T09:09:31Z</time>
      </trkpt>
      <trkpt lat="45.84017" lon="2.96236">
        <ele>1113.3439</ele>
        <time>2013-09-28T09:09:32Z</time>
      </trkpt>
      <trkpt lat="45.83998" lon="2.96232">
        <ele>1109.9792</ele>
        <time>2013-09-28T09:09:35Z</time>
      </trkpt>
      <trkpt lat="45.83975" lon="2.96225">
        <ele>1107.5761</ele>
        <time>2013-09-28T09:09:38Z</time>
      </trkpt>
      <trkpt lat="45.83958" lon="2.96216">
        <ele>1107.5761</ele>
        <time>2013-09-28T09:09:41Z</time>
      </trkpt>
      <trkpt lat="45.83951" lon="2.96211">
        <ele>1108.0568</ele>
        <time>2013-09-28T09:09:43Z</time>
      </trkpt>
      <trkpt lat="45.83941" lon="2.96214">
        <ele>1109.018</ele>
        <time>2013-09-28T09:09:46Z</time>
      </trkpt>
      <trkpt lat="45.8393" lon="2.96223">
        <ele>1109.9792</ele>
        <time>2013-09-28T09:09:50Z</time>
      </trkpt>
      <trkpt lat="45.83911" lon="2.96229">
        <ele>1109.018</ele>
        <time>2013-09-28T09:09:56Z</time>
      </trkpt>
      <trkpt lat="45.83895" lon="2.96229">
        <ele>1107.5761</ele>
        <time>2013-09-28T09:09:59Z</time>
      </trkpt>
      <trkpt lat="45.83876" lon="2.9623">
        <ele>1104.6921</ele>
        <time>2013-09-28T09:10:02Z</time>
      </trkpt>
      <trkpt lat="45.8384" lon="2.96231">
        <ele>1099.8854</ele>
        <time>2013-09-28T09:10:07Z</time>
      </trkpt>
      <trkpt lat="45.83828" lon="2.96229">
        <ele>1097.4821</ele>
        <time>2013-09-28T09:10:09Z</time>
      </trkpt>
      <trkpt lat="45.83802" lon="2.96226">
        <ele>1092.195</ele>
        <time>2013-09-28T09:10:13Z</time>
      </trkpt>
      <trkpt lat="45.83789" lon="2.96226">
        <ele>1088.8305</ele>
        <time>2013-09-28T09:10:15Z</time>
      </trkpt>
      <trkpt lat="45.83769" lon="2.96221">
        <ele>1084.0239</ele>
        <time>2013-09-28T09:10:18Z</time>
      </trkpt>
      <trkpt lat="45.83763" lon="2.96218">
        <ele>1084.0239</ele>
        <time>2013-09-28T09:10:19Z</time>
      </trkpt>
      <trkpt lat="45.83759" lon="2.96215">
        <ele>1081.6203</ele>
        <time>2013-09-28T09:10:20Z</time>
      </trkpt>
      <trkpt lat="45.83745" lon="2.96201">
        <ele>1076.3332</ele>
        <time>2013-09-28T09:10:24Z</time>
      </trkpt>
      <trkpt lat="45.83743" lon="2.9619">
        <ele>1074.8913</ele>
        <time>2013-09-28T09:10:26Z</time>
      </trkpt>
      <trkpt lat="45.8374" lon="2.9616">
        <ele>1070.0847</ele>
        <time>2013-09-28T09:10:30Z</time>
      </trkpt>
      <trkpt lat="45.83737" lon="2.96142">
        <ele>1066.7199</ele>
        <time>2013-09-28T09:10:32Z</time>
      </trkpt>
      <trkpt lat="45.83733" lon="2.96115">
        <ele>1063.3554</ele>
        <time>2013-09-28T09:10:35Z</time>
      </trkpt>
      <trkpt lat="45.83729" lon="2.96076">
        <ele>1059.5102</ele>
        <time>2013-09-28T09:10:39Z</time>
      </trkpt>
      <trkpt lat="45.83728" lon="2.96051">
        <ele>1058.5488</ele>
        <time>2013-09-28T09:10:41Z</time>
      </trkpt>
      <trkpt lat="45.83725" lon="2.96029">
        <ele>1057.5876</ele>
        <time>2013-09-28T09:10:43Z</time>
      </trkpt>
      <trkpt lat="45.83724" lon="2.96006">
        <ele>1053.2617</ele>
        <time>2013-09-28T09:10:46Z</time>
      </trkpt>
      <trkpt lat="45.83707" lon="2.95992">
        <ele>1048.4548</ele>
        <time>2013-09-28T09:10:50Z</time>
      </trkpt>
      <trkpt lat="45.83686" lon="2.9597">
        <ele>1044.6096</ele>
        <time>2013-09-28T09:10:53Z</time>
      </trkpt>
      <trkpt lat="45.83669" lon="2.95958">
        <ele>1042.6872</ele>
        <time>2013-09-28T09:10:56Z</time>
      </trkpt>
      <trkpt lat="45.8367" lon="2.95953">
        <ele>1042.6872</ele>
        <time>2013-09-28T09:10:58Z</time>
      </trkpt>
      <trkpt lat="45.83668" lon="2.95942">
        <ele>1041.2451</ele>
        <time>2013-09-28T09:11:01Z</time>
      </trkpt>
      <trkpt lat="45.83669" lon="2.95937">
        <ele>1040.7644</ele>
        <time>2013-09-28T09:11:02Z</time>
      </trkpt>
      <trkpt lat="45.83669" lon="2.95914">
        <ele>1036.4387</ele>
        <time>2013-09-28T09:11:07Z</time>
      </trkpt>
      <trkpt lat="45.8367" lon="2.95908">
        <ele>1034.5158</ele>
        <time>2013-09-28T09:11:11Z</time>
      </trkpt>
      <trkpt lat="45.83697" lon="2.95913">
        <ele>1034.5158</ele>
        <time>2013-09-28T09:11:31Z</time>
      </trkpt>
      <trkpt lat="45.83703" lon="2.95915">
        <ele>1034.0351</ele>
        <time>2013-09-28T09:11:39Z</time>
      </trkpt>
      <trkpt lat="45.83699" lon="2.9591">
        <ele>1034.9965</ele>
        <time>2013-09-28T09:11:49Z</time>
      </trkpt>
      <trkpt lat="45.83705" lon="2.95908">
        <ele>1035.477</ele>
        <time>2013-09-28T09:12:38Z</time>
      </trkpt>
      <trkpt lat="45.83698" lon="2.95904">
        <ele>1035.477</ele>
        <time>2013-09-28T09:12:42Z</time>
      </trkpt>
      <trkpt lat="45.8369" lon="2.95904">
        <ele>1035.9577</ele>
        <time>2013-09-28T09:12:45Z</time>
      </trkpt>
      <trkpt lat="45.83682" lon="2.959">
        <ele>1036.4387</ele>
        <time>2013-09-28T09:12:50Z</time>
      </trkpt>
      <trkpt lat="45.83675" lon="2.95902">
        <ele>1037.3999</ele>
        <time>2013-09-28T09:12:55Z</time>
      </trkpt>
      <trkpt lat="45.83669" lon="2.95909">
        <ele>1037.8806</ele>
        <time>2013-09-28T09:13:00Z</time>
      </trkpt>
      <trkpt lat="45.83662" lon="2.95917">
        <ele>1039.3225</ele>
        <time>2013-09-28T09:13:05Z</time>
      </trkpt>
      <trkpt lat="45.83653" lon="2.95922">
        <ele>1040.7644</ele>
        <time>2013-09-28T09:13:10Z</time>
      </trkpt>
      <trkpt lat="45.83634" lon="2.95923">
        <ele>1041.2451</ele>
        <time>2013-09-28T09:13:18Z</time>
      </trkpt>
      <trkpt lat="45.83624" lon="2.9592">
        <ele>1041.7258</ele>
        <time>2013-09-28T09:13:23Z</time>
      </trkpt>
      <trkpt lat="45.83612" lon="2.95915">
        <ele>1043.1677</ele>
        <time>2013-09-28T09:13:31Z</time>
      </trkpt>
      <trkpt lat="45.83603" lon="2.95911">
        <ele>1043.6484</ele>
        <time>2013-09-28T09:13:38Z</time>
      </trkpt>
      <trkpt lat="45.83595" lon="2.9591">
        <ele>1045.571</ele>
        <time>2013-09-28T09:13:44Z</time>
      </trkpt>
      <trkpt lat="45.83586" lon="2.95908">
        <ele>1046.5324</ele>
        <time>2013-09-28T09:13:49Z</time>
      </trkpt>
      <trkpt lat="45.83578" lon="2.95902">
        <ele>1047.4936</ele>
        <time>2013-09-28T09:13:55Z</time>
      </trkpt>
      <trkpt lat="45.83574" lon="2.95899">
        <ele>1049.4162</ele>
        <time>2013-09-28T09:14:01Z</time>
      </trkpt>
      <trkpt lat="45.83566" lon="2.95886">
        <ele>1052.3002</ele>
        <time>2013-09-28T09:14:17Z</time>
      </trkpt>
      <trkpt lat="45.83559" lon="2.95877">
        <ele>1054.7036</ele>
        <time>2013-09-28T09:14:25Z</time>
      </trkpt>
      <trkpt lat="45.83559" lon="2.95872">
        <ele>1055.665</ele>
        <time>2013-09-28T09:14:29Z</time>
      </trkpt>
      <trkpt lat="45.83557" lon="2.95868">
        <ele>1056.1455</ele>
        <time>2013-09-28T09:14:32Z</time>
      </trkpt>
      <trkpt lat="45.83561" lon="2.95857">
        <ele>1056.6262</ele>
        <time>2013-09-28T09:14:38Z</time>
      </trkpt>
      <trkpt lat="45.83565" lon="2.95845">
        <ele>1057.5876</ele>
        <time>2013-09-28T09:14:44Z</time>
      </trkpt>
      <trkpt lat="45.83571" lon="2.9583">
        <ele>1057.5876</ele>
        <time>2013-09-28T09:14:50Z</time>
      </trkpt>
      <trkpt lat="45.83574" lon="2.95825">
        <ele>1058.5488</ele>
        <time>2013-09-28T09:14:52Z</time>
      </trkpt>
      <trkpt lat="45.83574" lon="2.95819">
        <ele>1058.5488</ele>
        <time>2013-09-28T09:14:55Z</time>
      </trkpt>
      <trkpt lat="45.8358" lon="2.95807">
        <ele>1058.5488</ele>
        <time>2013-09-28T09:14:59Z</time>
      </trkpt>
      <trkpt lat="45.83592" lon="2.95782">
        <ele>1058.5488</ele>
        <time>2013-09-28T09:15:07Z</time>
      </trkpt>
      <trkpt lat="45.83603" lon="2.95752">
        <ele>1058.0683</ele>
        <time>2013-09-28T09:15:14Z</time>
      </trkpt>
      <trkpt lat="45.83605" lon="2.95747">
        <ele>1058.0683</ele>
        <time>2013-09-28T09:15:15Z</time>
      </trkpt>
      <trkpt lat="45.83619" lon="2.95715">
        <ele>1056.1455</ele>
        <time>2013-09-28T09:15:21Z</time>
      </trkpt>
      <trkpt lat="45.83621" lon="2.95709">
        <ele>1056.6262</ele>
        <time>2013-09-28T09:15:22Z</time>
      </trkpt>
      <trkpt lat="45.83627" lon="2.95688">
        <ele>1055.665</ele>
        <time>2013-09-28T09:15:25Z</time>
      </trkpt>
      <trkpt lat="45.83638" lon="2.95663">
        <ele>1055.1843</ele>
        <time>2013-09-28T09:15:30Z</time>
      </trkpt>
      <trkpt lat="45.83647" lon="2.95645">
        <ele>1054.2231</ele>
        <time>2013-09-28T09:15:33Z</time>
      </trkpt>
      <trkpt lat="45.83653" lon="2.95632">
        <ele>1054.2231</ele>
        <time>2013-09-28T09:15:35Z</time>
      </trkpt>
      <trkpt lat="45.8366" lon="2.9562">
        <ele>1054.2231</ele>
        <time>2013-09-28T09:15:37Z</time>
      </trkpt>
      <trkpt lat="45.83665" lon="2.956">
        <ele>1052.781</ele>
        <time>2013-09-28T09:15:41Z</time>
      </trkpt>
      <trkpt lat="45.83662" lon="2.9559">
        <ele>1052.3002</ele>
        <time>2013-09-28T09:15:44Z</time>
      </trkpt>
      <trkpt lat="45.83655" lon="2.95572">
        <ele>1051.8195</ele>
        <time>2013-09-28T09:15:47Z</time>
      </trkpt>
      <trkpt lat="45.83645" lon="2.95553">
        <ele>1049.8969</ele>
        <time>2013-09-28T09:15:50Z</time>
      </trkpt>
      <trkpt lat="45.83625" lon="2.95539">
        <ele>1049.8969</ele>
        <time>2013-09-28T09:15:55Z</time>
      </trkpt>
      <trkpt lat="45.83603" lon="2.95525">
        <ele>1050.3776</ele>
        <time>2013-09-28T09:16:02Z</time>
      </trkpt>
      <trkpt lat="45.83594" lon="2.95522">
        <ele>1051.3388</ele>
        <time>2013-09-28T09:16:06Z</time>
      </trkpt>
      <trkpt lat="45.83586" lon="2.95517">
        <ele>1052.3002</ele>
        <time>2013-09-28T09:16:11Z</time>
      </trkpt>
      <trkpt lat="45.83575" lon="2.9551">
        <ele>1053.2617</ele>
        <time>2013-09-28T09:16:17Z</time>
      </trkpt>
      <trkpt lat="45.83561" lon="2.95503">
        <ele>1054.7036</ele>
        <time>2013-09-28T09:16:24Z</time>
      </trkpt>
      <trkpt lat="45.83552" lon="2.95492">
        <ele>1055.665</ele>
        <time>2013-09-28T09:16:30Z</time>
      </trkpt>
      <trkpt lat="45.83539" lon="2.95487">
        <ele>1055.665</ele>
        <time>2013-09-28T09:16:35Z</time>
      </trkpt>
      <trkpt lat="45.83525" lon="2.9548">
        <ele>1055.665</ele>
        <time>2013-09-28T09:16:40Z</time>
      </trkpt>
      <trkpt lat="45.83522" lon="2.95478">
        <ele>1055.665</ele>
        <time>2013-09-28T09:16:41Z</time>
      </trkpt>
      <trkpt lat="45.83502" lon="2.95466">
        <ele>1054.7036</ele>
        <time>2013-09-28T09:16:46Z</time>
      </trkpt>
      <trkpt lat="45.83482" lon="2.95458">
        <ele>1054.2231</ele>
        <time>2013-09-28T09:16:49Z</time>
      </trkpt>
      <trkpt lat="45.83449" lon="2.95439">
        <ele>1050.8581</ele>
        <time>2013-09-28T09:16:54Z</time>
      </trkpt>
      <trkpt lat="45.83417" lon="2.95428">
        <ele>1047.9743</ele>
        <time>2013-09-28T09:16:58Z</time>
      </trkpt>
      <trkpt lat="45.83393" lon="2.95409">
        <ele>1047.0129</ele>
        <time>2013-09-28T09:17:02Z</time>
      </trkpt>
      <trkpt lat="45.83366" lon="2.95408">
        <ele>1045.0903</ele>
        <time>2013-09-28T09:17:06Z</time>
      </trkpt>
      <trkpt lat="45.83343" lon="2.95411">
        <ele>1041.2451</ele>
        <time>2013-09-28T09:17:09Z</time>
      </trkpt>
      <trkpt lat="45.83328" lon="2.95414">
        <ele>1039.8032</ele>
        <time>2013-09-28T09:17:11Z</time>
      </trkpt>
      <trkpt lat="45.83311" lon="2.9542">
        <ele>1037.3999</ele>
        <time>2013-09-28T09:17:14Z</time>
      </trkpt>
      <trkpt lat="45.83306" lon="2.95421">
        <ele>1036.4387</ele>
        <time>2013-09-28T09:17:15Z</time>
      </trkpt>
      <trkpt lat="45.83292" lon="2.95423">
        <ele>1035.9577</ele>
        <time>2013-09-28T09:17:18Z</time>
      </trkpt>
      <trkpt lat="45.83266" lon="2.95428">
        <ele>1035.9577</ele>
        <time>2013-09-28T09:17:23Z</time>
      </trkpt>
      <trkpt lat="45.83257" lon="2.95428">
        <ele>1035.9577</ele>
        <time>2013-09-28T09:17:25Z</time>
      </trkpt>
      <trkpt lat="45.83236" lon="2.95433">
        <ele>1034.9965</ele>
        <time>2013-09-28T09:17:30Z</time>
      </trkpt>
      <trkpt lat="45.83213" lon="2.95439">
        <ele>1034.0351</ele>
        <time>2013-09-28T09:17:35Z</time>
      </trkpt>
      <trkpt lat="45.83196" lon="2.95442">
        <ele>1034.0351</ele>
        <time>2013-09-28T09:17:39Z</time>
      </trkpt>
      <trkpt lat="45.83174" lon="2.95446">
        <ele>1034.0351</ele>
        <time>2013-09-28T09:17:44Z</time>
      </trkpt>
      <trkpt lat="45.83159" lon="2.95463">
        <ele>1035.477</ele>
        <time>2013-09-28T09:17:49Z</time>
      </trkpt>
      <trkpt lat="45.83157" lon="2.95466">
        <ele>1035.9577</ele>
        <time>2013-09-28T09:17:50Z</time>
      </trkpt>
      <trkpt lat="45.83144" lon="2.9548">
        <ele>1035.9577</ele>
        <time>2013-09-28T09:17:55Z</time>
      </trkpt>
      <trkpt lat="45.83142" lon="2.95482">
        <ele>1036.9191</ele>
        <time>2013-09-28T09:17:56Z</time>
      </trkpt>
      <trkpt lat="45.83137" lon="2.95496">
        <ele>1037.3999</ele>
        <time>2013-09-28T09:18:02Z</time>
      </trkpt>
      <trkpt lat="45.83122" lon="2.95513">
        <ele>1038.842</ele>
        <time>2013-09-28T09:18:08Z</time>
      </trkpt>
      <trkpt lat="45.8311" lon="2.95512">
        <ele>1039.3225</ele>
        <time>2013-09-28T09:18:13Z</time>
      </trkpt>
      <trkpt lat="45.83103" lon="2.95497">
        <ele>1039.8032</ele>
        <time>2013-09-28T09:18:20Z</time>
      </trkpt>
      <trkpt lat="45.83102" lon="2.95492">
        <ele>1040.2839</ele>
        <time>2013-09-28T09:18:23Z</time>
      </trkpt>
      <trkpt lat="45.831" lon="2.95472">
        <ele>1041.7258</ele>
        <time>2013-09-28T09:18:30Z</time>
      </trkpt>
      <trkpt lat="45.83099" lon="2.9545">
        <ele>1042.6872</ele>
        <time>2013-09-28T09:18:38Z</time>
      </trkpt>
      <trkpt lat="45.83095" lon="2.95429">
        <ele>1043.6484</ele>
        <time>2013-09-28T09:18:45Z</time>
      </trkpt>
      <trkpt lat="45.83091" lon="2.95413">
        <ele>1043.6484</ele>
        <time>2013-09-28T09:18:50Z</time>
      </trkpt>
      <trkpt lat="45.83087" lon="2.95398">
        <ele>1043.6484</ele>
        <time>2013-09-28T09:18:55Z</time>
      </trkpt>
      <trkpt lat="45.8308" lon="2.95389">
        <ele>1044.1291</ele>
        <time>2013-09-28T09:19:00Z</time>
      </trkpt>
      <trkpt lat="45.83071" lon="2.95388">
        <ele>1045.571</ele>
        <time>2013-09-28T09:19:06Z</time>
      </trkpt>
      <trkpt lat="45.83068" lon="2.95387">
        <ele>1047.0129</ele>
        <time>2013-09-28T09:19:10Z</time>
      </trkpt>
      <trkpt lat="45.83059" lon="2.95385">
        <ele>1048.9355</ele>
        <time>2013-09-28T09:19:16Z</time>
      </trkpt>
      <trkpt lat="45.8305" lon="2.95379">
        <ele>1049.4162</ele>
        <time>2013-09-28T09:19:22Z</time>
      </trkpt>
      <trkpt lat="45.83046" lon="2.95377">
        <ele>1050.3776</ele>
        <time>2013-09-28T09:19:24Z</time>
      </trkpt>
      <trkpt lat="45.83041" lon="2.95367">
        <ele>1050.3776</ele>
        <time>2013-09-28T09:19:29Z</time>
      </trkpt>
      <trkpt lat="45.83035" lon="2.95354">
        <ele>1051.3388</ele>
        <time>2013-09-28T09:19:36Z</time>
      </trkpt>
      <trkpt lat="45.83027" lon="2.95344">
        <ele>1053.2617</ele>
        <time>2013-09-28T09:19:42Z</time>
      </trkpt>
      <trkpt lat="45.83016" lon="2.95332">
        <ele>1053.7424</ele>
        <time>2013-09-28T09:19:50Z</time>
      </trkpt>
      <trkpt lat="45.83008" lon="2.95318">
        <ele>1055.665</ele>
        <time>2013-09-28T09:19:58Z</time>
      </trkpt>
      <trkpt lat="45.83006" lon="2.95315">
        <ele>1056.1455</ele>
        <time>2013-09-28T09:20:00Z</time>
      </trkpt>
      <trkpt lat="45.82999" lon="2.95304">
        <ele>1057.1069</ele>
        <time>2013-09-28T09:20:07Z</time>
      </trkpt>
      <trkpt lat="45.82992" lon="2.95294">
        <ele>1058.5488</ele>
        <time>2013-09-28T09:20:14Z</time>
      </trkpt>
      <trkpt lat="45.8299" lon="2.9529">
        <ele>1059.0295</ele>
        <time>2013-09-28T09:20:16Z</time>
      </trkpt>
      <trkpt lat="45.8298" lon="2.95277">
        <ele>1059.9907</ele>
        <time>2013-09-28T09:20:24Z</time>
      </trkpt>
      <trkpt lat="45.82973" lon="2.95269">
        <ele>1060.4714</ele>
        <time>2013-09-28T09:20:29Z</time>
      </trkpt>
      <trkpt lat="45.82966" lon="2.95257">
        <ele>1060.9521</ele>
        <time>2013-09-28T09:20:36Z</time>
      </trkpt>
      <trkpt lat="45.8296" lon="2.95251">
        <ele>1061.9135</ele>
        <time>2013-09-28T09:20:41Z</time>
      </trkpt>
      <trkpt lat="45.82954" lon="2.95249">
        <ele>1063.8359</ele>
        <time>2013-09-28T09:20:46Z</time>
      </trkpt>
      <trkpt lat="45.82951" lon="2.95248">
        <ele>1063.8359</ele>
        <time>2013-09-28T09:20:48Z</time>
      </trkpt>
      <trkpt lat="45.82941" lon="2.9524">
        <ele>1064.7973</ele>
        <time>2013-09-28T09:20:55Z</time>
      </trkpt>
      <trkpt lat="45.82938" lon="2.95237">
        <ele>1065.278</ele>
        <time>2013-09-28T09:20:57Z</time>
      </trkpt>
      <trkpt lat="45.82931" lon="2.9523">
        <ele>1065.7587</ele>
        <time>2013-09-28T09:21:03Z</time>
      </trkpt>
      <trkpt lat="45.82924" lon="2.95223">
        <ele>1066.7199</ele>
        <time>2013-09-28T09:21:09Z</time>
      </trkpt>
      <trkpt lat="45.82913" lon="2.9522">
        <ele>1067.2006</ele>
        <time>2013-09-28T09:21:15Z</time>
      </trkpt>
      <trkpt lat="45.82911" lon="2.95216">
        <ele>1066.7199</ele>
        <time>2013-09-28T09:21:17Z</time>
      </trkpt>
      <trkpt lat="45.82907" lon="2.95211">
        <ele>1068.1621</ele>
        <time>2013-09-28T09:21:21Z</time>
      </trkpt>
      <trkpt lat="45.82898" lon="2.95208">
        <ele>1069.1235</ele>
        <time>2013-09-28T09:21:27Z</time>
      </trkpt>
      <trkpt lat="45.82893" lon="2.95208">
        <ele>1070.0847</ele>
        <time>2013-09-28T09:21:31Z</time>
      </trkpt>
      <trkpt lat="45.8288" lon="2.95206">
        <ele>1071.0461</ele>
        <time>2013-09-28T09:21:38Z</time>
      </trkpt>
      <trkpt lat="45.82872" lon="2.95204">
        <ele>1072.0073</ele>
        <time>2013-09-28T09:21:45Z</time>
      </trkpt>
      <trkpt lat="45.82871" lon="2.95207">
        <ele>1072.9687</ele>
        <time>2013-09-28T09:21:49Z</time>
      </trkpt>
      <trkpt lat="45.82865" lon="2.95208">
        <ele>1073.4494</ele>
        <time>2013-09-28T09:21:53Z</time>
      </trkpt>
      <trkpt lat="45.82854" lon="2.95206">
        <ele>1074.8913</ele>
        <time>2013-09-28T09:21:58Z</time>
      </trkpt>
      <trkpt lat="45.82848" lon="2.95206">
        <ele>1074.8913</ele>
        <time>2013-09-28T09:22:03Z</time>
      </trkpt>
      <trkpt lat="45.82843" lon="2.95204">
        <ele>1075.8525</ele>
        <time>2013-09-28T09:22:07Z</time>
      </trkpt>
      <trkpt lat="45.82834" lon="2.95201">
        <ele>1076.8139</ele>
        <time>2013-09-28T09:22:12Z</time>
      </trkpt>
      <trkpt lat="45.82831" lon="2.952">
        <ele>1077.2946</ele>
        <time>2013-09-28T09:22:16Z</time>
      </trkpt>
      <trkpt lat="45.82822" lon="2.95198">
        <ele>1078.7365</ele>
        <time>2013-09-28T09:22:22Z</time>
      </trkpt>
      <trkpt lat="45.82813" lon="2.952">
        <ele>1079.6977</ele>
        <time>2013-09-28T09:22:27Z</time>
      </trkpt>
      <trkpt lat="45.82804" lon="2.95202">
        <ele>1081.1398</ele>
        <time>2013-09-28T09:22:33Z</time>
      </trkpt>
      <trkpt lat="45.82794" lon="2.95205">
        <ele>1082.101</ele>
        <time>2013-09-28T09:22:39Z</time>
      </trkpt>
      <trkpt lat="45.82786" lon="2.95206">
        <ele>1083.0622</ele>
        <time>2013-09-28T09:22:44Z</time>
      </trkpt>
      <trkpt lat="45.82777" lon="2.95207">
        <ele>1084.0239</ele>
        <time>2013-09-28T09:22:49Z</time>
      </trkpt>
      <trkpt lat="45.82774" lon="2.95212">
        <ele>1084.9853</ele>
        <time>2013-09-28T09:22:54Z</time>
      </trkpt>
      <trkpt lat="45.82768" lon="2.95213">
        <ele>1085.9465</ele>
        <time>2013-09-28T09:22:57Z</time>
      </trkpt>
      <trkpt lat="45.82762" lon="2.95214">
        <ele>1086.4272</ele>
        <time>2013-09-28T09:23:01Z</time>
      </trkpt>
      <trkpt lat="45.82755" lon="2.95218">
        <ele>1087.3884</ele>
        <time>2013-09-28T09:23:05Z</time>
      </trkpt>
      <trkpt lat="45.82746" lon="2.95219">
        <ele>1088.3498</ele>
        <time>2013-09-28T09:23:11Z</time>
      </trkpt>
      <trkpt lat="45.82739" lon="2.95221">
        <ele>1088.3498</ele>
        <time>2013-09-28T09:23:15Z</time>
      </trkpt>
      <trkpt lat="45.82738" lon="2.95221">
        <ele>1088.8305</ele>
        <time>2013-09-28T09:23:16Z</time>
      </trkpt>
      <trkpt lat="45.82723" lon="2.95219">
        <ele>1087.8691</ele>
        <time>2013-09-28T09:23:22Z</time>
      </trkpt>
      <trkpt lat="45.82715" lon="2.95222">
        <ele>1088.3498</ele>
        <time>2013-09-28T09:23:27Z</time>
      </trkpt>
      <trkpt lat="45.82697" lon="2.95228">
        <ele>1088.8305</ele>
        <time>2013-09-28T09:23:32Z</time>
      </trkpt>
      <trkpt lat="45.82683" lon="2.95232">
        <ele>1089.311</ele>
        <time>2013-09-28T09:23:37Z</time>
      </trkpt>
      <trkpt lat="45.82671" lon="2.95227">
        <ele>1088.3498</ele>
        <time>2013-09-28T09:23:42Z</time>
      </trkpt>
      <trkpt lat="45.82664" lon="2.95224">
        <ele>1088.8305</ele>
        <time>2013-09-28T09:23:44Z</time>
      </trkpt>
      <trkpt lat="45.82657" lon="2.95216">
        <ele>1087.3884</ele>
        <time>2013-09-28T09:23:46Z</time>
      </trkpt>
      <trkpt lat="45.82644" lon="2.95206">
        <ele>1087.3884</ele>
        <time>2013-09-28T09:23:50Z</time>
      </trkpt>
      <trkpt lat="45.82635" lon="2.95204">
        <ele>1087.3884</ele>
        <time>2013-09-28T09:23:54Z</time>
      </trkpt>
      <trkpt lat="45.82628" lon="2.95199">
        <ele>1088.3498</ele>
        <time>2013-09-28T09:23:58Z</time>
      </trkpt>
      <trkpt lat="45.82623" lon="2.95195">
        <ele>1089.311</ele>
        <time>2013-09-28T09:24:02Z</time>
      </trkpt>
      <trkpt lat="45.82618" lon="2.95194">
        <ele>1090.2724</ele>
        <time>2013-09-28T09:24:06Z</time>
      </trkpt>
      <trkpt lat="45.8261" lon="2.95191">
        <ele>1091.7143</ele>
        <time>2013-09-28T09:24:11Z</time>
      </trkpt>
      <trkpt lat="45.82604" lon="2.95191">
        <ele>1091.7143</ele>
        <time>2013-09-28T09:24:13Z</time>
      </trkpt>
      <trkpt lat="45.82594" lon="2.95189">
        <ele>1092.195</ele>
        <time>2013-09-28T09:24:17Z</time>
      </trkpt>
      <trkpt lat="45.82586" lon="2.95183">
        <ele>1092.6757</ele>
        <time>2013-09-28T09:24:23Z</time>
      </trkpt>
      <trkpt lat="45.82558" lon="2.95156">
        <ele>1096.0402</ele>
        <time>2013-09-28T09:24:46Z</time>
      </trkpt>
      <trkpt lat="45.8253" lon="2.95164">
        <ele>1097.4821</ele>
        <time>2013-09-28T09:25:16Z</time>
      </trkpt>
      <trkpt lat="45.82526" lon="2.95167">
        <ele>1097.4821</ele>
        <time>2013-09-28T09:25:21Z</time>
      </trkpt>
      <trkpt lat="45.82524" lon="2.95165">
        <ele>1098.924</ele>
        <time>2013-09-28T09:25:30Z</time>
      </trkpt>
      <trkpt lat="45.82516" lon="2.95168">
        <ele>1099.4047</ele>
        <time>2013-09-28T09:25:35Z</time>
      </trkpt>
      <trkpt lat="45.82509" lon="2.95163">
        <ele>1099.8854</ele>
        <time>2013-09-28T09:25:41Z</time>
      </trkpt>
      <trkpt lat="45.82503" lon="2.95159">
        <ele>1100.8469</ele>
        <time>2013-09-28T09:25:46Z</time>
      </trkpt>
      <trkpt lat="45.82499" lon="2.95149">
        <ele>1102.2888</ele>
        <time>2013-09-28T09:25:51Z</time>
      </trkpt>
      <trkpt lat="45.82494" lon="2.95142">
        <ele>1104.2116</ele>
        <time>2013-09-28T09:25:58Z</time>
      </trkpt>
      <trkpt lat="45.82489" lon="2.95137">
        <ele>1106.134</ele>
        <time>2013-09-28T09:26:05Z</time>
      </trkpt>
      <trkpt lat="45.82485" lon="2.95136">
        <ele>1106.6147</ele>
        <time>2013-09-28T09:26:08Z</time>
      </trkpt>
      <trkpt lat="45.82471" lon="2.95127">
        <ele>1108.5373</ele>
        <time>2013-09-28T09:26:18Z</time>
      </trkpt>
      <trkpt lat="45.82461" lon="2.95116">
        <ele>1109.9792</ele>
        <time>2013-09-28T09:26:26Z</time>
      </trkpt>
      <trkpt lat="45.82451" lon="2.95109">
        <ele>1111.4213</ele>
        <time>2013-09-28T09:26:34Z</time>
      </trkpt>
      <trkpt lat="45.82439" lon="2.95105">
        <ele>1113.8244</ele>
        <time>2013-09-28T09:26:45Z</time>
      </trkpt>
      <trkpt lat="45.82432" lon="2.95102">
        <ele>1115.7473</ele>
        <time>2013-09-28T09:26:53Z</time>
      </trkpt>
      <trkpt lat="45.82425" lon="2.95091">
        <ele>1118.6313</ele>
        <time>2013-09-28T09:27:03Z</time>
      </trkpt>
      <trkpt lat="45.82418" lon="2.95079">
        <ele>1120.5539</ele>
        <time>2013-09-28T09:27:12Z</time>
      </trkpt>
      <trkpt lat="45.82414" lon="2.95071">
        <ele>1121.9958</ele>
        <time>2013-09-28T09:27:17Z</time>
      </trkpt>
      <trkpt lat="45.82418" lon="2.95064">
        <ele>1122.9572</ele>
        <time>2013-09-28T09:27:22Z</time>
      </trkpt>
      <trkpt lat="45.82422" lon="2.95054">
        <ele>1124.8798</ele>
        <time>2013-09-28T09:27:28Z</time>
      </trkpt>
      <trkpt lat="45.82427" lon="2.95039">
        <ele>1127.2832</ele>
        <time>2013-09-28T09:27:37Z</time>
      </trkpt>
      <trkpt lat="45.82426" lon="2.95035">
        <ele>1127.7636</ele>
        <time>2013-09-28T09:27:39Z</time>
      </trkpt>
      <trkpt lat="45.82415" lon="2.95029">
        <ele>1129.2055</ele>
        <time>2013-09-28T09:27:49Z</time>
      </trkpt>
      <trkpt lat="45.82401" lon="2.95028">
        <ele>1131.1284</ele>
        <time>2013-09-28T09:28:00Z</time>
      </trkpt>
      <trkpt lat="45.82387" lon="2.95037">
        <ele>1132.5705</ele>
        <time>2013-09-28T09:28:11Z</time>
      </trkpt>
      <trkpt lat="45.82377" lon="2.95056">
        <ele>1133.051</ele>
        <time>2013-09-28T09:28:21Z</time>
      </trkpt>
      <trkpt lat="45.82374" lon="2.95073">
        <ele>1134.0124</ele>
        <time>2013-09-28T09:28:28Z</time>
      </trkpt>
      <trkpt lat="45.82373" lon="2.951">
        <ele>1135.4543</ele>
        <time>2013-09-28T09:28:39Z</time>
      </trkpt>
      <trkpt lat="45.82377" lon="2.95125">
        <ele>1136.4157</ele>
        <time>2013-09-28T09:28:49Z</time>
      </trkpt>
      <trkpt lat="45.82378" lon="2.95126">
        <ele>1135.935</ele>
        <time>2013-09-28T09:28:53Z</time>
      </trkpt>
      <trkpt lat="45.82378" lon="2.95126">
        <ele>1135.935</ele>
        <time>2013-09-28T09:28:59Z</time>
      </trkpt>
      <trkpt lat="45.82382" lon="2.95125">
        <ele>1135.4543</ele>
        <time>2013-09-28T09:29:14Z</time>
      </trkpt>
      <trkpt lat="45.82382" lon="2.95126">
        <ele>1135.4543</ele>
        <time>2013-09-28T09:29:18Z</time>
      </trkpt>
      <trkpt lat="45.82386" lon="2.95143">
        <ele>1135.935</ele>
        <time>2013-09-28T09:29:24Z</time>
      </trkpt>
      <trkpt lat="45.82388" lon="2.95174">
        <ele>1134.9738</ele>
        <time>2013-09-28T09:29:30Z</time>
      </trkpt>
      <trkpt lat="45.82387" lon="2.95203">
        <ele>1133.5317</ele>
        <time>2013-09-28T09:29:34Z</time>
      </trkpt>
      <trkpt lat="45.82391" lon="2.95236">
        <ele>1132.0898</ele>
        <time>2013-09-28T09:29:38Z</time>
      </trkpt>
      <trkpt lat="45.82391" lon="2.95244">
        <ele>1131.6088</ele>
        <time>2013-09-28T09:29:39Z</time>
      </trkpt>
      <trkpt lat="45.82396" lon="2.95264">
        <ele>1132.0898</ele>
        <time>2013-09-28T09:29:44Z</time>
      </trkpt>
      <trkpt lat="45.82401" lon="2.95281">
        <ele>1134.0124</ele>
        <time>2013-09-28T09:29:51Z</time>
      </trkpt>
      <trkpt lat="45.82408" lon="2.95304">
        <ele>1135.935</ele>
        <time>2013-09-28T09:30:01Z</time>
      </trkpt>
      <trkpt lat="45.82416" lon="2.9532">
        <ele>1137.3769</ele>
        <time>2013-09-28T09:30:10Z</time>
      </trkpt>
      <trkpt lat="45.82422" lon="2.95331">
        <ele>1138.819</ele>
        <time>2013-09-28T09:30:16Z</time>
      </trkpt>
      <trkpt lat="45.82429" lon="2.95344">
        <ele>1141.7028</ele>
        <time>2013-09-28T09:30:24Z</time>
      </trkpt>
      <trkpt lat="45.82437" lon="2.95355">
        <ele>1144.1062</ele>
        <time>2013-09-28T09:30:32Z</time>
      </trkpt>
      <trkpt lat="45.82448" lon="2.95372">
        <ele>1146.9899</ele>
        <time>2013-09-28T09:30:43Z</time>
      </trkpt>
      <trkpt lat="45.82451" lon="2.95376">
        <ele>1148.4321</ele>
        <time>2013-09-28T09:30:46Z</time>
      </trkpt>
      <trkpt lat="45.82459" lon="2.95389">
        <ele>1150.8354</ele>
        <time>2013-09-28T09:30:55Z</time>
      </trkpt>
      <trkpt lat="45.82465" lon="2.95398">
        <ele>1152.2773</ele>
        <time>2013-09-28T09:31:02Z</time>
      </trkpt>
      <trkpt lat="45.82466" lon="2.95413">
        <ele>1150.8354</ele>
        <time>2013-09-28T09:31:10Z</time>
      </trkpt>
      <trkpt lat="45.82467" lon="2.95429">
        <ele>1148.9128</ele>
        <time>2013-09-28T09:31:14Z</time>
      </trkpt>
      <trkpt lat="45.82469" lon="2.95444">
        <ele>1146.9899</ele>
        <time>2013-09-28T09:31:19Z</time>
      </trkpt>
      <trkpt lat="45.82471" lon="2.95453">
        <ele>1146.5095</ele>
        <time>2013-09-28T09:31:24Z</time>
      </trkpt>
      <trkpt lat="45.82471" lon="2.95458">
        <ele>1145.548</ele>
        <time>2013-09-28T09:31:32Z</time>
      </trkpt>
      <trkpt lat="45.82472" lon="2.95469">
        <ele>1144.5866</ele>
        <time>2013-09-28T09:31:34Z</time>
      </trkpt>
      <trkpt lat="45.82478" lon="2.9551">
        <ele>1140.2609</ele>
        <time>2013-09-28T09:31:38Z</time>
      </trkpt>
      <trkpt lat="45.82482" lon="2.95535">
        <ele>1136.4157</ele>
        <time>2013-09-28T09:31:40Z</time>
      </trkpt>
      <trkpt lat="45.82483" lon="2.95547">
        <ele>1134.9738</ele>
        <time>2013-09-28T09:31:41Z</time>
      </trkpt>
      <trkpt lat="45.82485" lon="2.95591">
        <ele>1128.725</ele>
        <time>2013-09-28T09:31:45Z</time>
      </trkpt>
      <trkpt lat="45.82491" lon="2.95623">
        <ele>1123.9184</ele>
        <time>2013-09-28T09:31:48Z</time>
      </trkpt>
      <trkpt lat="45.82496" lon="2.95643">
        <ele>1120.0732</ele>
        <time>2013-09-28T09:31:50Z</time>
      </trkpt>
      <trkpt lat="45.82503" lon="2.95657">
        <ele>1117.1894</ele>
        <time>2013-09-28T09:31:52Z</time>
      </trkpt>
      <trkpt lat="45.82509" lon="2.9568">
        <ele>1112.3825</ele>
        <time>2013-09-28T09:31:56Z</time>
      </trkpt>
      <trkpt lat="45.82512" lon="2.95689">
        <ele>1109.018</ele>
        <time>2013-09-28T09:31:58Z</time>
      </trkpt>
      <trkpt lat="45.82521" lon="2.95706">
        <ele>1104.6921</ele>
        <time>2013-09-28T09:32:02Z</time>
      </trkpt>
      <trkpt lat="45.82518" lon="2.95723">
        <ele>1098.924</ele>
        <time>2013-09-28T09:32:06Z</time>
      </trkpt>
      <trkpt lat="45.82513" lon="2.95737">
        <ele>1095.0788</ele>
        <time>2013-09-28T09:32:09Z</time>
      </trkpt>
      <trkpt lat="45.82511" lon="2.95742">
        <ele>1094.5981</ele>
        <time>2013-09-28T09:32:10Z</time>
      </trkpt>
      <trkpt lat="45.82511" lon="2.95763">
        <ele>1089.311</ele>
        <time>2013-09-28T09:32:13Z</time>
      </trkpt>
      <trkpt lat="45.82513" lon="2.95769">
        <ele>1088.3498</ele>
        <time>2013-09-28T09:32:14Z</time>
      </trkpt>
      <trkpt lat="45.82512" lon="2.9579">
        <ele>1085.4658</ele>
        <time>2013-09-28T09:32:17Z</time>
      </trkpt>
      <trkpt lat="45.82507" lon="2.95808">
        <ele>1080.1784</ele>
        <time>2013-09-28T09:32:19Z</time>
      </trkpt>
      <trkpt lat="45.82504" lon="2.95827">
        <ele>1074.4106</ele>
        <time>2013-09-28T09:32:21Z</time>
      </trkpt>
      <trkpt lat="45.82497" lon="2.95844">
        <ele>1071.0461</ele>
        <time>2013-09-28T09:32:23Z</time>
      </trkpt>
      <trkpt lat="45.8249" lon="2.95878">
        <ele>1063.8359</ele>
        <time>2013-09-28T09:32:27Z</time>
      </trkpt>
      <trkpt lat="45.82488" lon="2.95893">
        <ele>1060.4714</ele>
        <time>2013-09-28T09:32:29Z</time>
      </trkpt>
      <trkpt lat="45.82481" lon="2.95922">
        <ele>1054.2231</ele>
        <time>2013-09-28T09:32:33Z</time>
      </trkpt>
      <trkpt lat="45.82477" lon="2.95931">
        <ele>1051.8195</ele>
        <time>2013-09-28T09:32:34Z</time>
      </trkpt>
      <trkpt lat="45.82468" lon="2.95957">
        <ele>1046.0517</ele>
        <time>2013-09-28T09:32:37Z</time>
      </trkpt>
      <trkpt lat="45.82455" lon="2.95985">
        <ele>1038.842</ele>
        <time>2013-09-28T09:32:40Z</time>
      </trkpt>
      <trkpt lat="45.82451" lon="2.95995">
        <ele>1035.477</ele>
        <time>2013-09-28T09:32:41Z</time>
      </trkpt>
      <trkpt lat="45.82447" lon="2.96005">
        <ele>1032.1125</ele>
        <time>2013-09-28T09:32:42Z</time>
      </trkpt>
      <trkpt lat="45.82441" lon="2.96014">
        <ele>1031.1513</ele>
        <time>2013-09-28T09:32:43Z</time>
      </trkpt>
      <trkpt lat="45.82429" lon="2.96025">
        <ele>1025.3833</ele>
        <time>2013-09-28T09:32:45Z</time>
      </trkpt>
      <trkpt lat="45.82418" lon="2.96035">
        <ele>1022.0187</ele>
        <time>2013-09-28T09:32:47Z</time>
      </trkpt>
      <trkpt lat="45.82402" lon="2.96049">
        <ele>1019.1347</ele>
        <time>2013-09-28T09:32:51Z</time>
      </trkpt>
      <trkpt lat="45.82383" lon="2.96061">
        <ele>1021.0576</ele>
        <time>2013-09-28T09:32:56Z</time>
      </trkpt>
      <trkpt lat="45.8238" lon="2.96064">
        <ele>1020.5769</ele>
        <time>2013-09-28T09:32:57Z</time>
      </trkpt>
      <trkpt lat="45.82377" lon="2.96081">
        <ele>1018.1733</ele>
        <time>2013-09-28T09:33:00Z</time>
      </trkpt>
      <trkpt lat="45.82379" lon="2.96105">
        <ele>1015.7702</ele>
        <time>2013-09-28T09:33:04Z</time>
      </trkpt>
      <trkpt lat="45.824" lon="2.96128">
        <ele>1013.3669</ele>
        <time>2013-09-28T09:33:08Z</time>
      </trkpt>
      <trkpt lat="45.82419" lon="2.96135">
        <ele>1010.4829</ele>
        <time>2013-09-28T09:33:10Z</time>
      </trkpt>
      <trkpt lat="45.8245" lon="2.96153">
        <ele>1008.5603</ele>
        <time>2013-09-28T09:33:14Z</time>
      </trkpt>
      <trkpt lat="45.82473" lon="2.96182">
        <ele>1005.1958</ele>
        <time>2013-09-28T09:33:18Z</time>
      </trkpt>
      <trkpt lat="45.82473" lon="2.96221">
        <ele>1002.7922</ele>
        <time>2013-09-28T09:33:21Z</time>
      </trkpt>
      <trkpt lat="45.8247" lon="2.96236">
        <ele>1001.3503</ele>
        <time>2013-09-28T09:33:22Z</time>
      </trkpt>
      <trkpt lat="45.82464" lon="2.96277">
        <ele>996.54394</ele>
        <time>2013-09-28T09:33:26Z</time>
      </trkpt>
      <trkpt lat="45.82464" lon="2.96279">
        <ele>995.58251</ele>
        <time>2013-09-28T09:33:29Z</time>
      </trkpt>
      <trkpt lat="45.82467" lon="2.96282">
        <ele>996.06323</ele>
        <time>2013-09-28T09:33:36Z</time>
      </trkpt>
      <trkpt lat="45.82472" lon="2.9629">
        <ele>994.62109</ele>
        <time>2013-09-28T09:34:14Z</time>
      </trkpt>
      <trkpt lat="45.82474" lon="2.96294">
        <ele>994.62109</ele>
        <time>2013-09-28T09:34:21Z</time>
      </trkpt>
      <trkpt lat="45.82476" lon="2.96299">
        <ele>994.62109</ele>
        <time>2013-09-28T09:34:41Z</time>
      </trkpt>
      <trkpt lat="45.82478" lon="2.96293">
        <ele>994.62109</ele>
        <time>2013-09-28T09:35:07Z</time>
      </trkpt>
      <trkpt lat="45.82484" lon="2.96286">
        <ele>994.62109</ele>
        <time>2013-09-28T09:35:13Z</time>
      </trkpt>
      <trkpt lat="45.82489" lon="2.96282">
        <ele>995.1018</ele>
        <time>2013-09-28T09:35:16Z</time>
      </trkpt>
      <trkpt lat="45.82501" lon="2.96269">
        <ele>995.58251</ele>
        <time>2013-09-28T09:35:23Z</time>
      </trkpt>
      <trkpt lat="45.8252" lon="2.96252">
        <ele>996.54394</ele>
        <time>2013-09-28T09:35:33Z</time>
      </trkpt>
      <trkpt lat="45.82532" lon="2.96242">
        <ele>997.02441</ele>
        <time>2013-09-28T09:35:40Z</time>
      </trkpt>
      <trkpt lat="45.82546" lon="2.96231">
        <ele>997.50512</ele>
        <time>2013-09-28T09:35:47Z</time>
      </trkpt>
      <trkpt lat="45.82556" lon="2.96222">
        <ele>997.98583</ele>
        <time>2013-09-28T09:35:53Z</time>
      </trkpt>
      <trkpt lat="45.82569" lon="2.96213">
        <ele>998.4663</ele>
        <time>2013-09-28T09:36:00Z</time>
      </trkpt>
      <trkpt lat="45.82579" lon="2.96205">
        <ele>998.94702</ele>
        <time>2013-09-28T09:36:06Z</time>
      </trkpt>
      <trkpt lat="45.82593" lon="2.96193">
        <ele>999.90844</ele>
        <time>2013-09-28T09:36:14Z</time>
      </trkpt>
      <trkpt lat="45.82608" lon="2.96185">
        <ele>1001.831</ele>
        <time>2013-09-28T09:36:23Z</time>
      </trkpt>
      <trkpt lat="45.82622" lon="2.96181">
        <ele>1003.2729</ele>
        <time>2013-09-28T09:36:31Z</time>
      </trkpt>
      <trkpt lat="45.82636" lon="2.96183">
        <ele>1005.1958</ele>
        <time>2013-09-28T09:36:40Z</time>
      </trkpt>
      <trkpt lat="45.82655" lon="2.96187">
        <ele>1007.1184</ele>
        <time>2013-09-28T09:36:50Z</time>
      </trkpt>
      <trkpt lat="45.82673" lon="2.96187">
        <ele>1008.5603</ele>
        <time>2013-09-28T09:36:58Z</time>
      </trkpt>
      <trkpt lat="45.82691" lon="2.96185">
        <ele>1009.5217</ele>
        <time>2013-09-28T09:37:06Z</time>
      </trkpt>
      <trkpt lat="45.82704" lon="2.96181">
        <ele>1009.5217</ele>
        <time>2013-09-28T09:37:12Z</time>
      </trkpt>
      <trkpt lat="45.82728" lon="2.96169">
        <ele>1009.5217</ele>
        <time>2013-09-28T09:37:21Z</time>
      </trkpt>
      <trkpt lat="45.82747" lon="2.9616">
        <ele>1009.5217</ele>
        <time>2013-09-28T09:37:29Z</time>
      </trkpt>
      <trkpt lat="45.82759" lon="2.96149">
        <ele>1010.0021</ele>
        <time>2013-09-28T09:37:34Z</time>
      </trkpt>
      <trkpt lat="45.8277" lon="2.96141">
        <ele>1009.5217</ele>
        <time>2013-09-28T09:37:38Z</time>
      </trkpt>
      <trkpt lat="45.82794" lon="2.96128">
        <ele>1009.041</ele>
        <time>2013-09-28T09:37:45Z</time>
      </trkpt>
      <trkpt lat="45.82813" lon="2.96118">
        <ele>1009.041</ele>
        <time>2013-09-28T09:37:51Z</time>
      </trkpt>
      <trkpt lat="45.82827" lon="2.96107">
        <ele>1009.5217</ele>
        <time>2013-09-28T09:37:56Z</time>
      </trkpt>
      <trkpt lat="45.82839" lon="2.96095">
        <ele>1010.4829</ele>
        <time>2013-09-28T09:38:02Z</time>
      </trkpt>
      <trkpt lat="45.82852" lon="2.96083">
        <ele>1011.925</ele>
        <time>2013-09-28T09:38:08Z</time>
      </trkpt>
      <trkpt lat="45.82863" lon="2.96076">
        <ele>1013.3669</ele>
        <time>2013-09-28T09:38:13Z</time>
      </trkpt>
      <trkpt lat="45.82874" lon="2.9607">
        <ele>1014.8088</ele>
        <time>2013-09-28T09:38:19Z</time>
      </trkpt>
      <trkpt lat="45.8289" lon="2.96059">
        <ele>1016.2507</ele>
        <time>2013-09-28T09:38:27Z</time>
      </trkpt>
      <trkpt lat="45.82894" lon="2.96057">
        <ele>1016.2507</ele>
        <time>2013-09-28T09:38:32Z</time>
      </trkpt>
      <trkpt lat="45.82899" lon="2.96059">
        <ele>1016.7314</ele>
        <time>2013-09-28T09:38:48Z</time>
      </trkpt>
      <trkpt lat="45.82901" lon="2.96061">
        <ele>1016.2507</ele>
        <time>2013-09-28T09:39:26Z</time>
      </trkpt>
      <trkpt lat="45.82907" lon="2.96048">
        <ele>1017.6926</ele>
        <time>2013-09-28T09:39:33Z</time>
      </trkpt>
      <trkpt lat="45.82908" lon="2.96047">
        <ele>1017.6926</ele>
        <time>2013-09-28T09:39:34Z</time>
      </trkpt>
      <trkpt lat="45.82919" lon="2.96028">
        <ele>1020.0961</ele>
        <time>2013-09-28T09:39:43Z</time>
      </trkpt>
      <trkpt lat="45.82927" lon="2.96014">
        <ele>1021.538</ele>
        <time>2013-09-28T09:39:50Z</time>
      </trkpt>
      <trkpt lat="45.82928" lon="2.96012">
        <ele>1022.0187</ele>
        <time>2013-09-28T09:39:51Z</time>
      </trkpt>
      <trkpt lat="45.82933" lon="2.95999">
        <ele>1022.9802</ele>
        <time>2013-09-28T09:39:56Z</time>
      </trkpt>
      <trkpt lat="45.82942" lon="2.95987">
        <ele>1024.9028</ele>
        <time>2013-09-28T09:40:04Z</time>
      </trkpt>
      <trkpt lat="45.8295" lon="2.95975">
        <ele>1026.8254</ele>
        <time>2013-09-28T09:40:11Z</time>
      </trkpt>
      <trkpt lat="45.82959" lon="2.95967">
        <ele>1027.7866</ele>
        <time>2013-09-28T09:40:18Z</time>
      </trkpt>
      <trkpt lat="45.82964" lon="2.95958">
        <ele>1029.2285</ele>
        <time>2013-09-28T09:40:24Z</time>
      </trkpt>
      <trkpt lat="45.82973" lon="2.95949">
        <ele>1030.1899</ele>
        <time>2013-09-28T09:40:31Z</time>
      </trkpt>
      <trkpt lat="45.82983" lon="2.95936">
        <ele>1031.6318</ele>
        <time>2013-09-28T09:40:38Z</time>
      </trkpt>
      <trkpt lat="45.82988" lon="2.95926">
        <ele>1033.0737</ele>
        <time>2013-09-28T09:40:43Z</time>
      </trkpt>
      <trkpt lat="45.8299" lon="2.95922">
        <ele>1033.5544</ele>
        <time>2013-09-28T09:40:45Z</time>
      </trkpt>
      <trkpt lat="45.82996" lon="2.95907">
        <ele>1034.5158</ele>
        <time>2013-09-28T09:40:51Z</time>
      </trkpt>
      <trkpt lat="45.83003" lon="2.95892">
        <ele>1034.9965</ele>
        <time>2013-09-28T09:40:57Z</time>
      </trkpt>
      <trkpt lat="45.8301" lon="2.95873">
        <ele>1035.9577</ele>
        <time>2013-09-28T09:41:04Z</time>
      </trkpt>
      <trkpt lat="45.83022" lon="2.95853">
        <ele>1036.9191</ele>
        <time>2013-09-28T09:41:13Z</time>
      </trkpt>
      <trkpt lat="45.83031" lon="2.95844">
        <ele>1036.9191</ele>
        <time>2013-09-28T09:41:19Z</time>
      </trkpt>
      <trkpt lat="45.83043" lon="2.95836">
        <ele>1037.3999</ele>
        <time>2013-09-28T09:41:25Z</time>
      </trkpt>
      <trkpt lat="45.83051" lon="2.95828">
        <ele>1038.3613</ele>
        <time>2013-09-28T09:41:30Z</time>
      </trkpt>
      <trkpt lat="45.8306" lon="2.95816">
        <ele>1038.3613</ele>
        <time>2013-09-28T09:41:37Z</time>
      </trkpt>
      <trkpt lat="45.8307" lon="2.95799">
        <ele>1038.3613</ele>
        <time>2013-09-28T09:41:43Z</time>
      </trkpt>
      <trkpt lat="45.83081" lon="2.95777">
        <ele>1039.3225</ele>
        <time>2013-09-28T09:41:50Z</time>
      </trkpt>
      <trkpt lat="45.83087" lon="2.95761">
        <ele>1039.8032</ele>
        <time>2013-09-28T09:41:56Z</time>
      </trkpt>
      <trkpt lat="45.8309" lon="2.95751">
        <ele>1039.8032</ele>
        <time>2013-09-28T09:42:00Z</time>
      </trkpt>
      <trkpt lat="45.83095" lon="2.95732">
        <ele>1040.7644</ele>
        <time>2013-09-28T09:42:06Z</time>
      </trkpt>
      <trkpt lat="45.83097" lon="2.95714">
        <ele>1041.2451</ele>
        <time>2013-09-28T09:42:11Z</time>
      </trkpt>
      <trkpt lat="45.83103" lon="2.95696">
        <ele>1042.2065</ele>
        <time>2013-09-28T09:42:17Z</time>
      </trkpt>
      <trkpt lat="45.83107" lon="2.95685">
        <ele>1042.2065</ele>
        <time>2013-09-28T09:42:21Z</time>
      </trkpt>
      <trkpt lat="45.83108" lon="2.9568">
        <ele>1042.2065</ele>
        <time>2013-09-28T09:42:23Z</time>
      </trkpt>
      <trkpt lat="45.83111" lon="2.95665">
        <ele>1042.6872</ele>
        <time>2013-09-28T09:42:28Z</time>
      </trkpt>
      <trkpt lat="45.83109" lon="2.95638">
        <ele>1042.2065</ele>
        <time>2013-09-28T09:42:34Z</time>
      </trkpt>
      <trkpt lat="45.83108" lon="2.95615">
        <ele>1042.6872</ele>
        <time>2013-09-28T09:42:39Z</time>
      </trkpt>
      <trkpt lat="45.83108" lon="2.95593">
        <ele>1042.2065</ele>
        <time>2013-09-28T09:42:44Z</time>
      </trkpt>
      <trkpt lat="45.83102" lon="2.95568">
        <ele>1041.7258</ele>
        <time>2013-09-28T09:42:50Z</time>
      </trkpt>
      <trkpt lat="45.83103" lon="2.95552">
        <ele>1041.7258</ele>
        <time>2013-09-28T09:42:54Z</time>
      </trkpt>
      <trkpt lat="45.83107" lon="2.95539">
        <ele>1041.7258</ele>
        <time>2013-09-28T09:42:59Z</time>
      </trkpt>
      <trkpt lat="45.83111" lon="2.95527">
        <ele>1040.7644</ele>
        <time>2013-09-28T09:43:04Z</time>
      </trkpt>
      <trkpt lat="45.83114" lon="2.95523">
        <ele>1040.2839</ele>
        <time>2013-09-28T09:43:09Z</time>
      </trkpt>
      <trkpt lat="45.83114" lon="2.95516">
        <ele>1040.2839</ele>
        <time>2013-09-28T09:43:19Z</time>
      </trkpt>
      <trkpt lat="45.83114" lon="2.95519">
        <ele>1040.7644</ele>
        <time>2013-09-28T09:43:31Z</time>
      </trkpt>
      <trkpt lat="45.83113" lon="2.95516">
        <ele>1040.7644</ele>
        <time>2013-09-28T09:43:35Z</time>
      </trkpt>
      <trkpt lat="45.83114" lon="2.95513">
        <ele>1041.2451</ele>
        <time>2013-09-28T09:43:42Z</time>
      </trkpt>
      <trkpt lat="45.83115" lon="2.95514">
        <ele>1041.7258</ele>
        <time>2013-09-28T09:43:48Z</time>
      </trkpt>
      <trkpt lat="45.83123" lon="2.95519">
        <ele>1041.2451</ele>
        <time>2013-09-28T09:43:58Z</time>
      </trkpt>
      <trkpt lat="45.83122" lon="2.95521">
        <ele>1041.2451</ele>
        <time>2013-09-28T09:44:09Z</time>
      </trkpt>
      <trkpt lat="45.83119" lon="2.95521">
        <ele>1040.7644</ele>
        <time>2013-09-28T09:44:17Z</time>
      </trkpt>
      <trkpt lat="45.83119" lon="2.95516">
        <ele>1040.2839</ele>
        <time>2013-09-28T09:44:23Z</time>
      </trkpt>
      <trkpt lat="45.83121" lon="2.95514">
        <ele>1040.7644</ele>
        <time>2013-09-28T09:44:28Z</time>
      </trkpt>
      <trkpt lat="45.83126" lon="2.95505">
        <ele>1040.2839</ele>
        <time>2013-09-28T09:44:32Z</time>
      </trkpt>
      <trkpt lat="45.83133" lon="2.95487">
        <ele>1039.3225</ele>
        <time>2013-09-28T09:44:38Z</time>
      </trkpt>
      <trkpt lat="45.83144" lon="2.95468">
        <ele>1037.8806</ele>
        <time>2013-09-28T09:44:43Z</time>
      </trkpt>
      <trkpt lat="45.83151" lon="2.95456">
        <ele>1037.3999</ele>
        <time>2013-09-28T09:44:48Z</time>
      </trkpt>
      <trkpt lat="45.83154" lon="2.95454">
        <ele>1036.9191</ele>
        <time>2013-09-28T09:44:50Z</time>
      </trkpt>
      <trkpt lat="45.83159" lon="2.95451">
        <ele>1037.3999</ele>
        <time>2013-09-28T09:44:56Z</time>
      </trkpt>
      <trkpt lat="45.83166" lon="2.95448">
        <ele>1036.9191</ele>
        <time>2013-09-28T09:45:00Z</time>
      </trkpt>
      <trkpt lat="45.83175" lon="2.95446">
        <ele>1037.3999</ele>
        <time>2013-09-28T09:45:04Z</time>
      </trkpt>
      <trkpt lat="45.83199" lon="2.95438">
        <ele>1037.3999</ele>
        <time>2013-09-28T09:45:10Z</time>
      </trkpt>
      <trkpt lat="45.83203" lon="2.95437">
        <ele>1037.3999</ele>
        <time>2013-09-28T09:45:12Z</time>
      </trkpt>
      <trkpt lat="45.83217" lon="2.95432">
        <ele>1037.8806</ele>
        <time>2013-09-28T09:45:17Z</time>
      </trkpt>
      <trkpt lat="45.83235" lon="2.95428">
        <ele>1038.3613</ele>
        <time>2013-09-28T09:45:22Z</time>
      </trkpt>
      <trkpt lat="45.83249" lon="2.95424">
        <ele>1039.3225</ele>
        <time>2013-09-28T09:45:27Z</time>
      </trkpt>
      <trkpt lat="45.83261" lon="2.95421">
        <ele>1039.3225</ele>
        <time>2013-09-28T09:45:32Z</time>
      </trkpt>
      <trkpt lat="45.83278" lon="2.95419">
        <ele>1040.2839</ele>
        <time>2013-09-28T09:45:39Z</time>
      </trkpt>
      <trkpt lat="45.83298" lon="2.95416">
        <ele>1040.7644</ele>
        <time>2013-09-28T09:45:46Z</time>
      </trkpt>
      <trkpt lat="45.83311" lon="2.95417">
        <ele>1041.7258</ele>
        <time>2013-09-28T09:45:51Z</time>
      </trkpt>
      <trkpt lat="45.83323" lon="2.95414">
        <ele>1042.6872</ele>
        <time>2013-09-28T09:45:56Z</time>
      </trkpt>
      <trkpt lat="45.83327" lon="2.95412">
        <ele>1043.6484</ele>
        <time>2013-09-28T09:45:58Z</time>
      </trkpt>
      <trkpt lat="45.83336" lon="2.95406">
        <ele>1044.1291</ele>
        <time>2013-09-28T09:46:02Z</time>
      </trkpt>
      <trkpt lat="45.83349" lon="2.95402">
        <ele>1046.0517</ele>
        <time>2013-09-28T09:46:07Z</time>
      </trkpt>
      <trkpt lat="45.83355" lon="2.954">
        <ele>1046.0517</ele>
        <time>2013-09-28T09:46:10Z</time>
      </trkpt>
      <trkpt lat="45.83362" lon="2.95401">
        <ele>1047.9743</ele>
        <time>2013-09-28T09:46:16Z</time>
      </trkpt>
      <trkpt lat="45.83364" lon="2.95401">
        <ele>1048.4548</ele>
        <time>2013-09-28T09:46:17Z</time>
      </trkpt>
      <trkpt lat="45.8338" lon="2.95396">
        <ele>1049.8969</ele>
        <time>2013-09-28T09:46:23Z</time>
      </trkpt>
      <trkpt lat="45.83386" lon="2.95395">
        <ele>1050.8581</ele>
        <time>2013-09-28T09:46:25Z</time>
      </trkpt>
      <trkpt lat="45.834" lon="2.95395">
        <ele>1050.8581</ele>
        <time>2013-09-28T09:46:31Z</time>
      </trkpt>
      <trkpt lat="45.83415" lon="2.95407">
        <ele>1052.3002</ele>
        <time>2013-09-28T09:46:39Z</time>
      </trkpt>
      <trkpt lat="45.83421" lon="2.9542">
        <ele>1053.2617</ele>
        <time>2013-09-28T09:46:45Z</time>
      </trkpt>
      <trkpt lat="45.83428" lon="2.95427">
        <ele>1054.7036</ele>
        <time>2013-09-28T09:46:52Z</time>
      </trkpt>
      <trkpt lat="45.83429" lon="2.95427">
        <ele>1054.7036</ele>
        <time>2013-09-28T09:46:53Z</time>
      </trkpt>
      <trkpt lat="45.83443" lon="2.9543">
        <ele>1055.665</ele>
        <time>2013-09-28T09:47:00Z</time>
      </trkpt>
      <trkpt lat="45.83446" lon="2.95432">
        <ele>1056.1455</ele>
        <time>2013-09-28T09:47:02Z</time>
      </trkpt>
      <trkpt lat="45.83458" lon="2.95436">
        <ele>1058.0683</ele>
        <time>2013-09-28T09:47:09Z</time>
      </trkpt>
      <trkpt lat="45.83465" lon="2.95439">
        <ele>1059.0295</ele>
        <time>2013-09-28T09:47:14Z</time>
      </trkpt>
      <trkpt lat="45.83477" lon="2.95443">
        <ele>1059.5102</ele>
        <time>2013-09-28T09:47:20Z</time>
      </trkpt>
      <trkpt lat="45.83494" lon="2.95453">
        <ele>1060.4714</ele>
        <time>2013-09-28T09:47:27Z</time>
      </trkpt>
      <trkpt lat="45.83499" lon="2.95455">
        <ele>1060.4714</ele>
        <time>2013-09-28T09:47:29Z</time>
      </trkpt>
      <trkpt lat="45.83508" lon="2.95459">
        <ele>1061.4328</ele>
        <time>2013-09-28T09:47:33Z</time>
      </trkpt>
      <trkpt lat="45.83516" lon="2.95463">
        <ele>1061.4328</ele>
        <time>2013-09-28T09:47:37Z</time>
      </trkpt>
      <trkpt lat="45.8353" lon="2.95471">
        <ele>1061.9135</ele>
        <time>2013-09-28T09:47:44Z</time>
      </trkpt>
      <trkpt lat="45.83539" lon="2.95475">
        <ele>1061.4328</ele>
        <time>2013-09-28T09:47:49Z</time>
      </trkpt>
      <trkpt lat="45.83552" lon="2.95484">
        <ele>1060.4714</ele>
        <time>2013-09-28T09:47:53Z</time>
      </trkpt>
      <trkpt lat="45.83556" lon="2.95488">
        <ele>1059.9907</ele>
        <time>2013-09-28T09:47:54Z</time>
      </trkpt>
      <trkpt lat="45.83572" lon="2.95499">
        <ele>1059.0295</ele>
        <time>2013-09-28T09:47:57Z</time>
      </trkpt>
      <trkpt lat="45.83597" lon="2.95513">
        <ele>1057.5876</ele>
        <time>2013-09-28T09:48:01Z</time>
      </trkpt>
      <trkpt lat="45.83612" lon="2.95522">
        <ele>1057.1069</ele>
        <time>2013-09-28T09:48:03Z</time>
      </trkpt>
      <trkpt lat="45.83634" lon="2.95537">
        <ele>1056.6262</ele>
        <time>2013-09-28T09:48:06Z</time>
      </trkpt>
      <trkpt lat="45.83659" lon="2.95546">
        <ele>1056.1455</ele>
        <time>2013-09-28T09:48:10Z</time>
      </trkpt>
      <trkpt lat="45.83672" lon="2.95558">
        <ele>1057.1069</ele>
        <time>2013-09-28T09:48:14Z</time>
      </trkpt>
      <trkpt lat="45.8368" lon="2.9558">
        <ele>1059.0295</ele>
        <time>2013-09-28T09:48:20Z</time>
      </trkpt>
      <trkpt lat="45.83681" lon="2.95599">
        <ele>1060.4714</ele>
        <time>2013-09-28T09:48:25Z</time>
      </trkpt>
      <trkpt lat="45.83671" lon="2.95616">
        <ele>1060.4714</ele>
        <time>2013-09-28T09:48:30Z</time>
      </trkpt>
      <trkpt lat="45.83659" lon="2.95639">
        <ele>1060.4714</ele>
        <time>2013-09-28T09:48:37Z</time>
      </trkpt>
      <trkpt lat="45.83654" lon="2.95648">
        <ele>1060.4714</ele>
        <time>2013-09-28T09:48:41Z</time>
      </trkpt>
      <trkpt lat="45.83651" lon="2.95655">
        <ele>1060.9521</ele>
        <time>2013-09-28T09:48:44Z</time>
      </trkpt>
      <trkpt lat="45.83645" lon="2.9567">
        <ele>1061.4328</ele>
        <time>2013-09-28T09:48:50Z</time>
      </trkpt>
      <trkpt lat="45.83641" lon="2.95681">
        <ele>1061.9135</ele>
        <time>2013-09-28T09:48:54Z</time>
      </trkpt>
      <trkpt lat="45.83637" lon="2.95695">
        <ele>1063.3554</ele>
        <time>2013-09-28T09:48:59Z</time>
      </trkpt>
      <trkpt lat="45.83636" lon="2.95701">
        <ele>1063.3554</ele>
        <time>2013-09-28T09:49:01Z</time>
      </trkpt>
      <trkpt lat="45.83628" lon="2.95721">
        <ele>1063.3554</ele>
        <time>2013-09-28T09:49:07Z</time>
      </trkpt>
      <trkpt lat="45.83622" lon="2.95738">
        <ele>1064.7973</ele>
        <time>2013-09-28T09:49:12Z</time>
      </trkpt>
      <trkpt lat="45.83621" lon="2.95742">
        <ele>1064.3166</ele>
        <time>2013-09-28T09:49:13Z</time>
      </trkpt>
      <trkpt lat="45.83615" lon="2.95755">
        <ele>1064.7973</ele>
        <time>2013-09-28T09:49:17Z</time>
      </trkpt>
      <trkpt lat="45.83607" lon="2.95766">
        <ele>1065.278</ele>
        <time>2013-09-28T09:49:21Z</time>
      </trkpt>
      <trkpt lat="45.83598" lon="2.95785">
        <ele>1065.278</ele>
        <time>2013-09-28T09:49:27Z</time>
      </trkpt>
      <trkpt lat="45.83592" lon="2.95804">
        <ele>1065.278</ele>
        <time>2013-09-28T09:49:32Z</time>
      </trkpt>
      <trkpt lat="45.8359" lon="2.95813">
        <ele>1064.7973</ele>
        <time>2013-09-28T09:49:35Z</time>
      </trkpt>
      <trkpt lat="45.83586" lon="2.95826">
        <ele>1064.7973</ele>
        <time>2013-09-28T09:49:39Z</time>
      </trkpt>
      <trkpt lat="45.83573" lon="2.95848">
        <ele>1063.8359</ele>
        <time>2013-09-28T09:49:44Z</time>
      </trkpt>
      <trkpt lat="45.83569" lon="2.95855">
        <ele>1062.8747</ele>
        <time>2013-09-28T09:49:46Z</time>
      </trkpt>
      <trkpt lat="45.83569" lon="2.95875">
        <ele>1060.4714</ele>
        <time>2013-09-28T09:49:49Z</time>
      </trkpt>
      <trkpt lat="45.83571" lon="2.95884">
        <ele>1058.5488</ele>
        <time>2013-09-28T09:49:50Z</time>
      </trkpt>
      <trkpt lat="45.83578" lon="2.95899">
        <ele>1056.6262</ele>
        <time>2013-09-28T09:49:52Z</time>
      </trkpt>
      <trkpt lat="45.83613" lon="2.95916">
        <ele>1051.8195</ele>
        <time>2013-09-28T09:49:56Z</time>
      </trkpt>
      <trkpt lat="45.83634" lon="2.95926">
        <ele>1047.9743</ele>
        <time>2013-09-28T09:50:00Z</time>
      </trkpt>
      <trkpt lat="45.83637" lon="2.95926">
        <ele>1047.9743</ele>
        <time>2013-09-28T09:50:01Z</time>
      </trkpt>
      <trkpt lat="45.83646" lon="2.95916">
        <ele>1046.0517</ele>
        <time>2013-09-28T09:50:07Z</time>
      </trkpt>
      <trkpt lat="45.83652" lon="2.95905">
        <ele>1044.1291</ele>
        <time>2013-09-28T09:50:10Z</time>
      </trkpt>
      <trkpt lat="45.83659" lon="2.95899">
        <ele>1044.1291</ele>
        <time>2013-09-28T09:50:16Z</time>
      </trkpt>
      <trkpt lat="45.83674" lon="2.95901">
        <ele>1043.1677</ele>
        <time>2013-09-28T09:50:22Z</time>
      </trkpt>
      <trkpt lat="45.83685" lon="2.95904">
        <ele>1043.6484</ele>
        <time>2013-09-28T09:50:26Z</time>
      </trkpt>
      <trkpt lat="45.83698" lon="2.959">
        <ele>1042.6872</ele>
        <time>2013-09-28T09:50:30Z</time>
      </trkpt>
      <trkpt lat="45.83711" lon="2.95896">
        <ele>1041.7258</ele>
        <time>2013-09-28T09:50:33Z</time>
      </trkpt>
      <trkpt lat="45.83739" lon="2.95889">
        <ele>1040.7644</ele>
        <time>2013-09-28T09:50:37Z</time>
      </trkpt>
      <trkpt lat="45.83778" lon="2.95871">
        <ele>1038.842</ele>
        <time>2013-09-28T09:50:42Z</time>
      </trkpt>
      <trkpt lat="45.83815" lon="2.95851">
        <ele>1036.4387</ele>
        <time>2013-09-28T09:50:46Z</time>
      </trkpt>
      <trkpt lat="45.83851" lon="2.95823">
        <ele>1034.0351</ele>
        <time>2013-09-28T09:50:50Z</time>
      </trkpt>
      <trkpt lat="45.8386" lon="2.95816">
        <ele>1033.5544</ele>
        <time>2013-09-28T09:50:51Z</time>
      </trkpt>
      <trkpt lat="45.83876" lon="2.95806">
        <ele>1031.6318</ele>
        <time>2013-09-28T09:50:53Z</time>
      </trkpt>
      <trkpt lat="45.83903" lon="2.95792">
        <ele>1030.1899</ele>
        <time>2013-09-28T09:50:56Z</time>
      </trkpt>
      <trkpt lat="45.83922" lon="2.95785">
        <ele>1028.2673</ele>
        <time>2013-09-28T09:50:58Z</time>
      </trkpt>
      <trkpt lat="45.83948" lon="2.9578">
        <ele>1026.3447</ele>
        <time>2013-09-28T09:51:01Z</time>
      </trkpt>
      <trkpt lat="45.83968" lon="2.95759">
        <ele>1024.4221</ele>
        <time>2013-09-28T09:51:04Z</time>
      </trkpt>
      <trkpt lat="45.83988" lon="2.95728">
        <ele>1022.4995</ele>
        <time>2013-09-28T09:51:08Z</time>
      </trkpt>
      <trkpt lat="45.83991" lon="2.9572">
        <ele>1022.0187</ele>
        <time>2013-09-28T09:51:09Z</time>
      </trkpt>
      <trkpt lat="45.84026" lon="2.95692">
        <ele>1020.5769</ele>
        <time>2013-09-28T09:51:14Z</time>
      </trkpt>
      <trkpt lat="45.84037" lon="2.95689">
        <ele>1020.0961</ele>
        <time>2013-09-28T09:51:16Z</time>
      </trkpt>
      <trkpt lat="45.84051" lon="2.95691">
        <ele>1019.6154</ele>
        <time>2013-09-28T09:51:18Z</time>
      </trkpt>
      <trkpt lat="45.84062" lon="2.95687">
        <ele>1019.6154</ele>
        <time>2013-09-28T09:51:20Z</time>
      </trkpt>
      <trkpt lat="45.84074" lon="2.95686">
        <ele>1019.6154</ele>
        <time>2013-09-28T09:51:22Z</time>
      </trkpt>
      <trkpt lat="45.841" lon="2.95691">
        <ele>1019.6154</ele>
        <time>2013-09-28T09:51:27Z</time>
      </trkpt>
      <trkpt lat="45.84113" lon="2.95696">
        <ele>1019.6154</ele>
        <time>2013-09-28T09:51:30Z</time>
      </trkpt>
      <trkpt lat="45.8414" lon="2.95703">
        <ele>1019.6154</ele>
        <time>2013-09-28T09:51:36Z</time>
      </trkpt>
      <trkpt lat="45.84154" lon="2.9571">
        <ele>1020.0961</ele>
        <time>2013-09-28T09:51:41Z</time>
      </trkpt>
      <trkpt lat="45.84166" lon="2.95714">
        <ele>1020.5769</ele>
        <time>2013-09-28T09:51:45Z</time>
      </trkpt>
      <trkpt lat="45.84185" lon="2.9572">
        <ele>1020.5769</ele>
        <time>2013-09-28T09:51:50Z</time>
      </trkpt>
      <trkpt lat="45.84205" lon="2.95724">
        <ele>1020.5769</ele>
        <time>2013-09-28T09:51:55Z</time>
      </trkpt>
      <trkpt lat="45.84228" lon="2.95724">
        <ele>1020.5769</ele>
        <time>2013-09-28T09:52:01Z</time>
      </trkpt>
      <trkpt lat="45.84246" lon="2.95725">
        <ele>1021.0576</ele>
        <time>2013-09-28T09:52:06Z</time>
      </trkpt>
      <trkpt lat="45.84264" lon="2.95722">
        <ele>1021.538</ele>
        <time>2013-09-28T09:52:11Z</time>
      </trkpt>
      <trkpt lat="45.84281" lon="2.95719">
        <ele>1021.0576</ele>
        <time>2013-09-28T09:52:16Z</time>
      </trkpt>
      <trkpt lat="45.84304" lon="2.9572">
        <ele>1021.538</ele>
        <time>2013-09-28T09:52:22Z</time>
      </trkpt>
      <trkpt lat="45.84319" lon="2.95722">
        <ele>1022.0187</ele>
        <time>2013-09-28T09:52:27Z</time>
      </trkpt>
      <trkpt lat="45.84335" lon="2.95728">
        <ele>1022.0187</ele>
        <time>2013-09-28T09:52:33Z</time>
      </trkpt>
      <trkpt lat="45.84357" lon="2.95733">
        <ele>1022.0187</ele>
        <time>2013-09-28T09:52:39Z</time>
      </trkpt>
      <trkpt lat="45.84374" lon="2.95737">
        <ele>1022.9802</ele>
        <time>2013-09-28T09:52:44Z</time>
      </trkpt>
      <trkpt lat="45.84386" lon="2.9574">
        <ele>1023.9414</ele>
        <time>2013-09-28T09:52:48Z</time>
      </trkpt>
      <trkpt lat="45.84408" lon="2.95744">
        <ele>1024.4221</ele>
        <time>2013-09-28T09:52:55Z</time>
      </trkpt>
      <trkpt lat="45.84422" lon="2.95749">
        <ele>1025.3833</ele>
        <time>2013-09-28T09:53:00Z</time>
      </trkpt>
      <trkpt lat="45.84436" lon="2.95756">
        <ele>1025.864</ele>
        <time>2013-09-28T09:53:06Z</time>
      </trkpt>
      <trkpt lat="45.84451" lon="2.95764">
        <ele>1026.3447</ele>
        <time>2013-09-28T09:53:12Z</time>
      </trkpt>
      <trkpt lat="45.84466" lon="2.95772">
        <ele>1027.3061</ele>
        <time>2013-09-28T09:53:18Z</time>
      </trkpt>
      <trkpt lat="45.84481" lon="2.95776">
        <ele>1027.3061</ele>
        <time>2013-09-28T09:53:24Z</time>
      </trkpt>
      <trkpt lat="45.84495" lon="2.9578">
        <ele>1026.8254</ele>
        <time>2013-09-28T09:53:29Z</time>
      </trkpt>
      <trkpt lat="45.84508" lon="2.95784">
        <ele>1026.3447</ele>
        <time>2013-09-28T09:53:32Z</time>
      </trkpt>
      <trkpt lat="45.84528" lon="2.9579">
        <ele>1025.3833</ele>
        <time>2013-09-28T09:53:36Z</time>
      </trkpt>
      <trkpt lat="45.84549" lon="2.95799">
        <ele>1024.9028</ele>
        <time>2013-09-28T09:53:41Z</time>
      </trkpt>
      <trkpt lat="45.84561" lon="2.95802">
        <ele>1024.9028</ele>
        <time>2013-09-28T09:53:46Z</time>
      </trkpt>
      <trkpt lat="45.8457" lon="2.95805">
        <ele>1025.3833</ele>
        <time>2013-09-28T09:53:50Z</time>
      </trkpt>
      <trkpt lat="45.84584" lon="2.95809">
        <ele>1024.4221</ele>
        <time>2013-09-28T09:53:54Z</time>
      </trkpt>
      <trkpt lat="45.84598" lon="2.95818">
        <ele>1024.4221</ele>
        <time>2013-09-28T09:53:59Z</time>
      </trkpt>
      <trkpt lat="45.84602" lon="2.95819">
        <ele>1024.4221</ele>
        <time>2013-09-28T09:54:00Z</time>
      </trkpt>
      <trkpt lat="45.84623" lon="2.95821">
        <ele>1023.4609</ele>
        <time>2013-09-28T09:54:04Z</time>
      </trkpt>
      <trkpt lat="45.84648" lon="2.95828">
        <ele>1022.9802</ele>
        <time>2013-09-28T09:54:08Z</time>
      </trkpt>
      <trkpt lat="45.84662" lon="2.9583">
        <ele>1022.0187</ele>
        <time>2013-09-28T09:54:10Z</time>
      </trkpt>
      <trkpt lat="45.84682" lon="2.95836">
        <ele>1020.0961</ele>
        <time>2013-09-28T09:54:13Z</time>
      </trkpt>
      <trkpt lat="45.84712" lon="2.95844">
        <ele>1017.6926</ele>
        <time>2013-09-28T09:54:17Z</time>
      </trkpt>
      <trkpt lat="45.84719" lon="2.95847">
        <ele>1018.1733</ele>
        <time>2013-09-28T09:54:18Z</time>
      </trkpt>
      <trkpt lat="45.84733" lon="2.95855">
        <ele>1017.2121</ele>
        <time>2013-09-28T09:54:20Z</time>
      </trkpt>
      <trkpt lat="45.84744" lon="2.95865">
        <ele>1016.2507</ele>
        <time>2013-09-28T09:54:22Z</time>
      </trkpt>
      <trkpt lat="45.84769" lon="2.95887">
        <ele>1015.2895</ele>
        <time>2013-09-28T09:54:26Z</time>
      </trkpt>
      <trkpt lat="45.84795" lon="2.95911">
        <ele>1014.3281</ele>
        <time>2013-09-28T09:54:31Z</time>
      </trkpt>
      <trkpt lat="45.84808" lon="2.95927">
        <ele>1013.8474</ele>
        <time>2013-09-28T09:54:35Z</time>
      </trkpt>
      <trkpt lat="45.84823" lon="2.95951">
        <ele>1014.8088</ele>
        <time>2013-09-28T09:54:40Z</time>
      </trkpt>
      <trkpt lat="45.84834" lon="2.95973">
        <ele>1015.2895</ele>
        <time>2013-09-28T09:54:45Z</time>
      </trkpt>
      <trkpt lat="45.84844" lon="2.95997">
        <ele>1015.2895</ele>
        <time>2013-09-28T09:54:51Z</time>
      </trkpt>
      <trkpt lat="45.84854" lon="2.96011">
        <ele>1016.7314</ele>
        <time>2013-09-28T09:54:56Z</time>
      </trkpt>
      <trkpt lat="45.84864" lon="2.96021">
        <ele>1017.2121</ele>
        <time>2013-09-28T09:55:01Z</time>
      </trkpt>
      <trkpt lat="45.84877" lon="2.96035">
        <ele>1018.1733</ele>
        <time>2013-09-28T09:55:07Z</time>
      </trkpt>
      <trkpt lat="45.84888" lon="2.96049">
        <ele>1019.6154</ele>
        <time>2013-09-28T09:55:13Z</time>
      </trkpt>
      <trkpt lat="45.84896" lon="2.96057">
        <ele>1019.6154</ele>
        <time>2013-09-28T09:55:18Z</time>
      </trkpt>
      <trkpt lat="45.84899" lon="2.96061">
        <ele>1020.0961</ele>
        <time>2013-09-28T09:55:21Z</time>
      </trkpt>
      <trkpt lat="45.84911" lon="2.96068">
        <ele>1020.5769</ele>
        <time>2013-09-28T09:55:27Z</time>
      </trkpt>
      <trkpt lat="45.84914" lon="2.9607">
        <ele>1020.5769</ele>
        <time>2013-09-28T09:55:28Z</time>
      </trkpt>
      <trkpt lat="45.8493" lon="2.96082">
        <ele>1021.0576</ele>
        <time>2013-09-28T09:55:35Z</time>
      </trkpt>
      <trkpt lat="45.84942" lon="2.96093">
        <ele>1022.4995</ele>
        <time>2013-09-28T09:55:41Z</time>
      </trkpt>
      <trkpt lat="45.84948" lon="2.961">
        <ele>1022.4995</ele>
        <time>2013-09-28T09:55:45Z</time>
      </trkpt>
      <trkpt lat="45.84953" lon="2.96107">
        <ele>1022.9802</ele>
        <time>2013-09-28T09:55:49Z</time>
      </trkpt>
      <trkpt lat="45.84967" lon="2.96121">
        <ele>1024.4221</ele>
        <time>2013-09-28T09:55:56Z</time>
      </trkpt>
      <trkpt lat="45.84975" lon="2.9613">
        <ele>1025.3833</ele>
        <time>2013-09-28T09:56:00Z</time>
      </trkpt>
      <trkpt lat="45.84988" lon="2.96142">
        <ele>1025.864</ele>
        <time>2013-09-28T09:56:07Z</time>
      </trkpt>
      <trkpt lat="45.84998" lon="2.96154">
        <ele>1027.3061</ele>
        <time>2013-09-28T09:56:13Z</time>
      </trkpt>
      <trkpt lat="45.85006" lon="2.9616">
        <ele>1027.7866</ele>
        <time>2013-09-28T09:56:18Z</time>
      </trkpt>
      <trkpt lat="45.85023" lon="2.96172">
        <ele>1029.2285</ele>
        <time>2013-09-28T09:56:25Z</time>
      </trkpt>
      <trkpt lat="45.85033" lon="2.96182">
        <ele>1030.1899</ele>
        <time>2013-09-28T09:56:31Z</time>
      </trkpt>
      <trkpt lat="45.8504" lon="2.96193">
        <ele>1031.6318</ele>
        <time>2013-09-28T09:56:36Z</time>
      </trkpt>
      <trkpt lat="45.85051" lon="2.96209">
        <ele>1033.0737</ele>
        <time>2013-09-28T09:56:44Z</time>
      </trkpt>
      <trkpt lat="45.85061" lon="2.96222">
        <ele>1034.9965</ele>
        <time>2013-09-28T09:56:51Z</time>
      </trkpt>
      <trkpt lat="45.8507" lon="2.96237">
        <ele>1036.4387</ele>
        <time>2013-09-28T09:56:58Z</time>
      </trkpt>
      <trkpt lat="45.8508" lon="2.96259">
        <ele>1038.842</ele>
        <time>2013-09-28T09:57:08Z</time>
      </trkpt>
      <trkpt lat="45.85088" lon="2.96274">
        <ele>1040.7644</ele>
        <time>2013-09-28T09:57:16Z</time>
      </trkpt>
      <trkpt lat="45.85096" lon="2.96289">
        <ele>1041.7258</ele>
        <time>2013-09-28T09:57:24Z</time>
      </trkpt>
      <trkpt lat="45.85099" lon="2.963">
        <ele>1043.1677</ele>
        <time>2013-09-28T09:57:31Z</time>
      </trkpt>
      <trkpt lat="45.85105" lon="2.96311">
        <ele>1045.0903</ele>
        <time>2013-09-28T09:57:38Z</time>
      </trkpt>
      <trkpt lat="45.85116" lon="2.96326">
        <ele>1046.0517</ele>
        <time>2013-09-28T09:57:45Z</time>
      </trkpt>
      <trkpt lat="45.85129" lon="2.96343">
        <ele>1047.4936</ele>
        <time>2013-09-28T09:57:53Z</time>
      </trkpt>
      <trkpt lat="45.85135" lon="2.96352">
        <ele>1048.4548</ele>
        <time>2013-09-28T09:57:57Z</time>
      </trkpt>
      <trkpt lat="45.85148" lon="2.96361">
        <ele>1048.4548</ele>
        <time>2013-09-28T09:58:03Z</time>
      </trkpt>
      <trkpt lat="45.8515" lon="2.96375">
        <ele>1048.9355</ele>
        <time>2013-09-28T09:58:09Z</time>
      </trkpt>
      <trkpt lat="45.85157" lon="2.96383">
        <ele>1049.4162</ele>
        <time>2013-09-28T09:58:13Z</time>
      </trkpt>
      <trkpt lat="45.8516" lon="2.96388">
        <ele>1048.9355</ele>
        <time>2013-09-28T09:58:18Z</time>
      </trkpt>
      <trkpt lat="45.85161" lon="2.96394">
        <ele>1048.9355</ele>
        <time>2013-09-28T09:58:31Z</time>
      </trkpt>
      <trkpt lat="45.85169" lon="2.9639">
        <ele>1049.8969</ele>
        <time>2013-09-28T09:58:47Z</time>
      </trkpt>
      <trkpt lat="45.85171" lon="2.96398">
        <ele>1049.4162</ele>
        <time>2013-09-28T09:59:06Z</time>
      </trkpt>
      <trkpt lat="45.85168" lon="2.96398">
        <ele>1049.4162</ele>
        <time>2013-09-28T09:59:13Z</time>
      </trkpt>
      <trkpt lat="45.85164" lon="2.96398">
        <ele>1048.9355</ele>
        <time>2013-09-28T09:59:22Z</time>
      </trkpt>
      <trkpt lat="45.8516" lon="2.96399">
        <ele>1049.4162</ele>
        <time>2013-09-28T09:59:36Z</time>
      </trkpt>
      <trkpt lat="45.8516" lon="2.96397">
        <ele>1049.4162</ele>
        <time>2013-09-28T09:59:53Z</time>
      </trkpt>
      <trkpt lat="45.85159" lon="2.96397">
        <ele>1050.3776</ele>
        <time>2013-09-28T10:00:04Z</time>
      </trkpt>
      <trkpt lat="45.85167" lon="2.96386">
        <ele>1050.3776</ele>
        <time>2013-09-28T10:00:19Z</time>
      </trkpt>
      <trkpt lat="45.85164" lon="2.96393">
        <ele>1050.3776</ele>
        <time>2013-09-28T10:00:41Z</time>
      </trkpt>
      <trkpt lat="45.85162" lon="2.96393">
        <ele>1050.8581</ele>
        <time>2013-09-28T10:00:55Z</time>
      </trkpt>
      <trkpt lat="45.85153" lon="2.96398">
        <ele>1051.3388</ele>
        <time>2013-09-28T10:01:22Z</time>
      </trkpt>
      <trkpt lat="45.85155" lon="2.96398">
        <ele>1050.8581</ele>
        <time>2013-09-28T10:01:32Z</time>
      </trkpt>
      <trkpt lat="45.8516" lon="2.96398">
        <ele>1051.8195</ele>
        <time>2013-09-28T10:01:41Z</time>
      </trkpt>
      <trkpt lat="45.85165" lon="2.96401">
        <ele>1051.8195</ele>
        <time>2013-09-28T10:01:47Z</time>
      </trkpt>
      <trkpt lat="45.8518" lon="2.96413">
        <ele>1050.8581</ele>
        <time>2013-09-28T10:01:53Z</time>
      </trkpt>
      <trkpt lat="45.85196" lon="2.96429">
        <ele>1050.3776</ele>
        <time>2013-09-28T10:01:58Z</time>
      </trkpt>
      <trkpt lat="45.85202" lon="2.96438">
        <ele>1050.3776</ele>
        <time>2013-09-28T10:02:00Z</time>
      </trkpt>
      <trkpt lat="45.85218" lon="2.96458">
        <ele>1048.9355</ele>
        <time>2013-09-28T10:02:04Z</time>
      </trkpt>
      <trkpt lat="45.85228" lon="2.96481">
        <ele>1047.4936</ele>
        <time>2013-09-28T10:02:07Z</time>
      </trkpt>
      <trkpt lat="45.85234" lon="2.96499">
        <ele>1047.0129</ele>
        <time>2013-09-28T10:02:09Z</time>
      </trkpt>
      <trkpt lat="45.85252" lon="2.96546">
        <ele>1044.1291</ele>
        <time>2013-09-28T10:02:14Z</time>
      </trkpt>
      <trkpt lat="45.85262" lon="2.96577">
        <ele>1043.6484</ele>
        <time>2013-09-28T10:02:17Z</time>
      </trkpt>
      <trkpt lat="45.85284" lon="2.96621">
        <ele>1041.2451</ele>
        <time>2013-09-28T10:02:22Z</time>
      </trkpt>
      <trkpt lat="45.85295" lon="2.96633">
        <ele>1039.8032</ele>
        <time>2013-09-28T10:02:24Z</time>
      </trkpt>
      <trkpt lat="45.85306" lon="2.96666">
        <ele>1037.3999</ele>
        <time>2013-09-28T10:02:29Z</time>
      </trkpt>
      <trkpt lat="45.85299" lon="2.96713">
        <ele>1035.477</ele>
        <time>2013-09-28T10:02:35Z</time>
      </trkpt>
      <trkpt lat="45.85305" lon="2.96726">
        <ele>1034.5158</ele>
        <time>2013-09-28T10:02:37Z</time>
      </trkpt>
      <trkpt lat="45.85336" lon="2.96749">
        <ele>1030.6706</ele>
        <time>2013-09-28T10:02:42Z</time>
      </trkpt>
      <trkpt lat="45.85354" lon="2.96756">
        <ele>1026.8254</ele>
        <time>2013-09-28T10:02:45Z</time>
      </trkpt>
      <trkpt lat="45.85364" lon="2.96759">
        <ele>1025.864</ele>
        <time>2013-09-28T10:02:47Z</time>
      </trkpt>
      <trkpt lat="45.85379" lon="2.96765">
        <ele>1023.4609</ele>
        <time>2013-09-28T10:02:50Z</time>
      </trkpt>
      <trkpt lat="45.85401" lon="2.96762">
        <ele>1020.5769</ele>
        <time>2013-09-28T10:02:54Z</time>
      </trkpt>
      <trkpt lat="45.85412" lon="2.96759">
        <ele>1018.654</ele>
        <time>2013-09-28T10:02:56Z</time>
      </trkpt>
      <trkpt lat="45.85425" lon="2.96755">
        <ele>1018.1733</ele>
        <time>2013-09-28T10:02:59Z</time>
      </trkpt>
      <trkpt lat="45.85454" lon="2.96744">
        <ele>1016.7314</ele>
        <time>2013-09-28T10:03:04Z</time>
      </trkpt>
      <trkpt lat="45.8546" lon="2.96742">
        <ele>1015.2895</ele>
        <time>2013-09-28T10:03:05Z</time>
      </trkpt>
      <trkpt lat="45.85472" lon="2.96741">
        <ele>1013.8474</ele>
        <time>2013-09-28T10:03:07Z</time>
      </trkpt>
      <trkpt lat="45.85495" lon="2.96738">
        <ele>1011.925</ele>
        <time>2013-09-28T10:03:12Z</time>
      </trkpt>
      <trkpt lat="45.855" lon="2.96736">
        <ele>1011.4443</ele>
        <time>2013-09-28T10:03:13Z</time>
      </trkpt>
      <trkpt lat="45.85515" lon="2.96735">
        <ele>1010.4829</ele>
        <time>2013-09-28T10:03:16Z</time>
      </trkpt>
      <trkpt lat="45.8553" lon="2.96734">
        <ele>1009.041</ele>
        <time>2013-09-28T10:03:19Z</time>
      </trkpt>
      <trkpt lat="45.85535" lon="2.96733">
        <ele>1008.5603</ele>
        <time>2013-09-28T10:03:20Z</time>
      </trkpt>
      <trkpt lat="45.8556" lon="2.96727">
        <ele>1005.6765</ele>
        <time>2013-09-28T10:03:25Z</time>
      </trkpt>
      <trkpt lat="45.8558" lon="2.96728">
        <ele>1002.3115</ele>
        <time>2013-09-28T10:03:30Z</time>
      </trkpt>
      <trkpt lat="45.85578" lon="2.96741">
        <ele>998.4663</ele>
        <time>2013-09-28T10:03:33Z</time>
      </trkpt>
      <trkpt lat="45.85562" lon="2.96761">
        <ele>994.62109</ele>
        <time>2013-09-28T10:03:37Z</time>
      </trkpt>
      <trkpt lat="45.85558" lon="2.96767">
        <ele>993.65991</ele>
        <time>2013-09-28T10:03:38Z</time>
      </trkpt>
      <trkpt lat="45.85552" lon="2.96778">
        <ele>992.69873</ele>
        <time>2013-09-28T10:03:40Z</time>
      </trkpt>
      <trkpt lat="45.85534" lon="2.96806">
        <ele>990.77587</ele>
        <time>2013-09-28T10:03:45Z</time>
      </trkpt>
      <trkpt lat="45.8553" lon="2.96811">
        <ele>990.29541</ele>
        <time>2013-09-28T10:03:46Z</time>
      </trkpt>
      <trkpt lat="45.8552" lon="2.96818">
        <ele>987.89184</ele>
        <time>2013-09-28T10:03:48Z</time>
      </trkpt>
      <trkpt lat="45.8551" lon="2.96832">
        <ele>983.0852</ele>
        <time>2013-09-28T10:03:51Z</time>
      </trkpt>
      <trkpt lat="45.85509" lon="2.96836">
        <ele>982.60473</ele>
        <time>2013-09-28T10:03:52Z</time>
      </trkpt>
      <trkpt lat="45.85523" lon="2.9686">
        <ele>978.75952</ele>
        <time>2013-09-28T10:03:57Z</time>
      </trkpt>
      <trkpt lat="45.85539" lon="2.9687">
        <ele>975.39477</ele>
        <time>2013-09-28T10:04:00Z</time>
      </trkpt>
      <trkpt lat="45.85563" lon="2.96886">
        <ele>968.66552</ele>
        <time>2013-09-28T10:04:04Z</time>
      </trkpt>
      <trkpt lat="45.8557" lon="2.9689">
        <ele>966.2622</ele>
        <time>2013-09-28T10:04:05Z</time>
      </trkpt>
      <trkpt lat="45.8559" lon="2.969">
        <ele>961.45581</ele>
        <time>2013-09-28T10:04:09Z</time>
      </trkpt>
      <trkpt lat="45.85593" lon="2.96921">
        <ele>956.16845</ele>
        <time>2013-09-28T10:04:13Z</time>
      </trkpt>
      <trkpt lat="45.85592" lon="2.96925">
        <ele>955.68774</ele>
        <time>2013-09-28T10:04:14Z</time>
      </trkpt>
      <trkpt lat="45.85592" lon="2.96931">
        <ele>954.24584</ele>
        <time>2013-09-28T10:04:20Z</time>
      </trkpt>
      <trkpt lat="45.8559" lon="2.96933">
        <ele>953.76513</ele>
        <time>2013-09-28T10:04:29Z</time>
      </trkpt>
      <trkpt lat="45.85589" lon="2.96934">
        <ele>953.76513</ele>
        <time>2013-09-28T10:04:45Z</time>
      </trkpt>
      <trkpt lat="45.85601" lon="2.96929">
        <ele>951.84252</ele>
        <time>2013-09-28T10:04:49Z</time>
      </trkpt>
      <trkpt lat="45.85607" lon="2.96926">
        <ele>951.36181</ele>
        <time>2013-09-28T10:04:50Z</time>
      </trkpt>
      <trkpt lat="45.85619" lon="2.96924">
        <ele>948.95849</ele>
        <time>2013-09-28T10:04:52Z</time>
      </trkpt>
      <trkpt lat="45.85641" lon="2.96929">
        <ele>945.11328</ele>
        <time>2013-09-28T10:04:56Z</time>
      </trkpt>
      <trkpt lat="45.85654" lon="2.96936">
        <ele>941.74877</ele>
        <time>2013-09-28T10:04:58Z</time>
      </trkpt>
      <trkpt lat="45.85672" lon="2.96944">
        <ele>937.4226</ele>
        <time>2013-09-28T10:05:02Z</time>
      </trkpt>
      <trkpt lat="45.85683" lon="2.96954">
        <ele>934.53881</ele>
        <time>2013-09-28T10:05:07Z</time>
      </trkpt>
      <trkpt lat="45.85698" lon="2.96961">
        <ele>931.17431</ele>
        <time>2013-09-28T10:05:11Z</time>
      </trkpt>
      <trkpt lat="45.85703" lon="2.96963">
        <ele>930.21289</ele>
        <time>2013-09-28T10:05:12Z</time>
      </trkpt>
      <trkpt lat="45.85726" lon="2.96975">
        <ele>925.40625</ele>
        <time>2013-09-28T10:05:16Z</time>
      </trkpt>
      <trkpt lat="45.85745" lon="2.96986">
        <ele>922.52221</ele>
        <time>2013-09-28T10:05:19Z</time>
      </trkpt>
      <trkpt lat="45.85776" lon="2.96995">
        <ele>918.19628</ele>
        <time>2013-09-28T10:05:23Z</time>
      </trkpt>
      <trkpt lat="45.85784" lon="2.96996">
        <ele>916.75439</ele>
        <time>2013-09-28T10:05:24Z</time>
      </trkpt>
      <trkpt lat="45.85819" lon="2.96996">
        <ele>912.90917</ele>
        <time>2013-09-28T10:05:28Z</time>
      </trkpt>
      <trkpt lat="45.85833" lon="2.96998">
        <ele>911.46728</ele>
        <time>2013-09-28T10:05:30Z</time>
      </trkpt>
      <trkpt lat="45.85848" lon="2.97002">
        <ele>907.14111</ele>
        <time>2013-09-28T10:05:32Z</time>
      </trkpt>
      <trkpt lat="45.85877" lon="2.97005">
        <ele>903.29589</ele>
        <time>2013-09-28T10:05:35Z</time>
      </trkpt>
      <trkpt lat="45.85896" lon="2.97">
        <ele>902.33447</ele>
        <time>2013-09-28T10:05:39Z</time>
      </trkpt>
      <trkpt lat="45.8589" lon="2.97019">
        <ele>902.33447</ele>
        <time>2013-09-28T10:05:43Z</time>
      </trkpt>
      <trkpt lat="45.85888" lon="2.97023">
        <ele>902.33447</ele>
        <time>2013-09-28T10:05:44Z</time>
      </trkpt>
      <trkpt lat="45.85876" lon="2.97052">
        <ele>902.81518</ele>
        <time>2013-09-28T10:05:50Z</time>
      </trkpt>
      <trkpt lat="45.85864" lon="2.97082">
        <ele>902.81518</ele>
        <time>2013-09-28T10:05:57Z</time>
      </trkpt>
      <trkpt lat="45.85859" lon="2.97099">
        <ele>902.33447</ele>
        <time>2013-09-28T10:06:02Z</time>
      </trkpt>
      <trkpt lat="45.85853" lon="2.97122">
        <ele>902.81518</ele>
        <time>2013-09-28T10:06:08Z</time>
      </trkpt>
      <trkpt lat="45.8585" lon="2.97139">
        <ele>902.33447</ele>
        <time>2013-09-28T10:06:12Z</time>
      </trkpt>
      <trkpt lat="45.85846" lon="2.97162">
        <ele>901.854</ele>
        <time>2013-09-28T10:06:17Z</time>
      </trkpt>
      <trkpt lat="45.85842" lon="2.97194">
        <ele>899.93139</ele>
        <time>2013-09-28T10:06:23Z</time>
      </trkpt>
      <trkpt lat="45.85833" lon="2.9722">
        <ele>898.96997</ele>
        <time>2013-09-28T10:06:27Z</time>
      </trkpt>
      <trkpt lat="45.85822" lon="2.97254">
        <ele>897.52807</ele>
        <time>2013-09-28T10:06:32Z</time>
      </trkpt>
      <trkpt lat="45.85812" lon="2.9728">
        <ele>896.56689</ele>
        <time>2013-09-28T10:06:36Z</time>
      </trkpt>
      <trkpt lat="45.85806" lon="2.97303">
        <ele>896.08618</ele>
        <time>2013-09-28T10:06:40Z</time>
      </trkpt>
      <trkpt lat="45.85811" lon="2.97311">
        <ele>895.60546</ele>
        <time>2013-09-28T10:06:44Z</time>
      </trkpt>
      <trkpt lat="45.85815" lon="2.97311">
        <ele>895.12475</ele>
        <time>2013-09-28T10:06:46Z</time>
      </trkpt>
      <trkpt lat="45.85836" lon="2.97308">
        <ele>894.16357</ele>
        <time>2013-09-28T10:06:53Z</time>
      </trkpt>
      <trkpt lat="45.85844" lon="2.97319">
        <ele>893.68286</ele>
        <time>2013-09-28T10:06:59Z</time>
      </trkpt>
      <trkpt lat="45.85842" lon="2.97341">
        <ele>894.16357</ele>
        <time>2013-09-28T10:07:07Z</time>
      </trkpt>
      <trkpt lat="45.8584" lon="2.97367">
        <ele>893.68286</ele>
        <time>2013-09-28T10:07:13Z</time>
      </trkpt>
      <trkpt lat="45.85844" lon="2.97367">
        <ele>892.72167</ele>
        <time>2013-09-28T10:07:17Z</time>
      </trkpt>
      <trkpt lat="45.85857" lon="2.97347">
        <ele>891.27929</ele>
        <time>2013-09-28T10:07:22Z</time>
      </trkpt>
      <trkpt lat="45.85877" lon="2.9735">
        <ele>889.8374</ele>
        <time>2013-09-28T10:07:26Z</time>
      </trkpt>
      <trkpt lat="45.85882" lon="2.97353">
        <ele>889.8374</ele>
        <time>2013-09-28T10:07:27Z</time>
      </trkpt>
      <trkpt lat="45.85893" lon="2.97358">
        <ele>889.35668</ele>
        <time>2013-09-28T10:07:29Z</time>
      </trkpt>
      <trkpt lat="45.8592" lon="2.97364">
        <ele>887.43408</ele>
        <time>2013-09-28T10:07:33Z</time>
      </trkpt>
      <trkpt lat="45.85933" lon="2.97379">
        <ele>887.43408</ele>
        <time>2013-09-28T10:07:36Z</time>
      </trkpt>
      <trkpt lat="45.85932" lon="2.97405">
        <ele>887.91479</ele>
        <time>2013-09-28T10:07:41Z</time>
      </trkpt>
      <trkpt lat="45.85922" lon="2.97423">
        <ele>888.3955</ele>
        <time>2013-09-28T10:07:47Z</time>
      </trkpt>
      <trkpt lat="45.85918" lon="2.97427">
        <ele>887.91479</ele>
        <time>2013-09-28T10:07:49Z</time>
      </trkpt>
      <trkpt lat="45.85908" lon="2.97449">
        <ele>889.35668</ele>
        <time>2013-09-28T10:07:56Z</time>
      </trkpt>
      <trkpt lat="45.85904" lon="2.97464">
        <ele>889.35668</ele>
        <time>2013-09-28T10:08:01Z</time>
      </trkpt>
      <trkpt lat="45.85902" lon="2.97466">
        <ele>890.31811</ele>
        <time>2013-09-28T10:08:02Z</time>
      </trkpt>
      <trkpt lat="45.85897" lon="2.97485">
        <ele>890.79858</ele>
        <time>2013-09-28T10:08:08Z</time>
      </trkpt>
      <trkpt lat="45.85891" lon="2.97503">
        <ele>891.27929</ele>
        <time>2013-09-28T10:08:13Z</time>
      </trkpt>
      <trkpt lat="45.85884" lon="2.9752">
        <ele>891.76</ele>
        <time>2013-09-28T10:08:18Z</time>
      </trkpt>
      <trkpt lat="45.85877" lon="2.97539">
        <ele>893.20214</ele>
        <time>2013-09-28T10:08:23Z</time>
      </trkpt>
      <trkpt lat="45.85874" lon="2.97554">
        <ele>894.16357</ele>
        <time>2013-09-28T10:08:28Z</time>
      </trkpt>
      <trkpt lat="45.85873" lon="2.97566">
        <ele>894.16357</ele>
        <time>2013-09-28T10:08:31Z</time>
      </trkpt>
      <trkpt lat="45.85863" lon="2.9759">
        <ele>895.12475</ele>
        <time>2013-09-28T10:08:39Z</time>
      </trkpt>
      <trkpt lat="45.85857" lon="2.9761">
        <ele>896.08618</ele>
        <time>2013-09-28T10:08:46Z</time>
      </trkpt>
      <trkpt lat="45.85852" lon="2.97616">
        <ele>897.04736</ele>
        <time>2013-09-28T10:08:50Z</time>
      </trkpt>
      <trkpt lat="45.85848" lon="2.97623">
        <ele>897.52807</ele>
        <time>2013-09-28T10:08:54Z</time>
      </trkpt>
      <trkpt lat="45.85834" lon="2.97639">
        <ele>898.48925</ele>
        <time>2013-09-28T10:09:01Z</time>
      </trkpt>
      <trkpt lat="45.85825" lon="2.97652">
        <ele>898.96997</ele>
        <time>2013-09-28T10:09:07Z</time>
      </trkpt>
      <trkpt lat="45.85822" lon="2.97665">
        <ele>899.45068</ele>
        <time>2013-09-28T10:09:13Z</time>
      </trkpt>
      <trkpt lat="45.85812" lon="2.97684">
        <ele>900.4121</ele>
        <time>2013-09-28T10:09:20Z</time>
      </trkpt>
      <trkpt lat="45.85806" lon="2.97698">
        <ele>900.89257</ele>
        <time>2013-09-28T10:09:26Z</time>
      </trkpt>
      <trkpt lat="45.85804" lon="2.97703">
        <ele>901.37329</ele>
        <time>2013-09-28T10:09:28Z</time>
      </trkpt>
      <trkpt lat="45.85802" lon="2.97719">
        <ele>901.854</ele>
        <time>2013-09-28T10:09:34Z</time>
      </trkpt>
      <trkpt lat="45.85801" lon="2.97739">
        <ele>901.854</ele>
        <time>2013-09-28T10:09:40Z</time>
      </trkpt>
      <trkpt lat="45.85803" lon="2.9776">
        <ele>902.33447</ele>
        <time>2013-09-28T10:09:46Z</time>
      </trkpt>
      <trkpt lat="45.85806" lon="2.97774">
        <ele>902.81518</ele>
        <time>2013-09-28T10:09:50Z</time>
      </trkpt>
      <trkpt lat="45.85809" lon="2.97794">
        <ele>903.29589</ele>
        <time>2013-09-28T10:09:56Z</time>
      </trkpt>
      <trkpt lat="45.85806" lon="2.97812">
        <ele>904.25732</ele>
        <time>2013-09-28T10:10:03Z</time>
      </trkpt>
      <trkpt lat="45.85804" lon="2.97822">
        <ele>904.73779</ele>
        <time>2013-09-28T10:10:07Z</time>
      </trkpt>
      <trkpt lat="45.85801" lon="2.97849">
        <ele>904.73779</ele>
        <time>2013-09-28T10:10:15Z</time>
      </trkpt>
      <trkpt lat="45.85793" lon="2.97871">
        <ele>905.69921</ele>
        <time>2013-09-28T10:10:21Z</time>
      </trkpt>
      <trkpt lat="45.85785" lon="2.97895">
        <ele>905.69921</ele>
        <time>2013-09-28T10:10:28Z</time>
      </trkpt>
      <trkpt lat="45.85784" lon="2.97899">
        <ele>905.69921</ele>
        <time>2013-09-28T10:10:29Z</time>
      </trkpt>
      <trkpt lat="45.85776" lon="2.97918">
        <ele>906.17968</ele>
        <time>2013-09-28T10:10:35Z</time>
      </trkpt>
      <trkpt lat="45.85774" lon="2.97925">
        <ele>906.6604</ele>
        <time>2013-09-28T10:10:38Z</time>
      </trkpt>
      <trkpt lat="45.85769" lon="2.97942">
        <ele>907.14111</ele>
        <time>2013-09-28T10:10:45Z</time>
      </trkpt>
      <trkpt lat="45.85766" lon="2.97957">
        <ele>907.62182</ele>
        <time>2013-09-28T10:10:49Z</time>
      </trkpt>
      <trkpt lat="45.85758" lon="2.97972">
        <ele>908.10278</ele>
        <time>2013-09-28T10:10:55Z</time>
      </trkpt>
      <trkpt lat="45.8575" lon="2.97985">
        <ele>908.58325</ele>
        <time>2013-09-28T10:11:00Z</time>
      </trkpt>
      <trkpt lat="45.85745" lon="2.97998">
        <ele>908.58325</ele>
        <time>2013-09-28T10:11:05Z</time>
      </trkpt>
      <trkpt lat="45.85741" lon="2.9801">
        <ele>908.58325</ele>
        <time>2013-09-28T10:11:10Z</time>
      </trkpt>
      <trkpt lat="45.85739" lon="2.9801">
        <ele>909.06396</ele>
        <time>2013-09-28T10:11:14Z</time>
      </trkpt>
      <trkpt lat="45.85733" lon="2.98008">
        <ele>908.58325</ele>
        <time>2013-09-28T10:11:21Z</time>
      </trkpt>
      <trkpt lat="45.85743" lon="2.98016">
        <ele>908.10278</ele>
        <time>2013-09-28T10:11:39Z</time>
      </trkpt>
      <trkpt lat="45.85743" lon="2.98008">
        <ele>908.10278</ele>
        <time>2013-09-28T10:11:55Z</time>
      </trkpt>
      <trkpt lat="45.85738" lon="2.97999">
        <ele>908.10278</ele>
        <time>2013-09-28T10:12:06Z</time>
      </trkpt>
      <trkpt lat="45.85748" lon="2.98005">
        <ele>907.62182</ele>
        <time>2013-09-28T10:12:52Z</time>
      </trkpt>
      <trkpt lat="45.85743" lon="2.98012">
        <ele>907.62182</ele>
        <time>2013-09-28T10:13:15Z</time>
      </trkpt>
      <trkpt lat="45.85751" lon="2.98013">
        <ele>905.69921</ele>
        <time>2013-09-28T10:15:03Z</time>
      </trkpt>
      <trkpt lat="45.85741" lon="2.98011">
        <ele>905.2185</ele>
        <time>2013-09-28T10:17:28Z</time>
      </trkpt>
      <trkpt lat="45.85751" lon="2.98015">
        <ele>904.73779</ele>
        <time>2013-09-28T10:18:13Z</time>
      </trkpt>
      <trkpt lat="45.85749" lon="2.98019">
        <ele>904.25732</ele>
        <time>2013-09-28T10:18:40Z</time>
      </trkpt>
      <trkpt lat="45.85747" lon="2.98001">
        <ele>902.33447</ele>
        <time>2013-09-28T10:19:34Z</time>
      </trkpt>
      <trkpt lat="45.85736" lon="2.97997">
        <ele>903.29589</ele>
        <time>2013-09-28T10:19:57Z</time>
      </trkpt>
      <trkpt lat="45.85739" lon="2.98006">
        <ele>903.77661</ele>
        <time>2013-09-28T10:20:31Z</time>
      </trkpt>
      <trkpt lat="45.85733" lon="2.98004">
        <ele>903.77661</ele>
        <time>2013-09-28T10:20:37Z</time>
      </trkpt>
      <trkpt lat="45.85726" lon="2.97996">
        <ele>903.29589</ele>
        <time>2013-09-28T10:21:01Z</time>
      </trkpt>
      <trkpt lat="45.85727" lon="2.98001">
        <ele>903.29589</ele>
        <time>2013-09-28T10:21:06Z</time>
      </trkpt>
      <trkpt lat="45.85725" lon="2.98006">
        <ele>904.25732</ele>
        <time>2013-09-28T10:21:13Z</time>
      </trkpt>
      <trkpt lat="45.85723" lon="2.98007">
        <ele>904.25732</ele>
        <time>2013-09-28T10:21:19Z</time>
      </trkpt>
      <trkpt lat="45.85723" lon="2.98012">
        <ele>904.25732</ele>
        <time>2013-09-28T10:21:30Z</time>
      </trkpt>
      <trkpt lat="45.85722" lon="2.98013">
        <ele>904.25732</ele>
        <time>2013-09-28T10:21:34Z</time>
      </trkpt>
      <trkpt lat="45.85723" lon="2.98016">
        <ele>904.25732</ele>
        <time>2013-09-28T10:21:38Z</time>
      </trkpt>
      <trkpt lat="45.85722" lon="2.98028">
        <ele>903.77661</ele>
        <time>2013-09-28T10:21:42Z</time>
      </trkpt>
      <trkpt lat="45.85707" lon="2.98057">
        <ele>902.33447</ele>
        <time>2013-09-28T10:21:49Z</time>
      </trkpt>
      <trkpt lat="45.8569" lon="2.98084">
        <ele>900.89257</ele>
        <time>2013-09-28T10:21:55Z</time>
      </trkpt>
      <trkpt lat="45.85682" lon="2.98088">
        <ele>899.45068</ele>
        <time>2013-09-28T10:22:00Z</time>
      </trkpt>
      <trkpt lat="45.85678" lon="2.98089">
        <ele>899.45068</ele>
        <time>2013-09-28T10:22:05Z</time>
      </trkpt>
      <trkpt lat="45.85675" lon="2.98088">
        <ele>899.45068</ele>
        <time>2013-09-28T10:22:11Z</time>
      </trkpt>
      <trkpt lat="45.85671" lon="2.98087">
        <ele>898.96997</ele>
        <time>2013-09-28T10:22:18Z</time>
      </trkpt>
      <trkpt lat="45.85669" lon="2.9809">
        <ele>898.48925</ele>
        <time>2013-09-28T10:22:25Z</time>
      </trkpt>
      <trkpt lat="45.85673" lon="2.9809">
        <ele>899.45068</ele>
        <time>2013-09-28T10:22:29Z</time>
      </trkpt>
    </trkseg>
  </trk>
</gpx>